<?xml version="1.0" encoding="UTF-8" standalone="no" ?>
<gpx xmlns="http://www.topografix.com/GPX/1/1" xmlns:xsi="http://www.w3.org/2001/XMLSchema-instance" xsi:schemaLocation="http://www.topografix.com/GPX/1/1 http://www.topografix.com/GPX/1/1/gpx.xsd" version="1.1" creator="VisuGPX - https://www.visugpx.com">
  <metadata>
    <name>Randonnée Saucisson chaud à Lozanne</name>
    <desc><![CDATA[Randonnée organisée par le sou des écoles de Lozanne]]></desc>
  </metadata>
  <trk>
    <name><![CDATA[rando saucisson]]></name>
    <trkseg>
      <trkpt lat="45.85646" lon="4.68131">
        <ele>199.19999694824</ele>
        <time>2014-01-26T07:06:27.000Z</time>
      </trkpt>
      <trkpt lat="45.85644" lon="4.68129">
        <ele>199.19999694824</ele>
        <time>2014-01-26T07:06:30.000Z</time>
      </trkpt>
      <trkpt lat="45.85656" lon="4.68138">
        <ele>198.80000305176</ele>
        <time>2014-01-26T07:06:38.000Z</time>
      </trkpt>
      <trkpt lat="45.85666" lon="4.6816">
        <ele>198.19999694824</ele>
        <time>2014-01-26T07:06:45.000Z</time>
      </trkpt>
      <trkpt lat="45.8567" lon="4.68166">
        <ele>198</ele>
        <time>2014-01-26T07:06:47.000Z</time>
      </trkpt>
      <trkpt lat="45.85684" lon="4.68186">
        <ele>198.80000305176</ele>
        <time>2014-01-26T07:06:54.000Z</time>
      </trkpt>
      <trkpt lat="45.85697" lon="4.68207">
        <ele>199.19999694824</ele>
        <time>2014-01-26T07:07:01.000Z</time>
      </trkpt>
      <trkpt lat="45.85712" lon="4.68228">
        <ele>199.39999389648</ele>
        <time>2014-01-26T07:07:08.000Z</time>
      </trkpt>
      <trkpt lat="45.85727" lon="4.68247">
        <ele>199.19999694824</ele>
        <time>2014-01-26T07:07:15.000Z</time>
      </trkpt>
      <trkpt lat="45.85742" lon="4.68263">
        <ele>199.39999389648</ele>
        <time>2014-01-26T07:07:21.000Z</time>
      </trkpt>
      <trkpt lat="45.85756" lon="4.68279">
        <ele>199.80000305176</ele>
        <time>2014-01-26T07:07:27.000Z</time>
      </trkpt>
      <trkpt lat="45.85772" lon="4.68296">
        <ele>200.39999389648</ele>
        <time>2014-01-26T07:07:34.000Z</time>
      </trkpt>
      <trkpt lat="45.85789" lon="4.68314">
        <ele>200.60000610352</ele>
        <time>2014-01-26T07:07:41.000Z</time>
      </trkpt>
      <trkpt lat="45.85805" lon="4.68328">
        <ele>200.39999389648</ele>
        <time>2014-01-26T07:07:48.000Z</time>
      </trkpt>
      <trkpt lat="45.8582" lon="4.68348">
        <ele>200</ele>
        <time>2014-01-26T07:07:55.000Z</time>
      </trkpt>
      <trkpt lat="45.85834" lon="4.68368">
        <ele>199.60000610352</ele>
        <time>2014-01-26T07:08:02.000Z</time>
      </trkpt>
      <trkpt lat="45.8585" lon="4.68386">
        <ele>200.19999694824</ele>
        <time>2014-01-26T07:08:10.000Z</time>
      </trkpt>
      <trkpt lat="45.85862" lon="4.68409">
        <ele>200.19999694824</ele>
        <time>2014-01-26T07:08:18.000Z</time>
      </trkpt>
      <trkpt lat="45.85868" lon="4.68434">
        <ele>200.19999694824</ele>
        <time>2014-01-26T07:08:26.000Z</time>
      </trkpt>
      <trkpt lat="45.85869" lon="4.68437">
        <ele>200.39999389648</ele>
        <time>2014-01-26T07:08:27.000Z</time>
      </trkpt>
      <trkpt lat="45.8588" lon="4.68435">
        <ele>200.60000610352</ele>
        <time>2014-01-26T07:08:32.000Z</time>
      </trkpt>
      <trkpt lat="45.85896" lon="4.68417">
        <ele>201.19999694824</ele>
        <time>2014-01-26T07:08:40.000Z</time>
      </trkpt>
      <trkpt lat="45.85913" lon="4.68401">
        <ele>202.39999389648</ele>
        <time>2014-01-26T07:08:48.000Z</time>
      </trkpt>
      <trkpt lat="45.85928" lon="4.68384">
        <ele>204.60000610352</ele>
        <time>2014-01-26T07:08:56.000Z</time>
      </trkpt>
      <trkpt lat="45.85944" lon="4.6837">
        <ele>207.19999694824</ele>
        <time>2014-01-26T07:09:04.000Z</time>
      </trkpt>
      <trkpt lat="45.85955" lon="4.6835">
        <ele>209.39999389648</ele>
        <time>2014-01-26T07:09:12.000Z</time>
      </trkpt>
      <trkpt lat="45.85953" lon="4.68323">
        <ele>210.60000610352</ele>
        <time>2014-01-26T07:09:23.000Z</time>
      </trkpt>
      <trkpt lat="45.85952" lon="4.68321">
        <ele>210.60000610352</ele>
        <time>2014-01-26T07:09:24.000Z</time>
      </trkpt>
      <trkpt lat="45.85949" lon="4.68294">
        <ele>212.39999389648</ele>
        <time>2014-01-26T07:09:35.000Z</time>
      </trkpt>
      <trkpt lat="45.85947" lon="4.68268">
        <ele>214.19999694824</ele>
        <time>2014-01-26T07:09:46.000Z</time>
      </trkpt>
      <trkpt lat="45.85942" lon="4.68241">
        <ele>216.19999694824</ele>
        <time>2014-01-26T07:09:56.000Z</time>
      </trkpt>
      <trkpt lat="45.85941" lon="4.68233">
        <ele>217.19999694824</ele>
        <time>2014-01-26T07:09:59.000Z</time>
      </trkpt>
      <trkpt lat="45.85942" lon="4.6822">
        <ele>218.80000305176</ele>
        <time>2014-01-26T07:10:04.000Z</time>
      </trkpt>
      <trkpt lat="45.85958" lon="4.68215">
        <ele>221.19999694824</ele>
        <time>2014-01-26T07:10:13.000Z</time>
      </trkpt>
      <trkpt lat="45.85977" lon="4.68218">
        <ele>222.60000610352</ele>
        <time>2014-01-26T07:10:21.000Z</time>
      </trkpt>
      <trkpt lat="45.85996" lon="4.68222">
        <ele>224.19999694824</ele>
        <time>2014-01-26T07:10:29.000Z</time>
      </trkpt>
      <trkpt lat="45.86014" lon="4.68213">
        <ele>227.19999694824</ele>
        <time>2014-01-26T07:10:37.000Z</time>
      </trkpt>
      <trkpt lat="45.86031" lon="4.682">
        <ele>230.19999694824</ele>
        <time>2014-01-26T07:10:45.000Z</time>
      </trkpt>
      <trkpt lat="45.86051" lon="4.68196">
        <ele>232.39999389648</ele>
        <time>2014-01-26T07:10:53.000Z</time>
      </trkpt>
      <trkpt lat="45.8607" lon="4.68202">
        <ele>234.19999694824</ele>
        <time>2014-01-26T07:11:01.000Z</time>
      </trkpt>
      <trkpt lat="45.86072" lon="4.68201">
        <ele>234.39999389648</ele>
        <time>2014-01-26T07:11:02.000Z</time>
      </trkpt>
      <trkpt lat="45.86079" lon="4.68197">
        <ele>235.19999694824</ele>
        <time>2014-01-26T07:11:06.000Z</time>
      </trkpt>
      <trkpt lat="45.86086" lon="4.68193">
        <ele>236.19999694824</ele>
        <time>2014-01-26T07:11:12.000Z</time>
      </trkpt>
      <trkpt lat="45.86086" lon="4.68192">
        <ele>236.19999694824</ele>
        <time>2014-01-26T07:11:22.000Z</time>
      </trkpt>
      <trkpt lat="45.86069" lon="4.68202">
        <ele>234</ele>
        <time>2014-01-26T07:11:29.000Z</time>
      </trkpt>
      <trkpt lat="45.86067" lon="4.68201">
        <ele>233.80000305176</ele>
        <time>2014-01-26T07:11:30.000Z</time>
      </trkpt>
      <trkpt lat="45.86072" lon="4.68195">
        <ele>234.39999389648</ele>
        <time>2014-01-26T07:11:38.000Z</time>
      </trkpt>
      <trkpt lat="45.86089" lon="4.68183">
        <ele>236.80000305176</ele>
        <time>2014-01-26T07:11:51.000Z</time>
      </trkpt>
      <trkpt lat="45.86107" lon="4.68176">
        <ele>240</ele>
        <time>2014-01-26T07:12:01.000Z</time>
      </trkpt>
      <trkpt lat="45.86125" lon="4.68181">
        <ele>243</ele>
        <time>2014-01-26T07:12:13.000Z</time>
      </trkpt>
      <trkpt lat="45.86142" lon="4.68191">
        <ele>245.60000610352</ele>
        <time>2014-01-26T07:12:26.000Z</time>
      </trkpt>
      <trkpt lat="45.86161" lon="4.68195">
        <ele>248.80000305176</ele>
        <time>2014-01-26T07:12:37.000Z</time>
      </trkpt>
      <trkpt lat="45.86173" lon="4.68193">
        <ele>250.19999694824</ele>
        <time>2014-01-26T07:12:43.000Z</time>
      </trkpt>
      <trkpt lat="45.86187" lon="4.68191">
        <ele>251.60000610352</ele>
        <time>2014-01-26T07:12:51.000Z</time>
      </trkpt>
      <trkpt lat="45.86202" lon="4.68177">
        <ele>253.39999389648</ele>
        <time>2014-01-26T07:13:04.000Z</time>
      </trkpt>
      <trkpt lat="45.8621" lon="4.68154">
        <ele>254.39999389648</ele>
        <time>2014-01-26T07:13:12.000Z</time>
      </trkpt>
      <trkpt lat="45.86214" lon="4.68151">
        <ele>254.80000305176</ele>
        <time>2014-01-26T07:13:14.000Z</time>
      </trkpt>
      <trkpt lat="45.86229" lon="4.68144">
        <ele>256</ele>
        <time>2014-01-26T07:13:20.000Z</time>
      </trkpt>
      <trkpt lat="45.86247" lon="4.68136">
        <ele>257.79998779297</ele>
        <time>2014-01-26T07:13:27.000Z</time>
      </trkpt>
      <trkpt lat="45.86266" lon="4.68128">
        <ele>258.79998779297</ele>
        <time>2014-01-26T07:13:34.000Z</time>
      </trkpt>
      <trkpt lat="45.86283" lon="4.68116">
        <ele>259.79998779297</ele>
        <time>2014-01-26T07:13:41.000Z</time>
      </trkpt>
      <trkpt lat="45.86297" lon="4.68098">
        <ele>261</ele>
        <time>2014-01-26T07:13:49.000Z</time>
      </trkpt>
      <trkpt lat="45.86312" lon="4.68079">
        <ele>262.39999389648</ele>
        <time>2014-01-26T07:13:57.000Z</time>
      </trkpt>
      <trkpt lat="45.86326" lon="4.68059">
        <ele>263.60000610352</ele>
        <time>2014-01-26T07:14:05.000Z</time>
      </trkpt>
      <trkpt lat="45.86341" lon="4.68041">
        <ele>265.20001220703</ele>
        <time>2014-01-26T07:14:13.000Z</time>
      </trkpt>
      <trkpt lat="45.86356" lon="4.68023">
        <ele>267.20001220703</ele>
        <time>2014-01-26T07:14:22.000Z</time>
      </trkpt>
      <trkpt lat="45.86371" lon="4.68008">
        <ele>270</ele>
        <time>2014-01-26T07:14:31.000Z</time>
      </trkpt>
      <trkpt lat="45.86386" lon="4.67991">
        <ele>272.79998779297</ele>
        <time>2014-01-26T07:14:40.000Z</time>
      </trkpt>
      <trkpt lat="45.86399" lon="4.6797">
        <ele>275.60000610352</ele>
        <time>2014-01-26T07:14:49.000Z</time>
      </trkpt>
      <trkpt lat="45.86409" lon="4.67947">
        <ele>278</ele>
        <time>2014-01-26T07:14:57.000Z</time>
      </trkpt>
      <trkpt lat="45.86419" lon="4.67924">
        <ele>281</ele>
        <time>2014-01-26T07:15:06.000Z</time>
      </trkpt>
      <trkpt lat="45.86432" lon="4.67903">
        <ele>282.60000610352</ele>
        <time>2014-01-26T07:15:17.000Z</time>
      </trkpt>
      <trkpt lat="45.86445" lon="4.67884">
        <ele>283.60000610352</ele>
        <time>2014-01-26T07:15:26.000Z</time>
      </trkpt>
      <trkpt lat="45.8646" lon="4.67868">
        <ele>284.79998779297</ele>
        <time>2014-01-26T07:15:34.000Z</time>
      </trkpt>
      <trkpt lat="45.86475" lon="4.67854">
        <ele>286</ele>
        <time>2014-01-26T07:15:41.000Z</time>
      </trkpt>
      <trkpt lat="45.86491" lon="4.67841">
        <ele>287.39999389648</ele>
        <time>2014-01-26T07:15:48.000Z</time>
      </trkpt>
      <trkpt lat="45.8651" lon="4.67832">
        <ele>288.60000610352</ele>
        <time>2014-01-26T07:15:56.000Z</time>
      </trkpt>
      <trkpt lat="45.86529" lon="4.67827">
        <ele>289.39999389648</ele>
        <time>2014-01-26T07:16:03.000Z</time>
      </trkpt>
      <trkpt lat="45.86548" lon="4.67819">
        <ele>290.39999389648</ele>
        <time>2014-01-26T07:16:10.000Z</time>
      </trkpt>
      <trkpt lat="45.86565" lon="4.67808">
        <ele>291.20001220703</ele>
        <time>2014-01-26T07:16:17.000Z</time>
      </trkpt>
      <trkpt lat="45.86581" lon="4.67793">
        <ele>292.39999389648</ele>
        <time>2014-01-26T07:16:24.000Z</time>
      </trkpt>
      <trkpt lat="45.86597" lon="4.67776">
        <ele>294</ele>
        <time>2014-01-26T07:16:31.000Z</time>
      </trkpt>
      <trkpt lat="45.86614" lon="4.67768">
        <ele>296.39999389648</ele>
        <time>2014-01-26T07:16:39.000Z</time>
      </trkpt>
      <trkpt lat="45.86632" lon="4.67763">
        <ele>299.20001220703</ele>
        <time>2014-01-26T07:16:47.000Z</time>
      </trkpt>
      <trkpt lat="45.8665" lon="4.67762">
        <ele>301.79998779297</ele>
        <time>2014-01-26T07:16:55.000Z</time>
      </trkpt>
      <trkpt lat="45.86668" lon="4.67762">
        <ele>304.20001220703</ele>
        <time>2014-01-26T07:17:03.000Z</time>
      </trkpt>
      <trkpt lat="45.86683" lon="4.67744">
        <ele>306.60000610352</ele>
        <time>2014-01-26T07:17:12.000Z</time>
      </trkpt>
      <trkpt lat="45.86691" lon="4.6772">
        <ele>308.60000610352</ele>
        <time>2014-01-26T07:17:21.000Z</time>
      </trkpt>
      <trkpt lat="45.867" lon="4.67694">
        <ele>311</ele>
        <time>2014-01-26T07:17:30.000Z</time>
      </trkpt>
      <trkpt lat="45.86715" lon="4.67679">
        <ele>313.20001220703</ele>
        <time>2014-01-26T07:17:39.000Z</time>
      </trkpt>
      <trkpt lat="45.86733" lon="4.67671">
        <ele>315.20001220703</ele>
        <time>2014-01-26T07:17:47.000Z</time>
      </trkpt>
      <trkpt lat="45.86743" lon="4.67668">
        <ele>316.39999389648</ele>
        <time>2014-01-26T07:17:52.000Z</time>
      </trkpt>
      <trkpt lat="45.86761" lon="4.67663">
        <ele>317.39999389648</ele>
        <time>2014-01-26T07:18:02.000Z</time>
      </trkpt>
      <trkpt lat="45.86765" lon="4.67666">
        <ele>317.60000610352</ele>
        <time>2014-01-26T07:18:04.000Z</time>
      </trkpt>
      <trkpt lat="45.86783" lon="4.67679">
        <ele>317.20001220703</ele>
        <time>2014-01-26T07:18:12.000Z</time>
      </trkpt>
      <trkpt lat="45.86786" lon="4.67679">
        <ele>317.39999389648</ele>
        <time>2014-01-26T07:18:13.000Z</time>
      </trkpt>
      <trkpt lat="45.86796" lon="4.67679">
        <ele>317.60000610352</ele>
        <time>2014-01-26T07:18:17.000Z</time>
      </trkpt>
      <trkpt lat="45.86815" lon="4.67667">
        <ele>319.20001220703</ele>
        <time>2014-01-26T07:18:25.000Z</time>
      </trkpt>
      <trkpt lat="45.86829" lon="4.67652">
        <ele>320.39999389648</ele>
        <time>2014-01-26T07:18:32.000Z</time>
      </trkpt>
      <trkpt lat="45.86846" lon="4.67639">
        <ele>321.39999389648</ele>
        <time>2014-01-26T07:18:40.000Z</time>
      </trkpt>
      <trkpt lat="45.86862" lon="4.67626">
        <ele>322.39999389648</ele>
        <time>2014-01-26T07:18:48.000Z</time>
      </trkpt>
      <trkpt lat="45.86878" lon="4.67608">
        <ele>323.60000610352</ele>
        <time>2014-01-26T07:18:56.000Z</time>
      </trkpt>
      <trkpt lat="45.86892" lon="4.6759">
        <ele>324.79998779297</ele>
        <time>2014-01-26T07:19:04.000Z</time>
      </trkpt>
      <trkpt lat="45.86906" lon="4.67571">
        <ele>325.79998779297</ele>
        <time>2014-01-26T07:19:12.000Z</time>
      </trkpt>
      <trkpt lat="45.86921" lon="4.67551">
        <ele>326.60000610352</ele>
        <time>2014-01-26T07:19:20.000Z</time>
      </trkpt>
      <trkpt lat="45.86934" lon="4.67529">
        <ele>327.79998779297</ele>
        <time>2014-01-26T07:19:28.000Z</time>
      </trkpt>
      <trkpt lat="45.86952" lon="4.67519">
        <ele>329.20001220703</ele>
        <time>2014-01-26T07:19:36.000Z</time>
      </trkpt>
      <trkpt lat="45.8696" lon="4.67518">
        <ele>329.60000610352</ele>
        <time>2014-01-26T07:19:39.000Z</time>
      </trkpt>
      <trkpt lat="45.8698" lon="4.6752">
        <ele>331</ele>
        <time>2014-01-26T07:19:47.000Z</time>
      </trkpt>
      <trkpt lat="45.87" lon="4.6752">
        <ele>332.20001220703</ele>
        <time>2014-01-26T07:19:55.000Z</time>
      </trkpt>
      <trkpt lat="45.87017" lon="4.67508">
        <ele>334</ele>
        <time>2014-01-26T07:20:04.000Z</time>
      </trkpt>
      <trkpt lat="45.87036" lon="4.67506">
        <ele>335.39999389648</ele>
        <time>2014-01-26T07:20:12.000Z</time>
      </trkpt>
      <trkpt lat="45.87054" lon="4.67517">
        <ele>336.20001220703</ele>
        <time>2014-01-26T07:20:18.000Z</time>
      </trkpt>
      <trkpt lat="45.87073" lon="4.67528">
        <ele>337.20001220703</ele>
        <time>2014-01-26T07:20:25.000Z</time>
      </trkpt>
      <trkpt lat="45.87091" lon="4.67536">
        <ele>338.39999389648</ele>
        <time>2014-01-26T07:20:32.000Z</time>
      </trkpt>
      <trkpt lat="45.87108" lon="4.67545">
        <ele>339.39999389648</ele>
        <time>2014-01-26T07:20:39.000Z</time>
      </trkpt>
      <trkpt lat="45.87128" lon="4.67551">
        <ele>340.79998779297</ele>
        <time>2014-01-26T07:20:47.000Z</time>
      </trkpt>
      <trkpt lat="45.87146" lon="4.67547">
        <ele>342.60000610352</ele>
        <time>2014-01-26T07:20:54.000Z</time>
      </trkpt>
      <trkpt lat="45.87164" lon="4.67538">
        <ele>344.39999389648</ele>
        <time>2014-01-26T07:21:02.000Z</time>
      </trkpt>
      <trkpt lat="45.8718" lon="4.67526">
        <ele>346.20001220703</ele>
        <time>2014-01-26T07:21:10.000Z</time>
      </trkpt>
      <trkpt lat="45.87197" lon="4.67515">
        <ele>348</ele>
        <time>2014-01-26T07:21:19.000Z</time>
      </trkpt>
      <trkpt lat="45.87214" lon="4.67503">
        <ele>349.79998779297</ele>
        <time>2014-01-26T07:21:27.000Z</time>
      </trkpt>
      <trkpt lat="45.87231" lon="4.67491">
        <ele>351.79998779297</ele>
        <time>2014-01-26T07:21:36.000Z</time>
      </trkpt>
      <trkpt lat="45.87234" lon="4.6749">
        <ele>352.20001220703</ele>
        <time>2014-01-26T07:21:38.000Z</time>
      </trkpt>
      <trkpt lat="45.87246" lon="4.67484">
        <ele>353.60000610352</ele>
        <time>2014-01-26T07:21:44.000Z</time>
      </trkpt>
      <trkpt lat="45.87264" lon="4.67476">
        <ele>355.60000610352</ele>
        <time>2014-01-26T07:21:52.000Z</time>
      </trkpt>
      <trkpt lat="45.87284" lon="4.67471">
        <ele>357.39999389648</ele>
        <time>2014-01-26T07:22:01.000Z</time>
      </trkpt>
      <trkpt lat="45.87302" lon="4.67463">
        <ele>359.60000610352</ele>
        <time>2014-01-26T07:22:10.000Z</time>
      </trkpt>
      <trkpt lat="45.87322" lon="4.67463">
        <ele>361.20001220703</ele>
        <time>2014-01-26T07:22:19.000Z</time>
      </trkpt>
      <trkpt lat="45.87341" lon="4.67458">
        <ele>363</ele>
        <time>2014-01-26T07:22:26.000Z</time>
      </trkpt>
      <trkpt lat="45.87359" lon="4.67457">
        <ele>364.20001220703</ele>
        <time>2014-01-26T07:22:34.000Z</time>
      </trkpt>
      <trkpt lat="45.87379" lon="4.67457">
        <ele>365.39999389648</ele>
        <time>2014-01-26T07:22:43.000Z</time>
      </trkpt>
      <trkpt lat="45.87399" lon="4.67454">
        <ele>366.60000610352</ele>
        <time>2014-01-26T07:22:51.000Z</time>
      </trkpt>
      <trkpt lat="45.87418" lon="4.67448">
        <ele>368.20001220703</ele>
        <time>2014-01-26T07:22:59.000Z</time>
      </trkpt>
      <trkpt lat="45.87437" lon="4.67441">
        <ele>369.79998779297</ele>
        <time>2014-01-26T07:23:07.000Z</time>
      </trkpt>
      <trkpt lat="45.87456" lon="4.67434">
        <ele>371.60000610352</ele>
        <time>2014-01-26T07:23:15.000Z</time>
      </trkpt>
      <trkpt lat="45.87475" lon="4.67427">
        <ele>373</ele>
        <time>2014-01-26T07:23:23.000Z</time>
      </trkpt>
      <trkpt lat="45.87494" lon="4.67419">
        <ele>374.60000610352</ele>
        <time>2014-01-26T07:23:31.000Z</time>
      </trkpt>
      <trkpt lat="45.87514" lon="4.67414">
        <ele>375.39999389648</ele>
        <time>2014-01-26T07:23:39.000Z</time>
      </trkpt>
      <trkpt lat="45.87532" lon="4.67411">
        <ele>376</ele>
        <time>2014-01-26T07:23:46.000Z</time>
      </trkpt>
      <trkpt lat="45.87542" lon="4.67411">
        <ele>376.39999389648</ele>
        <time>2014-01-26T07:23:51.000Z</time>
      </trkpt>
      <trkpt lat="45.87544" lon="4.6743">
        <ele>375.60000610352</ele>
        <time>2014-01-26T07:23:56.000Z</time>
      </trkpt>
      <trkpt lat="45.87549" lon="4.67455">
        <ele>375</ele>
        <time>2014-01-26T07:24:03.000Z</time>
      </trkpt>
      <trkpt lat="45.8755" lon="4.67456">
        <ele>375</ele>
        <time>2014-01-26T07:24:04.000Z</time>
      </trkpt>
      <trkpt lat="45.8756" lon="4.67476">
        <ele>374.79998779297</ele>
        <time>2014-01-26T07:24:12.000Z</time>
      </trkpt>
      <trkpt lat="45.87562" lon="4.67503">
        <ele>374</ele>
        <time>2014-01-26T07:24:19.000Z</time>
      </trkpt>
      <trkpt lat="45.87566" lon="4.67523">
        <ele>373.20001220703</ele>
        <time>2014-01-26T07:24:24.000Z</time>
      </trkpt>
      <trkpt lat="45.87584" lon="4.67527">
        <ele>373.60000610352</ele>
        <time>2014-01-26T07:24:30.000Z</time>
      </trkpt>
      <trkpt lat="45.87603" lon="4.67538">
        <ele>373.20001220703</ele>
        <time>2014-01-26T07:24:36.000Z</time>
      </trkpt>
      <trkpt lat="45.87623" lon="4.67544">
        <ele>372.79998779297</ele>
        <time>2014-01-26T07:24:43.000Z</time>
      </trkpt>
      <trkpt lat="45.87641" lon="4.67551">
        <ele>372.39999389648</ele>
        <time>2014-01-26T07:24:50.000Z</time>
      </trkpt>
      <trkpt lat="45.87659" lon="4.67561">
        <ele>371.60000610352</ele>
        <time>2014-01-26T07:24:57.000Z</time>
      </trkpt>
      <trkpt lat="45.87678" lon="4.67574">
        <ele>370.79998779297</ele>
        <time>2014-01-26T07:25:04.000Z</time>
      </trkpt>
      <trkpt lat="45.87696" lon="4.67586">
        <ele>370.20001220703</ele>
        <time>2014-01-26T07:25:11.000Z</time>
      </trkpt>
      <trkpt lat="45.87713" lon="4.676">
        <ele>369.79998779297</ele>
        <time>2014-01-26T07:25:18.000Z</time>
      </trkpt>
      <trkpt lat="45.87731" lon="4.67613">
        <ele>369.79998779297</ele>
        <time>2014-01-26T07:25:25.000Z</time>
      </trkpt>
      <trkpt lat="45.87751" lon="4.67625">
        <ele>370</ele>
        <time>2014-01-26T07:25:32.000Z</time>
      </trkpt>
      <trkpt lat="45.87759" lon="4.6763">
        <ele>370.39999389648</ele>
        <time>2014-01-26T07:25:35.000Z</time>
      </trkpt>
      <trkpt lat="45.87777" lon="4.67637">
        <ele>371.39999389648</ele>
        <time>2014-01-26T07:25:42.000Z</time>
      </trkpt>
      <trkpt lat="45.87796" lon="4.6764">
        <ele>372.60000610352</ele>
        <time>2014-01-26T07:25:49.000Z</time>
      </trkpt>
      <trkpt lat="45.87815" lon="4.67644">
        <ele>373.60000610352</ele>
        <time>2014-01-26T07:25:56.000Z</time>
      </trkpt>
      <trkpt lat="45.87834" lon="4.67645">
        <ele>374.79998779297</ele>
        <time>2014-01-26T07:26:03.000Z</time>
      </trkpt>
      <trkpt lat="45.87853" lon="4.67648">
        <ele>373.79998779297</ele>
        <time>2014-01-26T07:26:10.000Z</time>
      </trkpt>
      <trkpt lat="45.87872" lon="4.67654">
        <ele>373</ele>
        <time>2014-01-26T07:26:17.000Z</time>
      </trkpt>
      <trkpt lat="45.8789" lon="4.6766">
        <ele>372</ele>
        <time>2014-01-26T07:26:24.000Z</time>
      </trkpt>
      <trkpt lat="45.8791" lon="4.67652">
        <ele>371.39999389648</ele>
        <time>2014-01-26T07:26:31.000Z</time>
      </trkpt>
      <trkpt lat="45.87917" lon="4.67644">
        <ele>371.20001220703</ele>
        <time>2014-01-26T07:26:34.000Z</time>
      </trkpt>
      <trkpt lat="45.87926" lon="4.67621">
        <ele>370.39999389648</ele>
        <time>2014-01-26T07:26:40.000Z</time>
      </trkpt>
      <trkpt lat="45.8793" lon="4.67593">
        <ele>369.79998779297</ele>
        <time>2014-01-26T07:26:47.000Z</time>
      </trkpt>
      <trkpt lat="45.87939" lon="4.67568">
        <ele>368</ele>
        <time>2014-01-26T07:26:54.000Z</time>
      </trkpt>
      <trkpt lat="45.87951" lon="4.67543">
        <ele>365.79998779297</ele>
        <time>2014-01-26T07:27:01.000Z</time>
      </trkpt>
      <trkpt lat="45.87962" lon="4.6752">
        <ele>363.60000610352</ele>
        <time>2014-01-26T07:27:08.000Z</time>
      </trkpt>
      <trkpt lat="45.87974" lon="4.67497">
        <ele>361.60000610352</ele>
        <time>2014-01-26T07:27:15.000Z</time>
      </trkpt>
      <trkpt lat="45.87985" lon="4.67473">
        <ele>359.20001220703</ele>
        <time>2014-01-26T07:27:22.000Z</time>
      </trkpt>
      <trkpt lat="45.87997" lon="4.67449">
        <ele>357.20001220703</ele>
        <time>2014-01-26T07:27:29.000Z</time>
      </trkpt>
      <trkpt lat="45.88008" lon="4.67427">
        <ele>355.39999389648</ele>
        <time>2014-01-26T07:27:35.000Z</time>
      </trkpt>
      <trkpt lat="45.88021" lon="4.67403">
        <ele>353.60000610352</ele>
        <time>2014-01-26T07:27:41.000Z</time>
      </trkpt>
      <trkpt lat="45.88032" lon="4.67377">
        <ele>352.20001220703</ele>
        <time>2014-01-26T07:27:47.000Z</time>
      </trkpt>
      <trkpt lat="45.88043" lon="4.67355">
        <ele>351.39999389648</ele>
        <time>2014-01-26T07:27:53.000Z</time>
      </trkpt>
      <trkpt lat="45.8805" lon="4.6733">
        <ele>351.39999389648</ele>
        <time>2014-01-26T07:28:00.000Z</time>
      </trkpt>
      <trkpt lat="45.8806" lon="4.67306">
        <ele>353.20001220703</ele>
        <time>2014-01-26T07:28:07.000Z</time>
      </trkpt>
      <trkpt lat="45.88062" lon="4.67304">
        <ele>353.39999389648</ele>
        <time>2014-01-26T07:28:08.000Z</time>
      </trkpt>
      <trkpt lat="45.88079" lon="4.67311">
        <ele>352.20001220703</ele>
        <time>2014-01-26T07:28:14.000Z</time>
      </trkpt>
      <trkpt lat="45.88085" lon="4.67315">
        <ele>351.60000610352</ele>
        <time>2014-01-26T07:28:16.000Z</time>
      </trkpt>
      <trkpt lat="45.88102" lon="4.67328">
        <ele>349.39999389648</ele>
        <time>2014-01-26T07:28:22.000Z</time>
      </trkpt>
      <trkpt lat="45.8812" lon="4.67341">
        <ele>347.39999389648</ele>
        <time>2014-01-26T07:28:29.000Z</time>
      </trkpt>
      <trkpt lat="45.88138" lon="4.67352">
        <ele>345.79998779297</ele>
        <time>2014-01-26T07:28:35.000Z</time>
      </trkpt>
      <trkpt lat="45.88155" lon="4.67364">
        <ele>344</ele>
        <time>2014-01-26T07:28:41.000Z</time>
      </trkpt>
      <trkpt lat="45.88172" lon="4.67374">
        <ele>342.60000610352</ele>
        <time>2014-01-26T07:28:47.000Z</time>
      </trkpt>
      <trkpt lat="45.88192" lon="4.67373">
        <ele>343</ele>
        <time>2014-01-26T07:28:54.000Z</time>
      </trkpt>
      <trkpt lat="45.88212" lon="4.67373">
        <ele>343.20001220703</ele>
        <time>2014-01-26T07:29:01.000Z</time>
      </trkpt>
      <trkpt lat="45.88231" lon="4.67374">
        <ele>343.39999389648</ele>
        <time>2014-01-26T07:29:08.000Z</time>
      </trkpt>
      <trkpt lat="45.88249" lon="4.67377">
        <ele>343.39999389648</ele>
        <time>2014-01-26T07:29:14.000Z</time>
      </trkpt>
      <trkpt lat="45.88268" lon="4.67381">
        <ele>342.39999389648</ele>
        <time>2014-01-26T07:29:21.000Z</time>
      </trkpt>
      <trkpt lat="45.88287" lon="4.67385">
        <ele>341.20001220703</ele>
        <time>2014-01-26T07:29:28.000Z</time>
      </trkpt>
      <trkpt lat="45.88306" lon="4.67392">
        <ele>340</ele>
        <time>2014-01-26T07:29:35.000Z</time>
      </trkpt>
      <trkpt lat="45.88325" lon="4.674">
        <ele>338.60000610352</ele>
        <time>2014-01-26T07:29:42.000Z</time>
      </trkpt>
      <trkpt lat="45.88344" lon="4.6741">
        <ele>337.39999389648</ele>
        <time>2014-01-26T07:29:49.000Z</time>
      </trkpt>
      <trkpt lat="45.88364" lon="4.67419">
        <ele>336.79998779297</ele>
        <time>2014-01-26T07:29:56.000Z</time>
      </trkpt>
      <trkpt lat="45.88382" lon="4.67429">
        <ele>335.60000610352</ele>
        <time>2014-01-26T07:30:03.000Z</time>
      </trkpt>
      <trkpt lat="45.88401" lon="4.67436">
        <ele>335</ele>
        <time>2014-01-26T07:30:10.000Z</time>
      </trkpt>
      <trkpt lat="45.8842" lon="4.67445">
        <ele>333.79998779297</ele>
        <time>2014-01-26T07:30:17.000Z</time>
      </trkpt>
      <trkpt lat="45.8844" lon="4.67452">
        <ele>332.39999389648</ele>
        <time>2014-01-26T07:30:24.000Z</time>
      </trkpt>
      <trkpt lat="45.8846" lon="4.67453">
        <ele>331.79998779297</ele>
        <time>2014-01-26T07:30:31.000Z</time>
      </trkpt>
      <trkpt lat="45.88479" lon="4.67454">
        <ele>331</ele>
        <time>2014-01-26T07:30:39.000Z</time>
      </trkpt>
      <trkpt lat="45.88481" lon="4.67453">
        <ele>331.20001220703</ele>
        <time>2014-01-26T07:30:40.000Z</time>
      </trkpt>
      <trkpt lat="45.88488" lon="4.67441">
        <ele>332.20001220703</ele>
        <time>2014-01-26T07:30:44.000Z</time>
      </trkpt>
      <trkpt lat="45.88494" lon="4.67435">
        <ele>332.39999389648</ele>
        <time>2014-01-26T07:30:47.000Z</time>
      </trkpt>
      <trkpt lat="45.88496" lon="4.67435">
        <ele>332.39999389648</ele>
        <time>2014-01-26T07:30:48.000Z</time>
      </trkpt>
      <trkpt lat="45.88515" lon="4.67443">
        <ele>332.39999389648</ele>
        <time>2014-01-26T07:30:54.000Z</time>
      </trkpt>
      <trkpt lat="45.88532" lon="4.67453">
        <ele>332.60000610352</ele>
        <time>2014-01-26T07:31:01.000Z</time>
      </trkpt>
      <trkpt lat="45.88549" lon="4.67463">
        <ele>332.79998779297</ele>
        <time>2014-01-26T07:31:08.000Z</time>
      </trkpt>
      <trkpt lat="45.88568" lon="4.67473">
        <ele>333.20001220703</ele>
        <time>2014-01-26T07:31:17.000Z</time>
      </trkpt>
      <trkpt lat="45.88585" lon="4.6748">
        <ele>334</ele>
        <time>2014-01-26T07:31:26.000Z</time>
      </trkpt>
      <trkpt lat="45.88604" lon="4.67489">
        <ele>336.20001220703</ele>
        <time>2014-01-26T07:31:36.000Z</time>
      </trkpt>
      <trkpt lat="45.88622" lon="4.67502">
        <ele>338</ele>
        <time>2014-01-26T07:31:45.000Z</time>
      </trkpt>
      <trkpt lat="45.88628" lon="4.67503">
        <ele>338.60000610352</ele>
        <time>2014-01-26T07:31:48.000Z</time>
      </trkpt>
      <trkpt lat="45.88636" lon="4.6748">
        <ele>342</ele>
        <time>2014-01-26T07:32:01.000Z</time>
      </trkpt>
      <trkpt lat="45.88645" lon="4.67457">
        <ele>345.60000610352</ele>
        <time>2014-01-26T07:32:12.000Z</time>
      </trkpt>
      <trkpt lat="45.88644" lon="4.67445">
        <ele>346.60000610352</ele>
        <time>2014-01-26T07:32:16.000Z</time>
      </trkpt>
      <trkpt lat="45.88647" lon="4.6742">
        <ele>349.39999389648</ele>
        <time>2014-01-26T07:32:26.000Z</time>
      </trkpt>
      <trkpt lat="45.88646" lon="4.67393">
        <ele>352.60000610352</ele>
        <time>2014-01-26T07:32:36.000Z</time>
      </trkpt>
      <trkpt lat="45.88644" lon="4.67365">
        <ele>355.79998779297</ele>
        <time>2014-01-26T07:32:46.000Z</time>
      </trkpt>
      <trkpt lat="45.88642" lon="4.67339">
        <ele>358.60000610352</ele>
        <time>2014-01-26T07:32:56.000Z</time>
      </trkpt>
      <trkpt lat="45.88638" lon="4.67312">
        <ele>361.60000610352</ele>
        <time>2014-01-26T07:33:09.000Z</time>
      </trkpt>
      <trkpt lat="45.88639" lon="4.67285">
        <ele>365.39999389648</ele>
        <time>2014-01-26T07:33:23.000Z</time>
      </trkpt>
      <trkpt lat="45.88642" lon="4.6726">
        <ele>369.60000610352</ele>
        <time>2014-01-26T07:33:37.000Z</time>
      </trkpt>
      <trkpt lat="45.88643" lon="4.67258">
        <ele>370</ele>
        <time>2014-01-26T07:33:38.000Z</time>
      </trkpt>
      <trkpt lat="45.88653" lon="4.67259">
        <ele>372</ele>
        <time>2014-01-26T07:33:46.000Z</time>
      </trkpt>
      <trkpt lat="45.8867" lon="4.67269">
        <ele>373.79998779297</ele>
        <time>2014-01-26T07:33:57.000Z</time>
      </trkpt>
      <trkpt lat="45.88687" lon="4.67281">
        <ele>374.39999389648</ele>
        <time>2014-01-26T07:34:08.000Z</time>
      </trkpt>
      <trkpt lat="45.88699" lon="4.67293">
        <ele>374.39999389648</ele>
        <time>2014-01-26T07:34:15.000Z</time>
      </trkpt>
      <trkpt lat="45.88715" lon="4.67305">
        <ele>375.39999389648</ele>
        <time>2014-01-26T07:34:24.000Z</time>
      </trkpt>
      <trkpt lat="45.88728" lon="4.67307">
        <ele>377</ele>
        <time>2014-01-26T07:34:31.000Z</time>
      </trkpt>
      <trkpt lat="45.8874" lon="4.67312">
        <ele>378</ele>
        <time>2014-01-26T07:34:38.000Z</time>
      </trkpt>
      <trkpt lat="45.88758" lon="4.67321">
        <ele>378.39999389648</ele>
        <time>2014-01-26T07:34:49.000Z</time>
      </trkpt>
      <trkpt lat="45.88776" lon="4.67318">
        <ele>378.60000610352</ele>
        <time>2014-01-26T07:34:58.000Z</time>
      </trkpt>
      <trkpt lat="45.8878" lon="4.67315">
        <ele>378.79998779297</ele>
        <time>2014-01-26T07:35:01.000Z</time>
      </trkpt>
      <trkpt lat="45.88789" lon="4.67308">
        <ele>379.60000610352</ele>
        <time>2014-01-26T07:35:08.000Z</time>
      </trkpt>
      <trkpt lat="45.88789" lon="4.67281">
        <ele>382.79998779297</ele>
        <time>2014-01-26T07:35:18.000Z</time>
      </trkpt>
      <trkpt lat="45.88782" lon="4.67256">
        <ele>385.79998779297</ele>
        <time>2014-01-26T07:35:27.000Z</time>
      </trkpt>
      <trkpt lat="45.88777" lon="4.67231">
        <ele>388</ele>
        <time>2014-01-26T07:35:36.000Z</time>
      </trkpt>
      <trkpt lat="45.88773" lon="4.67202">
        <ele>390</ele>
        <time>2014-01-26T07:35:45.000Z</time>
      </trkpt>
      <trkpt lat="45.88772" lon="4.67175">
        <ele>392</ele>
        <time>2014-01-26T07:35:53.000Z</time>
      </trkpt>
      <trkpt lat="45.88773" lon="4.67147">
        <ele>393</ele>
        <time>2014-01-26T07:36:02.000Z</time>
      </trkpt>
      <trkpt lat="45.88774" lon="4.67118">
        <ele>394</ele>
        <time>2014-01-26T07:36:11.000Z</time>
      </trkpt>
      <trkpt lat="45.88776" lon="4.67089">
        <ele>394.79998779297</ele>
        <time>2014-01-26T07:36:19.000Z</time>
      </trkpt>
      <trkpt lat="45.88781" lon="4.67064">
        <ele>396.79998779297</ele>
        <time>2014-01-26T07:36:27.000Z</time>
      </trkpt>
      <trkpt lat="45.88785" lon="4.67037">
        <ele>399.20001220703</ele>
        <time>2014-01-26T07:36:35.000Z</time>
      </trkpt>
      <trkpt lat="45.88784" lon="4.67008">
        <ele>401.60000610352</ele>
        <time>2014-01-26T07:36:44.000Z</time>
      </trkpt>
      <trkpt lat="45.88782" lon="4.66982">
        <ele>404.39999389648</ele>
        <time>2014-01-26T07:36:53.000Z</time>
      </trkpt>
      <trkpt lat="45.88783" lon="4.66956">
        <ele>407.79998779297</ele>
        <time>2014-01-26T07:37:02.000Z</time>
      </trkpt>
      <trkpt lat="45.88785" lon="4.66952">
        <ele>408.39999389648</ele>
        <time>2014-01-26T07:37:04.000Z</time>
      </trkpt>
      <trkpt lat="45.88804" lon="4.66951">
        <ele>409</ele>
        <time>2014-01-26T07:37:14.000Z</time>
      </trkpt>
      <trkpt lat="45.88824" lon="4.66947">
        <ele>410</ele>
        <time>2014-01-26T07:37:23.000Z</time>
      </trkpt>
      <trkpt lat="45.88842" lon="4.66937">
        <ele>411.60000610352</ele>
        <time>2014-01-26T07:37:31.000Z</time>
      </trkpt>
      <trkpt lat="45.88859" lon="4.66924">
        <ele>413.20001220703</ele>
        <time>2014-01-26T07:37:39.000Z</time>
      </trkpt>
      <trkpt lat="45.88876" lon="4.66914">
        <ele>414.20001220703</ele>
        <time>2014-01-26T07:37:47.000Z</time>
      </trkpt>
      <trkpt lat="45.88894" lon="4.66903">
        <ele>415</ele>
        <time>2014-01-26T07:37:55.000Z</time>
      </trkpt>
      <trkpt lat="45.88912" lon="4.66894">
        <ele>415.60000610352</ele>
        <time>2014-01-26T07:38:03.000Z</time>
      </trkpt>
      <trkpt lat="45.8893" lon="4.66887">
        <ele>416</ele>
        <time>2014-01-26T07:38:11.000Z</time>
      </trkpt>
      <trkpt lat="45.8894" lon="4.66882">
        <ele>416.20001220703</ele>
        <time>2014-01-26T07:38:15.000Z</time>
      </trkpt>
      <trkpt lat="45.88958" lon="4.66872">
        <ele>416.39999389648</ele>
        <time>2014-01-26T07:38:22.000Z</time>
      </trkpt>
      <trkpt lat="45.88975" lon="4.66857">
        <ele>417.20001220703</ele>
        <time>2014-01-26T07:38:30.000Z</time>
      </trkpt>
      <trkpt lat="45.88987" lon="4.66841">
        <ele>417.79998779297</ele>
        <time>2014-01-26T07:38:36.000Z</time>
      </trkpt>
      <trkpt lat="45.89001" lon="4.66824">
        <ele>417.39999389648</ele>
        <time>2014-01-26T07:38:43.000Z</time>
      </trkpt>
      <trkpt lat="45.89019" lon="4.6681">
        <ele>416</ele>
        <time>2014-01-26T07:38:51.000Z</time>
      </trkpt>
      <trkpt lat="45.89037" lon="4.66804">
        <ele>415</ele>
        <time>2014-01-26T07:39:00.000Z</time>
      </trkpt>
      <trkpt lat="45.89054" lon="4.66788">
        <ele>413.20001220703</ele>
        <time>2014-01-26T07:39:08.000Z</time>
      </trkpt>
      <trkpt lat="45.89057" lon="4.66786">
        <ele>412.79998779297</ele>
        <time>2014-01-26T07:39:09.000Z</time>
      </trkpt>
      <trkpt lat="45.89071" lon="4.66779">
        <ele>411.60000610352</ele>
        <time>2014-01-26T07:39:14.000Z</time>
      </trkpt>
      <trkpt lat="45.89074" lon="4.66774">
        <ele>411.20001220703</ele>
        <time>2014-01-26T07:39:16.000Z</time>
      </trkpt>
      <trkpt lat="45.89064" lon="4.66762">
        <ele>411</ele>
        <time>2014-01-26T07:39:22.000Z</time>
      </trkpt>
      <trkpt lat="45.89063" lon="4.66759">
        <ele>410.79998779297</ele>
        <time>2014-01-26T07:39:23.000Z</time>
      </trkpt>
      <trkpt lat="45.89062" lon="4.66754">
        <ele>410.60000610352</ele>
        <time>2014-01-26T07:39:27.000Z</time>
      </trkpt>
      <trkpt lat="45.89072" lon="4.66739">
        <ele>408</ele>
        <time>2014-01-26T07:39:34.000Z</time>
      </trkpt>
      <trkpt lat="45.89074" lon="4.6673">
        <ele>406.39999389648</ele>
        <time>2014-01-26T07:39:36.000Z</time>
      </trkpt>
      <trkpt lat="45.89073" lon="4.66702">
        <ele>402.20001220703</ele>
        <time>2014-01-26T07:39:43.000Z</time>
      </trkpt>
      <trkpt lat="45.89077" lon="4.66677">
        <ele>398.20001220703</ele>
        <time>2014-01-26T07:39:50.000Z</time>
      </trkpt>
      <trkpt lat="45.89079" lon="4.66674">
        <ele>397.39999389648</ele>
        <time>2014-01-26T07:39:51.000Z</time>
      </trkpt>
      <trkpt lat="45.89085" lon="4.66646">
        <ele>393.60000610352</ele>
        <time>2014-01-26T07:39:58.000Z</time>
      </trkpt>
      <trkpt lat="45.89086" lon="4.66642">
        <ele>393.20001220703</ele>
        <time>2014-01-26T07:39:59.000Z</time>
      </trkpt>
      <trkpt lat="45.89092" lon="4.66618">
        <ele>390.20001220703</ele>
        <time>2014-01-26T07:40:05.000Z</time>
      </trkpt>
      <trkpt lat="45.891" lon="4.66592">
        <ele>387.39999389648</ele>
        <time>2014-01-26T07:40:12.000Z</time>
      </trkpt>
      <trkpt lat="45.89108" lon="4.66567">
        <ele>385.39999389648</ele>
        <time>2014-01-26T07:40:19.000Z</time>
      </trkpt>
      <trkpt lat="45.89111" lon="4.66539">
        <ele>383.60000610352</ele>
        <time>2014-01-26T07:40:26.000Z</time>
      </trkpt>
      <trkpt lat="45.89121" lon="4.66514">
        <ele>381.79998779297</ele>
        <time>2014-01-26T07:40:33.000Z</time>
      </trkpt>
      <trkpt lat="45.89131" lon="4.66491">
        <ele>380.20001220703</ele>
        <time>2014-01-26T07:40:39.000Z</time>
      </trkpt>
      <trkpt lat="45.89139" lon="4.66465">
        <ele>377.39999389648</ele>
        <time>2014-01-26T07:40:46.000Z</time>
      </trkpt>
      <trkpt lat="45.89146" lon="4.66437">
        <ele>374.39999389648</ele>
        <time>2014-01-26T07:40:53.000Z</time>
      </trkpt>
      <trkpt lat="45.89152" lon="4.66409">
        <ele>371.20001220703</ele>
        <time>2014-01-26T07:41:00.000Z</time>
      </trkpt>
      <trkpt lat="45.89156" lon="4.66383">
        <ele>368.39999389648</ele>
        <time>2014-01-26T07:41:06.000Z</time>
      </trkpt>
      <trkpt lat="45.89159" lon="4.66355">
        <ele>365.39999389648</ele>
        <time>2014-01-26T07:41:13.000Z</time>
      </trkpt>
      <trkpt lat="45.89162" lon="4.66326">
        <ele>362.20001220703</ele>
        <time>2014-01-26T07:41:20.000Z</time>
      </trkpt>
      <trkpt lat="45.89163" lon="4.663">
        <ele>359</ele>
        <time>2014-01-26T07:41:26.000Z</time>
      </trkpt>
      <trkpt lat="45.89163" lon="4.66273">
        <ele>355.79998779297</ele>
        <time>2014-01-26T07:41:32.000Z</time>
      </trkpt>
      <trkpt lat="45.89164" lon="4.66246">
        <ele>352.60000610352</ele>
        <time>2014-01-26T07:41:38.000Z</time>
      </trkpt>
      <trkpt lat="45.89164" lon="4.66218">
        <ele>350.39999389648</ele>
        <time>2014-01-26T07:41:44.000Z</time>
      </trkpt>
      <trkpt lat="45.89162" lon="4.66192">
        <ele>348.20001220703</ele>
        <time>2014-01-26T07:41:50.000Z</time>
      </trkpt>
      <trkpt lat="45.89158" lon="4.66167">
        <ele>346.39999389648</ele>
        <time>2014-01-26T07:41:56.000Z</time>
      </trkpt>
      <trkpt lat="45.89159" lon="4.6615">
        <ele>345</ele>
        <time>2014-01-26T07:42:01.000Z</time>
      </trkpt>
      <trkpt lat="45.89168" lon="4.66154">
        <ele>345.20001220703</ele>
        <time>2014-01-26T07:42:05.000Z</time>
      </trkpt>
      <trkpt lat="45.89183" lon="4.6617">
        <ele>347</ele>
        <time>2014-01-26T07:42:12.000Z</time>
      </trkpt>
      <trkpt lat="45.89197" lon="4.66188">
        <ele>349.39999389648</ele>
        <time>2014-01-26T07:42:19.000Z</time>
      </trkpt>
      <trkpt lat="45.89213" lon="4.66202">
        <ele>351.60000610352</ele>
        <time>2014-01-26T07:42:27.000Z</time>
      </trkpt>
      <trkpt lat="45.89231" lon="4.66214">
        <ele>353.79998779297</ele>
        <time>2014-01-26T07:42:36.000Z</time>
      </trkpt>
      <trkpt lat="45.8925" lon="4.66221">
        <ele>355.79998779297</ele>
        <time>2014-01-26T07:42:45.000Z</time>
      </trkpt>
      <trkpt lat="45.8927" lon="4.66226">
        <ele>357.60000610352</ele>
        <time>2014-01-26T07:42:54.000Z</time>
      </trkpt>
      <trkpt lat="45.89288" lon="4.66232">
        <ele>359.39999389648</ele>
        <time>2014-01-26T07:43:03.000Z</time>
      </trkpt>
      <trkpt lat="45.89306" lon="4.66237">
        <ele>361.39999389648</ele>
        <time>2014-01-26T07:43:12.000Z</time>
      </trkpt>
      <trkpt lat="45.89326" lon="4.66243">
        <ele>363.39999389648</ele>
        <time>2014-01-26T07:43:22.000Z</time>
      </trkpt>
      <trkpt lat="45.89345" lon="4.66244">
        <ele>364.39999389648</ele>
        <time>2014-01-26T07:43:30.000Z</time>
      </trkpt>
      <trkpt lat="45.89366" lon="4.66245">
        <ele>364.60000610352</ele>
        <time>2014-01-26T07:43:39.000Z</time>
      </trkpt>
      <trkpt lat="45.89385" lon="4.66245">
        <ele>365</ele>
        <time>2014-01-26T07:43:47.000Z</time>
      </trkpt>
      <trkpt lat="45.89403" lon="4.66253">
        <ele>366.20001220703</ele>
        <time>2014-01-26T07:43:55.000Z</time>
      </trkpt>
      <trkpt lat="45.89414" lon="4.66256">
        <ele>366.60000610352</ele>
        <time>2014-01-26T07:44:00.000Z</time>
      </trkpt>
      <trkpt lat="45.89417" lon="4.66254">
        <ele>366.39999389648</ele>
        <time>2014-01-26T07:44:01.000Z</time>
      </trkpt>
      <trkpt lat="45.8943" lon="4.66239">
        <ele>363.79998779297</ele>
        <time>2014-01-26T07:44:06.000Z</time>
      </trkpt>
      <trkpt lat="45.89432" lon="4.66213">
        <ele>360.79998779297</ele>
        <time>2014-01-26T07:44:16.000Z</time>
      </trkpt>
      <trkpt lat="45.89429" lon="4.66207">
        <ele>360.20001220703</ele>
        <time>2014-01-26T07:44:21.000Z</time>
      </trkpt>
      <trkpt lat="45.89423" lon="4.66198">
        <ele>359.60000610352</ele>
        <time>2014-01-26T07:45:54.000Z</time>
      </trkpt>
      <trkpt lat="45.89442" lon="4.66196">
        <ele>358.60000610352</ele>
        <time>2014-01-26T07:46:53.000Z</time>
      </trkpt>
      <trkpt lat="45.89439" lon="4.66203">
        <ele>359.60000610352</ele>
        <time>2014-01-26T07:46:57.000Z</time>
      </trkpt>
      <trkpt lat="45.89442" lon="4.66211">
        <ele>360.20001220703</ele>
        <time>2014-01-26T07:46:58.000Z</time>
      </trkpt>
      <trkpt lat="45.89437" lon="4.66209">
        <ele>360.20001220703</ele>
        <time>2014-01-26T07:47:02.000Z</time>
      </trkpt>
      <trkpt lat="45.89433" lon="4.66212">
        <ele>360.79998779297</ele>
        <time>2014-01-26T07:47:03.000Z</time>
      </trkpt>
      <trkpt lat="45.89435" lon="4.66226">
        <ele>362.20001220703</ele>
        <time>2014-01-26T07:47:07.000Z</time>
      </trkpt>
      <trkpt lat="45.89439" lon="4.66212">
        <ele>360.39999389648</ele>
        <time>2014-01-26T07:47:11.000Z</time>
      </trkpt>
      <trkpt lat="45.8944" lon="4.66185">
        <ele>357.60000610352</ele>
        <time>2014-01-26T07:47:17.000Z</time>
      </trkpt>
      <trkpt lat="45.8944" lon="4.66156">
        <ele>354.60000610352</ele>
        <time>2014-01-26T07:47:24.000Z</time>
      </trkpt>
      <trkpt lat="45.89439" lon="4.6613">
        <ele>351.60000610352</ele>
        <time>2014-01-26T07:47:30.000Z</time>
      </trkpt>
      <trkpt lat="45.8944" lon="4.66101">
        <ele>348.39999389648</ele>
        <time>2014-01-26T07:47:36.000Z</time>
      </trkpt>
      <trkpt lat="45.8944" lon="4.66074">
        <ele>345.39999389648</ele>
        <time>2014-01-26T07:47:42.000Z</time>
      </trkpt>
      <trkpt lat="45.89438" lon="4.66046">
        <ele>342.79998779297</ele>
        <time>2014-01-26T07:47:48.000Z</time>
      </trkpt>
      <trkpt lat="45.89437" lon="4.66019">
        <ele>340.39999389648</ele>
        <time>2014-01-26T07:47:54.000Z</time>
      </trkpt>
      <trkpt lat="45.89433" lon="4.65989">
        <ele>337.79998779297</ele>
        <time>2014-01-26T07:48:01.000Z</time>
      </trkpt>
      <trkpt lat="45.89431" lon="4.6596">
        <ele>336</ele>
        <time>2014-01-26T07:48:08.000Z</time>
      </trkpt>
      <trkpt lat="45.89429" lon="4.65935">
        <ele>334.20001220703</ele>
        <time>2014-01-26T07:48:14.000Z</time>
      </trkpt>
      <trkpt lat="45.89427" lon="4.65926">
        <ele>333.60000610352</ele>
        <time>2014-01-26T07:48:17.000Z</time>
      </trkpt>
      <trkpt lat="45.89425" lon="4.65902">
        <ele>332</ele>
        <time>2014-01-26T07:49:10.000Z</time>
      </trkpt>
      <trkpt lat="45.89424" lon="4.65875">
        <ele>330</ele>
        <time>2014-01-26T07:49:16.000Z</time>
      </trkpt>
      <trkpt lat="45.89423" lon="4.65847">
        <ele>328</ele>
        <time>2014-01-26T07:49:22.000Z</time>
      </trkpt>
      <trkpt lat="45.89422" lon="4.65821">
        <ele>326</ele>
        <time>2014-01-26T07:49:28.000Z</time>
      </trkpt>
      <trkpt lat="45.89422" lon="4.65791">
        <ele>323.60000610352</ele>
        <time>2014-01-26T07:49:35.000Z</time>
      </trkpt>
      <trkpt lat="45.89429" lon="4.65765">
        <ele>321.39999389648</ele>
        <time>2014-01-26T07:49:42.000Z</time>
      </trkpt>
      <trkpt lat="45.89432" lon="4.65763">
        <ele>321.39999389648</ele>
        <time>2014-01-26T07:49:43.000Z</time>
      </trkpt>
      <trkpt lat="45.8945" lon="4.65761">
        <ele>321.39999389648</ele>
        <time>2014-01-26T07:49:49.000Z</time>
      </trkpt>
      <trkpt lat="45.89462" lon="4.6576">
        <ele>321.39999389648</ele>
        <time>2014-01-26T07:49:53.000Z</time>
      </trkpt>
      <trkpt lat="45.89481" lon="4.65758">
        <ele>321.39999389648</ele>
        <time>2014-01-26T07:50:00.000Z</time>
      </trkpt>
      <trkpt lat="45.89501" lon="4.65755">
        <ele>321.39999389648</ele>
        <time>2014-01-26T07:50:07.000Z</time>
      </trkpt>
      <trkpt lat="45.89521" lon="4.65752">
        <ele>322.20001220703</ele>
        <time>2014-01-26T07:50:14.000Z</time>
      </trkpt>
      <trkpt lat="45.8954" lon="4.65754">
        <ele>323.20001220703</ele>
        <time>2014-01-26T07:50:21.000Z</time>
      </trkpt>
      <trkpt lat="45.89558" lon="4.65761">
        <ele>324.60000610352</ele>
        <time>2014-01-26T07:50:28.000Z</time>
      </trkpt>
      <trkpt lat="45.89573" lon="4.65778">
        <ele>326.60000610352</ele>
        <time>2014-01-26T07:50:36.000Z</time>
      </trkpt>
      <trkpt lat="45.89574" lon="4.65782">
        <ele>326.79998779297</ele>
        <time>2014-01-26T07:50:37.000Z</time>
      </trkpt>
      <trkpt lat="45.89575" lon="4.6581">
        <ele>329</ele>
        <time>2014-01-26T07:50:45.000Z</time>
      </trkpt>
      <trkpt lat="45.89576" lon="4.65838">
        <ele>330.79998779297</ele>
        <time>2014-01-26T07:50:53.000Z</time>
      </trkpt>
      <trkpt lat="45.89587" lon="4.65858">
        <ele>331.20001220703</ele>
        <time>2014-01-26T07:51:01.000Z</time>
      </trkpt>
      <trkpt lat="45.89605" lon="4.65863">
        <ele>330.79998779297</ele>
        <time>2014-01-26T07:51:08.000Z</time>
      </trkpt>
      <trkpt lat="45.89626" lon="4.65864">
        <ele>330.39999389648</ele>
        <time>2014-01-26T07:51:15.000Z</time>
      </trkpt>
      <trkpt lat="45.89644" lon="4.65863">
        <ele>330</ele>
        <time>2014-01-26T07:51:22.000Z</time>
      </trkpt>
      <trkpt lat="45.89659" lon="4.65845">
        <ele>328.79998779297</ele>
        <time>2014-01-26T07:51:29.000Z</time>
      </trkpt>
      <trkpt lat="45.89668" lon="4.65819">
        <ele>327</ele>
        <time>2014-01-26T07:51:36.000Z</time>
      </trkpt>
      <trkpt lat="45.89676" lon="4.65795">
        <ele>324.60000610352</ele>
        <time>2014-01-26T07:51:43.000Z</time>
      </trkpt>
      <trkpt lat="45.89685" lon="4.6577">
        <ele>322.39999389648</ele>
        <time>2014-01-26T07:51:50.000Z</time>
      </trkpt>
      <trkpt lat="45.89696" lon="4.65746">
        <ele>320.39999389648</ele>
        <time>2014-01-26T07:51:56.000Z</time>
      </trkpt>
      <trkpt lat="45.89706" lon="4.65723">
        <ele>318.60000610352</ele>
        <time>2014-01-26T07:52:02.000Z</time>
      </trkpt>
      <trkpt lat="45.89717" lon="4.65699">
        <ele>317</ele>
        <time>2014-01-26T07:52:08.000Z</time>
      </trkpt>
      <trkpt lat="45.89729" lon="4.65677">
        <ele>315.79998779297</ele>
        <time>2014-01-26T07:52:14.000Z</time>
      </trkpt>
      <trkpt lat="45.89741" lon="4.65657">
        <ele>314</ele>
        <time>2014-01-26T07:52:20.000Z</time>
      </trkpt>
      <trkpt lat="45.89751" lon="4.65635">
        <ele>311.60000610352</ele>
        <time>2014-01-26T07:52:26.000Z</time>
      </trkpt>
      <trkpt lat="45.89759" lon="4.65609">
        <ele>308.60000610352</ele>
        <time>2014-01-26T07:52:33.000Z</time>
      </trkpt>
      <trkpt lat="45.89763" lon="4.65599">
        <ele>307.60000610352</ele>
        <time>2014-01-26T07:52:36.000Z</time>
      </trkpt>
      <trkpt lat="45.89777" lon="4.65581">
        <ele>305.39999389648</ele>
        <time>2014-01-26T07:52:43.000Z</time>
      </trkpt>
      <trkpt lat="45.89796" lon="4.65579">
        <ele>305</ele>
        <time>2014-01-26T07:52:51.000Z</time>
      </trkpt>
      <trkpt lat="45.89813" lon="4.65568">
        <ele>303.60000610352</ele>
        <time>2014-01-26T07:52:58.000Z</time>
      </trkpt>
      <trkpt lat="45.89829" lon="4.65552">
        <ele>302</ele>
        <time>2014-01-26T07:53:04.000Z</time>
      </trkpt>
      <trkpt lat="45.89845" lon="4.65533">
        <ele>300.60000610352</ele>
        <time>2014-01-26T07:53:10.000Z</time>
      </trkpt>
      <trkpt lat="45.89857" lon="4.65509">
        <ele>298.39999389648</ele>
        <time>2014-01-26T07:53:17.000Z</time>
      </trkpt>
      <trkpt lat="45.89869" lon="4.65489">
        <ele>296.79998779297</ele>
        <time>2014-01-26T07:53:23.000Z</time>
      </trkpt>
      <trkpt lat="45.8988" lon="4.65467">
        <ele>295.20001220703</ele>
        <time>2014-01-26T07:53:29.000Z</time>
      </trkpt>
      <trkpt lat="45.89887" lon="4.6544">
        <ele>293</ele>
        <time>2014-01-26T07:53:36.000Z</time>
      </trkpt>
      <trkpt lat="45.89898" lon="4.65417">
        <ele>291.39999389648</ele>
        <time>2014-01-26T07:53:42.000Z</time>
      </trkpt>
      <trkpt lat="45.89907" lon="4.65391">
        <ele>289.20001220703</ele>
        <time>2014-01-26T07:53:49.000Z</time>
      </trkpt>
      <trkpt lat="45.89915" lon="4.65365">
        <ele>287</ele>
        <time>2014-01-26T07:53:56.000Z</time>
      </trkpt>
      <trkpt lat="45.89919" lon="4.65339">
        <ele>284.60000610352</ele>
        <time>2014-01-26T07:54:03.000Z</time>
      </trkpt>
      <trkpt lat="45.89925" lon="4.65312">
        <ele>282</ele>
        <time>2014-01-26T07:54:10.000Z</time>
      </trkpt>
      <trkpt lat="45.89929" lon="4.65286">
        <ele>279.60000610352</ele>
        <time>2014-01-26T07:54:17.000Z</time>
      </trkpt>
      <trkpt lat="45.89934" lon="4.6526">
        <ele>277.39999389648</ele>
        <time>2014-01-26T07:54:24.000Z</time>
      </trkpt>
      <trkpt lat="45.89942" lon="4.65233">
        <ele>275.20001220703</ele>
        <time>2014-01-26T07:54:31.000Z</time>
      </trkpt>
      <trkpt lat="45.89952" lon="4.65212">
        <ele>273.39999389648</ele>
        <time>2014-01-26T07:54:38.000Z</time>
      </trkpt>
      <trkpt lat="45.8997" lon="4.65201">
        <ele>272</ele>
        <time>2014-01-26T07:54:45.000Z</time>
      </trkpt>
      <trkpt lat="45.89988" lon="4.65195">
        <ele>271</ele>
        <time>2014-01-26T07:54:52.000Z</time>
      </trkpt>
      <trkpt lat="45.90006" lon="4.65188">
        <ele>270.79998779297</ele>
        <time>2014-01-26T07:54:59.000Z</time>
      </trkpt>
      <trkpt lat="45.90023" lon="4.65171">
        <ele>271.39999389648</ele>
        <time>2014-01-26T07:55:05.000Z</time>
      </trkpt>
      <trkpt lat="45.90036" lon="4.65149">
        <ele>271.79998779297</ele>
        <time>2014-01-26T07:55:11.000Z</time>
      </trkpt>
      <trkpt lat="45.90048" lon="4.65128">
        <ele>271.79998779297</ele>
        <time>2014-01-26T07:55:17.000Z</time>
      </trkpt>
      <trkpt lat="45.9006" lon="4.65106">
        <ele>271.20001220703</ele>
        <time>2014-01-26T07:55:23.000Z</time>
      </trkpt>
      <trkpt lat="45.90061" lon="4.65103">
        <ele>271</ele>
        <time>2014-01-26T07:55:24.000Z</time>
      </trkpt>
      <trkpt lat="45.90065" lon="4.65076">
        <ele>269.20001220703</ele>
        <time>2014-01-26T07:55:33.000Z</time>
      </trkpt>
      <trkpt lat="45.90076" lon="4.65053">
        <ele>268.39999389648</ele>
        <time>2014-01-26T07:55:40.000Z</time>
      </trkpt>
      <trkpt lat="45.90082" lon="4.65026">
        <ele>266.79998779297</ele>
        <time>2014-01-26T07:55:48.000Z</time>
      </trkpt>
      <trkpt lat="45.9009" lon="4.65002">
        <ele>265.79998779297</ele>
        <time>2014-01-26T07:55:54.000Z</time>
      </trkpt>
      <trkpt lat="45.90101" lon="4.64982">
        <ele>264.39999389648</ele>
        <time>2014-01-26T07:55:59.000Z</time>
      </trkpt>
      <trkpt lat="45.90117" lon="4.64964">
        <ele>263.79998779297</ele>
        <time>2014-01-26T07:56:05.000Z</time>
      </trkpt>
      <trkpt lat="45.90129" lon="4.6494">
        <ele>262.20001220703</ele>
        <time>2014-01-26T07:56:11.000Z</time>
      </trkpt>
      <trkpt lat="45.90142" lon="4.64915">
        <ele>260.79998779297</ele>
        <time>2014-01-26T07:56:17.000Z</time>
      </trkpt>
      <trkpt lat="45.90157" lon="4.64897">
        <ele>260.20001220703</ele>
        <time>2014-01-26T07:56:23.000Z</time>
      </trkpt>
      <trkpt lat="45.9017" lon="4.64878">
        <ele>258.39999389648</ele>
        <time>2014-01-26T07:56:29.000Z</time>
      </trkpt>
      <trkpt lat="45.90183" lon="4.64857">
        <ele>255.39999389648</ele>
        <time>2014-01-26T07:56:36.000Z</time>
      </trkpt>
      <trkpt lat="45.9019" lon="4.64831">
        <ele>251.80000305176</ele>
        <time>2014-01-26T07:56:43.000Z</time>
      </trkpt>
      <trkpt lat="45.90192" lon="4.6483">
        <ele>251.80000305176</ele>
        <time>2014-01-26T07:56:44.000Z</time>
      </trkpt>
      <trkpt lat="45.90199" lon="4.64835">
        <ele>252.19999694824</ele>
        <time>2014-01-26T07:56:48.000Z</time>
      </trkpt>
      <trkpt lat="45.90213" lon="4.64854">
        <ele>254.80000305176</ele>
        <time>2014-01-26T07:56:58.000Z</time>
      </trkpt>
      <trkpt lat="45.90225" lon="4.64877">
        <ele>258</ele>
        <time>2014-01-26T07:57:11.000Z</time>
      </trkpt>
      <trkpt lat="45.90238" lon="4.64899">
        <ele>260.79998779297</ele>
        <time>2014-01-26T07:57:22.000Z</time>
      </trkpt>
      <trkpt lat="45.90241" lon="4.64904">
        <ele>261.39999389648</ele>
        <time>2014-01-26T07:57:26.000Z</time>
      </trkpt>
      <trkpt lat="45.90253" lon="4.64925">
        <ele>264.20001220703</ele>
        <time>2014-01-26T07:57:39.000Z</time>
      </trkpt>
      <trkpt lat="45.90261" lon="4.64942">
        <ele>266.20001220703</ele>
        <time>2014-01-26T07:57:48.000Z</time>
      </trkpt>
      <trkpt lat="45.90268" lon="4.64955">
        <ele>267.60000610352</ele>
        <time>2014-01-26T07:57:55.000Z</time>
      </trkpt>
      <trkpt lat="45.90273" lon="4.6498">
        <ele>271.20001220703</ele>
        <time>2014-01-26T07:58:08.000Z</time>
      </trkpt>
      <trkpt lat="45.90274" lon="4.65007">
        <ele>274.60000610352</ele>
        <time>2014-01-26T07:58:20.000Z</time>
      </trkpt>
      <trkpt lat="45.90278" lon="4.65032">
        <ele>276.39999389648</ele>
        <time>2014-01-26T07:58:33.000Z</time>
      </trkpt>
      <trkpt lat="45.90278" lon="4.65036">
        <ele>276.79998779297</ele>
        <time>2014-01-26T07:58:35.000Z</time>
      </trkpt>
      <trkpt lat="45.90284" lon="4.65062">
        <ele>278.20001220703</ele>
        <time>2014-01-26T07:58:46.000Z</time>
      </trkpt>
      <trkpt lat="45.90287" lon="4.65088">
        <ele>279.79998779297</ele>
        <time>2014-01-26T07:58:54.000Z</time>
      </trkpt>
      <trkpt lat="45.9029" lon="4.65114">
        <ele>281.39999389648</ele>
        <time>2014-01-26T07:59:02.000Z</time>
      </trkpt>
      <trkpt lat="45.90294" lon="4.65141">
        <ele>283</ele>
        <time>2014-01-26T07:59:10.000Z</time>
      </trkpt>
      <trkpt lat="45.90296" lon="4.65169">
        <ele>285</ele>
        <time>2014-01-26T07:59:19.000Z</time>
      </trkpt>
      <trkpt lat="45.90296" lon="4.65196">
        <ele>286.39999389648</ele>
        <time>2014-01-26T07:59:29.000Z</time>
      </trkpt>
      <trkpt lat="45.90298" lon="4.65222">
        <ele>287.79998779297</ele>
        <time>2014-01-26T07:59:38.000Z</time>
      </trkpt>
      <trkpt lat="45.90296" lon="4.65248">
        <ele>289.20001220703</ele>
        <time>2014-01-26T07:59:48.000Z</time>
      </trkpt>
      <trkpt lat="45.90295" lon="4.65277">
        <ele>291.20001220703</ele>
        <time>2014-01-26T07:59:57.000Z</time>
      </trkpt>
      <trkpt lat="45.90295" lon="4.65304">
        <ele>293</ele>
        <time>2014-01-26T08:00:06.000Z</time>
      </trkpt>
      <trkpt lat="45.90295" lon="4.65315">
        <ele>293.79998779297</ele>
        <time>2014-01-26T08:00:10.000Z</time>
      </trkpt>
      <trkpt lat="45.90294" lon="4.65343">
        <ele>295.39999389648</ele>
        <time>2014-01-26T08:00:21.000Z</time>
      </trkpt>
      <trkpt lat="45.90299" lon="4.6537">
        <ele>296.79998779297</ele>
        <time>2014-01-26T08:00:31.000Z</time>
      </trkpt>
      <trkpt lat="45.90307" lon="4.65393">
        <ele>298</ele>
        <time>2014-01-26T08:00:41.000Z</time>
      </trkpt>
      <trkpt lat="45.90308" lon="4.65395">
        <ele>298</ele>
        <time>2014-01-26T08:00:42.000Z</time>
      </trkpt>
      <trkpt lat="45.90318" lon="4.65417">
        <ele>299.20001220703</ele>
        <time>2014-01-26T08:00:52.000Z</time>
      </trkpt>
      <trkpt lat="45.90329" lon="4.65439">
        <ele>299.79998779297</ele>
        <time>2014-01-26T08:01:01.000Z</time>
      </trkpt>
      <trkpt lat="45.90337" lon="4.65463">
        <ele>300.60000610352</ele>
        <time>2014-01-26T08:01:09.000Z</time>
      </trkpt>
      <trkpt lat="45.90347" lon="4.65488">
        <ele>301.20001220703</ele>
        <time>2014-01-26T08:01:17.000Z</time>
      </trkpt>
      <trkpt lat="45.90356" lon="4.65512">
        <ele>302</ele>
        <time>2014-01-26T08:01:25.000Z</time>
      </trkpt>
      <trkpt lat="45.90367" lon="4.65534">
        <ele>303</ele>
        <time>2014-01-26T08:01:33.000Z</time>
      </trkpt>
      <trkpt lat="45.90379" lon="4.65558">
        <ele>304.20001220703</ele>
        <time>2014-01-26T08:01:41.000Z</time>
      </trkpt>
      <trkpt lat="45.90385" lon="4.65584">
        <ele>305.79998779297</ele>
        <time>2014-01-26T08:01:49.000Z</time>
      </trkpt>
      <trkpt lat="45.90378" lon="4.65608">
        <ele>307.20001220703</ele>
        <time>2014-01-26T08:01:57.000Z</time>
      </trkpt>
      <trkpt lat="45.90377" lon="4.6562">
        <ele>308</ele>
        <time>2014-01-26T08:02:01.000Z</time>
      </trkpt>
      <trkpt lat="45.9039" lon="4.65635">
        <ele>308.39999389648</ele>
        <time>2014-01-26T08:02:08.000Z</time>
      </trkpt>
      <trkpt lat="45.90407" lon="4.6565">
        <ele>308.39999389648</ele>
        <time>2014-01-26T08:02:16.000Z</time>
      </trkpt>
      <trkpt lat="45.90425" lon="4.65661">
        <ele>308.60000610352</ele>
        <time>2014-01-26T08:02:23.000Z</time>
      </trkpt>
      <trkpt lat="45.90441" lon="4.65673">
        <ele>309</ele>
        <time>2014-01-26T08:02:30.000Z</time>
      </trkpt>
      <trkpt lat="45.90455" lon="4.65693">
        <ele>309.79998779297</ele>
        <time>2014-01-26T08:02:38.000Z</time>
      </trkpt>
      <trkpt lat="45.90467" lon="4.65715">
        <ele>310.79998779297</ele>
        <time>2014-01-26T08:02:46.000Z</time>
      </trkpt>
      <trkpt lat="45.90478" lon="4.65736">
        <ele>311.60000610352</ele>
        <time>2014-01-26T08:02:54.000Z</time>
      </trkpt>
      <trkpt lat="45.9049" lon="4.65757">
        <ele>312.79998779297</ele>
        <time>2014-01-26T08:03:02.000Z</time>
      </trkpt>
      <trkpt lat="45.90501" lon="4.65777">
        <ele>314.20001220703</ele>
        <time>2014-01-26T08:03:09.000Z</time>
      </trkpt>
      <trkpt lat="45.90512" lon="4.658">
        <ele>315.60000610352</ele>
        <time>2014-01-26T08:03:17.000Z</time>
      </trkpt>
      <trkpt lat="45.90524" lon="4.6582">
        <ele>316.39999389648</ele>
        <time>2014-01-26T08:03:26.000Z</time>
      </trkpt>
      <trkpt lat="45.90537" lon="4.65841">
        <ele>317.20001220703</ele>
        <time>2014-01-26T08:03:34.000Z</time>
      </trkpt>
      <trkpt lat="45.90547" lon="4.65862">
        <ele>318</ele>
        <time>2014-01-26T08:03:42.000Z</time>
      </trkpt>
      <trkpt lat="45.9055" lon="4.65876">
        <ele>318.79998779297</ele>
        <time>2014-01-26T08:03:47.000Z</time>
      </trkpt>
      <trkpt lat="45.9055" lon="4.65887">
        <ele>319.60000610352</ele>
        <time>2014-01-26T08:03:51.000Z</time>
      </trkpt>
      <trkpt lat="45.90551" lon="4.65914">
        <ele>321.39999389648</ele>
        <time>2014-01-26T08:04:01.000Z</time>
      </trkpt>
      <trkpt lat="45.90549" lon="4.65942">
        <ele>323.79998779297</ele>
        <time>2014-01-26T08:04:12.000Z</time>
      </trkpt>
      <trkpt lat="45.90546" lon="4.65969">
        <ele>326.39999389648</ele>
        <time>2014-01-26T08:04:22.000Z</time>
      </trkpt>
      <trkpt lat="45.9054" lon="4.65995">
        <ele>329.20001220703</ele>
        <time>2014-01-26T08:04:33.000Z</time>
      </trkpt>
      <trkpt lat="45.9054" lon="4.66003">
        <ele>329.79998779297</ele>
        <time>2014-01-26T08:04:36.000Z</time>
      </trkpt>
      <trkpt lat="45.9055" lon="4.66027">
        <ele>331</ele>
        <time>2014-01-26T08:04:45.000Z</time>
      </trkpt>
      <trkpt lat="45.90561" lon="4.66051">
        <ele>332.20001220703</ele>
        <time>2014-01-26T08:04:54.000Z</time>
      </trkpt>
      <trkpt lat="45.90571" lon="4.66074">
        <ele>333.60000610352</ele>
        <time>2014-01-26T08:05:03.000Z</time>
      </trkpt>
      <trkpt lat="45.90578" lon="4.66098">
        <ele>335.39999389648</ele>
        <time>2014-01-26T08:05:12.000Z</time>
      </trkpt>
      <trkpt lat="45.90579" lon="4.66125">
        <ele>337.79998779297</ele>
        <time>2014-01-26T08:05:22.000Z</time>
      </trkpt>
      <trkpt lat="45.90577" lon="4.66152">
        <ele>340.20001220703</ele>
        <time>2014-01-26T08:05:32.000Z</time>
      </trkpt>
      <trkpt lat="45.90577" lon="4.66158">
        <ele>340.60000610352</ele>
        <time>2014-01-26T08:05:34.000Z</time>
      </trkpt>
      <trkpt lat="45.90577" lon="4.66184">
        <ele>343</ele>
        <time>2014-01-26T08:05:43.000Z</time>
      </trkpt>
      <trkpt lat="45.90577" lon="4.6621">
        <ele>345.60000610352</ele>
        <time>2014-01-26T08:05:53.000Z</time>
      </trkpt>
      <trkpt lat="45.90577" lon="4.66237">
        <ele>348.39999389648</ele>
        <time>2014-01-26T08:06:04.000Z</time>
      </trkpt>
      <trkpt lat="45.90576" lon="4.66264">
        <ele>351</ele>
        <time>2014-01-26T08:06:15.000Z</time>
      </trkpt>
      <trkpt lat="45.90578" lon="4.66291">
        <ele>353.60000610352</ele>
        <time>2014-01-26T08:06:26.000Z</time>
      </trkpt>
      <trkpt lat="45.9058" lon="4.66319">
        <ele>356</ele>
        <time>2014-01-26T08:06:36.000Z</time>
      </trkpt>
      <trkpt lat="45.90581" lon="4.66345">
        <ele>357.79998779297</ele>
        <time>2014-01-26T08:06:46.000Z</time>
      </trkpt>
      <trkpt lat="45.90585" lon="4.66373">
        <ele>358.20001220703</ele>
        <time>2014-01-26T08:06:56.000Z</time>
      </trkpt>
      <trkpt lat="45.90588" lon="4.664">
        <ele>358.79998779297</ele>
        <time>2014-01-26T08:07:05.000Z</time>
      </trkpt>
      <trkpt lat="45.90591" lon="4.66428">
        <ele>359.79998779297</ele>
        <time>2014-01-26T08:07:14.000Z</time>
      </trkpt>
      <trkpt lat="45.90592" lon="4.66455">
        <ele>361.60000610352</ele>
        <time>2014-01-26T08:07:23.000Z</time>
      </trkpt>
      <trkpt lat="45.90592" lon="4.66481">
        <ele>363.20001220703</ele>
        <time>2014-01-26T08:07:32.000Z</time>
      </trkpt>
      <trkpt lat="45.90593" lon="4.66507">
        <ele>364.79998779297</ele>
        <time>2014-01-26T08:07:40.000Z</time>
      </trkpt>
      <trkpt lat="45.90593" lon="4.6651">
        <ele>365</ele>
        <time>2014-01-26T08:07:41.000Z</time>
      </trkpt>
      <trkpt lat="45.90592" lon="4.66537">
        <ele>366.39999389648</ele>
        <time>2014-01-26T08:07:50.000Z</time>
      </trkpt>
      <trkpt lat="45.90591" lon="4.66564">
        <ele>368</ele>
        <time>2014-01-26T08:07:58.000Z</time>
      </trkpt>
      <trkpt lat="45.9059" lon="4.6659">
        <ele>369.60000610352</ele>
        <time>2014-01-26T08:08:06.000Z</time>
      </trkpt>
      <trkpt lat="45.90588" lon="4.66617">
        <ele>372.60000610352</ele>
        <time>2014-01-26T08:08:16.000Z</time>
      </trkpt>
      <trkpt lat="45.9059" lon="4.66638">
        <ele>375</ele>
        <time>2014-01-26T08:08:24.000Z</time>
      </trkpt>
      <trkpt lat="45.90596" lon="4.66655">
        <ele>376.79998779297</ele>
        <time>2014-01-26T08:08:32.000Z</time>
      </trkpt>
      <trkpt lat="45.90601" lon="4.66659">
        <ele>377.39999389648</ele>
        <time>2014-01-26T08:08:35.000Z</time>
      </trkpt>
      <trkpt lat="45.90609" lon="4.66673">
        <ele>379</ele>
        <time>2014-01-26T08:08:45.000Z</time>
      </trkpt>
      <trkpt lat="45.90623" lon="4.66692">
        <ele>380.79998779297</ele>
        <time>2014-01-26T08:08:59.000Z</time>
      </trkpt>
      <trkpt lat="45.90627" lon="4.66707">
        <ele>382.39999389648</ele>
        <time>2014-01-26T08:09:06.000Z</time>
      </trkpt>
      <trkpt lat="45.9063" lon="4.66723">
        <ele>384</ele>
        <time>2014-01-26T08:09:17.000Z</time>
      </trkpt>
      <trkpt lat="45.90626" lon="4.66735">
        <ele>385</ele>
        <time>2014-01-26T08:09:23.000Z</time>
      </trkpt>
      <trkpt lat="45.90616" lon="4.66758">
        <ele>387.39999389648</ele>
        <time>2014-01-26T08:09:34.000Z</time>
      </trkpt>
      <trkpt lat="45.9061" lon="4.66783">
        <ele>390.60000610352</ele>
        <time>2014-01-26T08:09:45.000Z</time>
      </trkpt>
      <trkpt lat="45.90603" lon="4.66809">
        <ele>394</ele>
        <time>2014-01-26T08:09:56.000Z</time>
      </trkpt>
      <trkpt lat="45.90598" lon="4.66835">
        <ele>397.60000610352</ele>
        <time>2014-01-26T08:10:07.000Z</time>
      </trkpt>
      <trkpt lat="45.90596" lon="4.66862">
        <ele>400.60000610352</ele>
        <time>2014-01-26T08:10:19.000Z</time>
      </trkpt>
      <trkpt lat="45.9059" lon="4.66886">
        <ele>403.39999389648</ele>
        <time>2014-01-26T08:10:31.000Z</time>
      </trkpt>
      <trkpt lat="45.90586" lon="4.66912">
        <ele>406.39999389648</ele>
        <time>2014-01-26T08:10:43.000Z</time>
      </trkpt>
      <trkpt lat="45.90585" lon="4.66923">
        <ele>407</ele>
        <time>2014-01-26T08:10:48.000Z</time>
      </trkpt>
      <trkpt lat="45.90573" lon="4.66939">
        <ele>407.60000610352</ele>
        <time>2014-01-26T08:10:58.000Z</time>
      </trkpt>
      <trkpt lat="45.90559" lon="4.66958">
        <ele>408.60000610352</ele>
        <time>2014-01-26T08:11:06.000Z</time>
      </trkpt>
      <trkpt lat="45.90551" lon="4.66983">
        <ele>409.20001220703</ele>
        <time>2014-01-26T08:11:13.000Z</time>
      </trkpt>
      <trkpt lat="45.90549" lon="4.67011">
        <ele>409.20001220703</ele>
        <time>2014-01-26T08:11:21.000Z</time>
      </trkpt>
      <trkpt lat="45.90548" lon="4.67023">
        <ele>408.79998779297</ele>
        <time>2014-01-26T08:11:24.000Z</time>
      </trkpt>
      <trkpt lat="45.90568" lon="4.67022">
        <ele>408.20001220703</ele>
        <time>2014-01-26T08:11:32.000Z</time>
      </trkpt>
      <trkpt lat="45.90581" lon="4.6702">
        <ele>407.60000610352</ele>
        <time>2014-01-26T08:11:36.000Z</time>
      </trkpt>
      <trkpt lat="45.90598" lon="4.67009">
        <ele>407.60000610352</ele>
        <time>2014-01-26T08:11:42.000Z</time>
      </trkpt>
      <trkpt lat="45.90617" lon="4.66999">
        <ele>407.60000610352</ele>
        <time>2014-01-26T08:11:49.000Z</time>
      </trkpt>
      <trkpt lat="45.90633" lon="4.66986">
        <ele>407</ele>
        <time>2014-01-26T08:11:56.000Z</time>
      </trkpt>
      <trkpt lat="45.90649" lon="4.6697">
        <ele>406.20001220703</ele>
        <time>2014-01-26T08:12:03.000Z</time>
      </trkpt>
      <trkpt lat="45.90667" lon="4.66957">
        <ele>405.39999389648</ele>
        <time>2014-01-26T08:12:10.000Z</time>
      </trkpt>
      <trkpt lat="45.90687" lon="4.66954">
        <ele>404.60000610352</ele>
        <time>2014-01-26T08:12:17.000Z</time>
      </trkpt>
      <trkpt lat="45.90705" lon="4.66949">
        <ele>403.60000610352</ele>
        <time>2014-01-26T08:12:25.000Z</time>
      </trkpt>
      <trkpt lat="45.90723" lon="4.66939">
        <ele>402.39999389648</ele>
        <time>2014-01-26T08:12:32.000Z</time>
      </trkpt>
      <trkpt lat="45.90742" lon="4.6693">
        <ele>401.20001220703</ele>
        <time>2014-01-26T08:12:40.000Z</time>
      </trkpt>
      <trkpt lat="45.90761" lon="4.66923">
        <ele>399.79998779297</ele>
        <time>2014-01-26T08:12:47.000Z</time>
      </trkpt>
      <trkpt lat="45.90781" lon="4.6692">
        <ele>398.20001220703</ele>
        <time>2014-01-26T08:12:55.000Z</time>
      </trkpt>
      <trkpt lat="45.90787" lon="4.66919">
        <ele>397.79998779297</ele>
        <time>2014-01-26T08:12:57.000Z</time>
      </trkpt>
      <trkpt lat="45.90807" lon="4.66918">
        <ele>396.60000610352</ele>
        <time>2014-01-26T08:13:04.000Z</time>
      </trkpt>
      <trkpt lat="45.90828" lon="4.66918">
        <ele>395.39999389648</ele>
        <time>2014-01-26T08:13:11.000Z</time>
      </trkpt>
      <trkpt lat="45.90849" lon="4.66917">
        <ele>394.20001220703</ele>
        <time>2014-01-26T08:13:17.000Z</time>
      </trkpt>
      <trkpt lat="45.90867" lon="4.66914">
        <ele>393.39999389648</ele>
        <time>2014-01-26T08:13:23.000Z</time>
      </trkpt>
      <trkpt lat="45.90886" lon="4.66904">
        <ele>392.60000610352</ele>
        <time>2014-01-26T08:13:29.000Z</time>
      </trkpt>
      <trkpt lat="45.90904" lon="4.66899">
        <ele>391.79998779297</ele>
        <time>2014-01-26T08:13:35.000Z</time>
      </trkpt>
      <trkpt lat="45.90923" lon="4.66894">
        <ele>391.39999389648</ele>
        <time>2014-01-26T08:13:41.000Z</time>
      </trkpt>
      <trkpt lat="45.90943" lon="4.66897">
        <ele>391.20001220703</ele>
        <time>2014-01-26T08:13:48.000Z</time>
      </trkpt>
      <trkpt lat="45.90963" lon="4.66902">
        <ele>390.60000610352</ele>
        <time>2014-01-26T08:13:55.000Z</time>
      </trkpt>
      <trkpt lat="45.90984" lon="4.66904">
        <ele>390.20001220703</ele>
        <time>2014-01-26T08:14:02.000Z</time>
      </trkpt>
      <trkpt lat="45.91005" lon="4.66905">
        <ele>389.39999389648</ele>
        <time>2014-01-26T08:14:09.000Z</time>
      </trkpt>
      <trkpt lat="45.91024" lon="4.66903">
        <ele>387.79998779297</ele>
        <time>2014-01-26T08:14:16.000Z</time>
      </trkpt>
      <trkpt lat="45.91042" lon="4.66896">
        <ele>386.79998779297</ele>
        <time>2014-01-26T08:14:22.000Z</time>
      </trkpt>
      <trkpt lat="45.9106" lon="4.66891">
        <ele>385.60000610352</ele>
        <time>2014-01-26T08:14:29.000Z</time>
      </trkpt>
      <trkpt lat="45.91079" lon="4.66882">
        <ele>384.39999389648</ele>
        <time>2014-01-26T08:14:36.000Z</time>
      </trkpt>
      <trkpt lat="45.91097" lon="4.66874">
        <ele>383.60000610352</ele>
        <time>2014-01-26T08:14:42.000Z</time>
      </trkpt>
      <trkpt lat="45.91114" lon="4.66866">
        <ele>382.60000610352</ele>
        <time>2014-01-26T08:14:48.000Z</time>
      </trkpt>
      <trkpt lat="45.91132" lon="4.66859">
        <ele>381.60000610352</ele>
        <time>2014-01-26T08:14:55.000Z</time>
      </trkpt>
      <trkpt lat="45.91152" lon="4.6685">
        <ele>380.39999389648</ele>
        <time>2014-01-26T08:15:02.000Z</time>
      </trkpt>
      <trkpt lat="45.91167" lon="4.66836">
        <ele>379.79998779297</ele>
        <time>2014-01-26T08:15:08.000Z</time>
      </trkpt>
      <trkpt lat="45.91186" lon="4.66827">
        <ele>378</ele>
        <time>2014-01-26T08:15:15.000Z</time>
      </trkpt>
      <trkpt lat="45.91206" lon="4.66828">
        <ele>375.79998779297</ele>
        <time>2014-01-26T08:15:22.000Z</time>
      </trkpt>
      <trkpt lat="45.91226" lon="4.66827">
        <ele>373.60000610352</ele>
        <time>2014-01-26T08:15:29.000Z</time>
      </trkpt>
      <trkpt lat="45.91246" lon="4.66828">
        <ele>371.39999389648</ele>
        <time>2014-01-26T08:15:36.000Z</time>
      </trkpt>
      <trkpt lat="45.91267" lon="4.66829">
        <ele>370.79998779297</ele>
        <time>2014-01-26T08:15:43.000Z</time>
      </trkpt>
      <trkpt lat="45.91288" lon="4.6683">
        <ele>371</ele>
        <time>2014-01-26T08:15:50.000Z</time>
      </trkpt>
      <trkpt lat="45.91307" lon="4.66833">
        <ele>371</ele>
        <time>2014-01-26T08:15:57.000Z</time>
      </trkpt>
      <trkpt lat="45.91308" lon="4.66835">
        <ele>371</ele>
        <time>2014-01-26T08:15:58.000Z</time>
      </trkpt>
      <trkpt lat="45.9131" lon="4.66854">
        <ele>370.60000610352</ele>
        <time>2014-01-26T08:16:03.000Z</time>
      </trkpt>
      <trkpt lat="45.91311" lon="4.66881">
        <ele>370.20001220703</ele>
        <time>2014-01-26T08:16:11.000Z</time>
      </trkpt>
      <trkpt lat="45.91317" lon="4.66909">
        <ele>369.60000610352</ele>
        <time>2014-01-26T08:16:19.000Z</time>
      </trkpt>
      <trkpt lat="45.91325" lon="4.66934">
        <ele>369.39999389648</ele>
        <time>2014-01-26T08:16:26.000Z</time>
      </trkpt>
      <trkpt lat="45.91336" lon="4.66956">
        <ele>369.39999389648</ele>
        <time>2014-01-26T08:16:34.000Z</time>
      </trkpt>
      <trkpt lat="45.91346" lon="4.66978">
        <ele>369.20001220703</ele>
        <time>2014-01-26T08:16:41.000Z</time>
      </trkpt>
      <trkpt lat="45.91355" lon="4.67003">
        <ele>368.79998779297</ele>
        <time>2014-01-26T08:16:48.000Z</time>
      </trkpt>
      <trkpt lat="45.91362" lon="4.67029">
        <ele>367.79998779297</ele>
        <time>2014-01-26T08:16:55.000Z</time>
      </trkpt>
      <trkpt lat="45.91367" lon="4.67055">
        <ele>366.79998779297</ele>
        <time>2014-01-26T08:17:02.000Z</time>
      </trkpt>
      <trkpt lat="45.91369" lon="4.67082">
        <ele>365.79998779297</ele>
        <time>2014-01-26T08:17:09.000Z</time>
      </trkpt>
      <trkpt lat="45.91371" lon="4.67108">
        <ele>364</ele>
        <time>2014-01-26T08:17:16.000Z</time>
      </trkpt>
      <trkpt lat="45.91375" lon="4.67135">
        <ele>362.20001220703</ele>
        <time>2014-01-26T08:17:23.000Z</time>
      </trkpt>
      <trkpt lat="45.91379" lon="4.6716">
        <ele>360.20001220703</ele>
        <time>2014-01-26T08:17:30.000Z</time>
      </trkpt>
      <trkpt lat="45.91384" lon="4.67187">
        <ele>358.20001220703</ele>
        <time>2014-01-26T08:17:37.000Z</time>
      </trkpt>
      <trkpt lat="45.9139" lon="4.67215">
        <ele>356</ele>
        <time>2014-01-26T08:17:44.000Z</time>
      </trkpt>
      <trkpt lat="45.91395" lon="4.6724">
        <ele>354</ele>
        <time>2014-01-26T08:17:50.000Z</time>
      </trkpt>
      <trkpt lat="45.91401" lon="4.67269">
        <ele>352.60000610352</ele>
        <time>2014-01-26T08:17:57.000Z</time>
      </trkpt>
      <trkpt lat="45.91405" lon="4.67297">
        <ele>352</ele>
        <time>2014-01-26T08:18:04.000Z</time>
      </trkpt>
      <trkpt lat="45.9141" lon="4.67325">
        <ele>351.39999389648</ele>
        <time>2014-01-26T08:18:11.000Z</time>
      </trkpt>
      <trkpt lat="45.91412" lon="4.67334">
        <ele>351.20001220703</ele>
        <time>2014-01-26T08:18:13.000Z</time>
      </trkpt>
      <trkpt lat="45.91421" lon="4.67361">
        <ele>350.79998779297</ele>
        <time>2014-01-26T08:18:20.000Z</time>
      </trkpt>
      <trkpt lat="45.91433" lon="4.67381">
        <ele>350.39999389648</ele>
        <time>2014-01-26T08:18:26.000Z</time>
      </trkpt>
      <trkpt lat="45.91451" lon="4.6739">
        <ele>349.79998779297</ele>
        <time>2014-01-26T08:18:33.000Z</time>
      </trkpt>
      <trkpt lat="45.9147" lon="4.674">
        <ele>349</ele>
        <time>2014-01-26T08:18:41.000Z</time>
      </trkpt>
      <trkpt lat="45.91483" lon="4.67418">
        <ele>348.79998779297</ele>
        <time>2014-01-26T08:18:48.000Z</time>
      </trkpt>
      <trkpt lat="45.91498" lon="4.67438">
        <ele>349.79998779297</ele>
        <time>2014-01-26T08:18:56.000Z</time>
      </trkpt>
      <trkpt lat="45.91514" lon="4.67451">
        <ele>350.60000610352</ele>
        <time>2014-01-26T08:19:04.000Z</time>
      </trkpt>
      <trkpt lat="45.91527" lon="4.67457">
        <ele>350.79998779297</ele>
        <time>2014-01-26T08:19:13.000Z</time>
      </trkpt>
      <trkpt lat="45.91533" lon="4.67463">
        <ele>351</ele>
        <time>2014-01-26T08:19:18.000Z</time>
      </trkpt>
      <trkpt lat="45.9154" lon="4.6747">
        <ele>351.39999389648</ele>
        <time>2014-01-26T08:19:22.000Z</time>
      </trkpt>
      <trkpt lat="45.91546" lon="4.67477">
        <ele>351.79998779297</ele>
        <time>2014-01-26T08:19:26.000Z</time>
      </trkpt>
      <trkpt lat="45.91562" lon="4.6749">
        <ele>352.20001220703</ele>
        <time>2014-01-26T08:19:35.000Z</time>
      </trkpt>
      <trkpt lat="45.91579" lon="4.67508">
        <ele>353.20001220703</ele>
        <time>2014-01-26T08:19:43.000Z</time>
      </trkpt>
      <trkpt lat="45.91596" lon="4.67521">
        <ele>354.79998779297</ele>
        <time>2014-01-26T08:19:50.000Z</time>
      </trkpt>
      <trkpt lat="45.91607" lon="4.6754">
        <ele>357</ele>
        <time>2014-01-26T08:19:58.000Z</time>
      </trkpt>
      <trkpt lat="45.91613" lon="4.67565">
        <ele>360</ele>
        <time>2014-01-26T08:20:09.000Z</time>
      </trkpt>
      <trkpt lat="45.91619" lon="4.67591">
        <ele>362.39999389648</ele>
        <time>2014-01-26T08:20:19.000Z</time>
      </trkpt>
      <trkpt lat="45.91619" lon="4.67618">
        <ele>364.60000610352</ele>
        <time>2014-01-26T08:20:29.000Z</time>
      </trkpt>
      <trkpt lat="45.91619" lon="4.67639">
        <ele>366.39999389648</ele>
        <time>2014-01-26T08:20:37.000Z</time>
      </trkpt>
      <trkpt lat="45.91606" lon="4.67641">
        <ele>367.60000610352</ele>
        <time>2014-01-26T08:20:45.000Z</time>
      </trkpt>
      <trkpt lat="45.91587" lon="4.67644">
        <ele>369.39999389648</ele>
        <time>2014-01-26T08:20:54.000Z</time>
      </trkpt>
      <trkpt lat="45.91568" lon="4.67649">
        <ele>370.60000610352</ele>
        <time>2014-01-26T08:21:03.000Z</time>
      </trkpt>
      <trkpt lat="45.91549" lon="4.67651">
        <ele>371.39999389648</ele>
        <time>2014-01-26T08:21:12.000Z</time>
      </trkpt>
      <trkpt lat="45.9153" lon="4.67646">
        <ele>371.39999389648</ele>
        <time>2014-01-26T08:21:20.000Z</time>
      </trkpt>
      <trkpt lat="45.91511" lon="4.67653">
        <ele>372.60000610352</ele>
        <time>2014-01-26T08:21:27.000Z</time>
      </trkpt>
      <trkpt lat="45.91492" lon="4.67662">
        <ele>373.39999389648</ele>
        <time>2014-01-26T08:21:35.000Z</time>
      </trkpt>
      <trkpt lat="45.91474" lon="4.6767">
        <ele>373.20001220703</ele>
        <time>2014-01-26T08:21:43.000Z</time>
      </trkpt>
      <trkpt lat="45.91473" lon="4.67672">
        <ele>373.39999389648</ele>
        <time>2014-01-26T08:21:44.000Z</time>
      </trkpt>
      <trkpt lat="45.91475" lon="4.67698">
        <ele>375.20001220703</ele>
        <time>2014-01-26T08:21:55.000Z</time>
      </trkpt>
      <trkpt lat="45.91485" lon="4.67722">
        <ele>377.20001220703</ele>
        <time>2014-01-26T08:22:06.000Z</time>
      </trkpt>
      <trkpt lat="45.91491" lon="4.67743">
        <ele>379</ele>
        <time>2014-01-26T08:22:14.000Z</time>
      </trkpt>
      <trkpt lat="45.91481" lon="4.67754">
        <ele>379</ele>
        <time>2014-01-26T08:22:19.000Z</time>
      </trkpt>
      <trkpt lat="45.91464" lon="4.6776">
        <ele>378.20001220703</ele>
        <time>2014-01-26T08:22:26.000Z</time>
      </trkpt>
      <trkpt lat="45.91446" lon="4.67766">
        <ele>377.39999389648</ele>
        <time>2014-01-26T08:22:32.000Z</time>
      </trkpt>
      <trkpt lat="45.91428" lon="4.67774">
        <ele>376.79998779297</ele>
        <time>2014-01-26T08:22:39.000Z</time>
      </trkpt>
      <trkpt lat="45.91409" lon="4.67779">
        <ele>375.60000610352</ele>
        <time>2014-01-26T08:22:46.000Z</time>
      </trkpt>
      <trkpt lat="45.91389" lon="4.67779">
        <ele>373.60000610352</ele>
        <time>2014-01-26T08:22:53.000Z</time>
      </trkpt>
      <trkpt lat="45.91373" lon="4.6779">
        <ele>372.20001220703</ele>
        <time>2014-01-26T08:22:59.000Z</time>
      </trkpt>
      <trkpt lat="45.91356" lon="4.67808">
        <ele>371</ele>
        <time>2014-01-26T08:23:06.000Z</time>
      </trkpt>
      <trkpt lat="45.91339" lon="4.67825">
        <ele>369.39999389648</ele>
        <time>2014-01-26T08:23:13.000Z</time>
      </trkpt>
      <trkpt lat="45.91325" lon="4.67844">
        <ele>369.79998779297</ele>
        <time>2014-01-26T08:23:20.000Z</time>
      </trkpt>
      <trkpt lat="45.91319" lon="4.67854">
        <ele>370.60000610352</ele>
        <time>2014-01-26T08:23:24.000Z</time>
      </trkpt>
      <trkpt lat="45.91329" lon="4.67875">
        <ele>372.39999389648</ele>
        <time>2014-01-26T08:23:31.000Z</time>
      </trkpt>
      <trkpt lat="45.91342" lon="4.67895">
        <ele>374.79998779297</ele>
        <time>2014-01-26T08:23:39.000Z</time>
      </trkpt>
      <trkpt lat="45.91358" lon="4.67913">
        <ele>377</ele>
        <time>2014-01-26T08:23:48.000Z</time>
      </trkpt>
      <trkpt lat="45.91373" lon="4.67929">
        <ele>378.79998779297</ele>
        <time>2014-01-26T08:23:56.000Z</time>
      </trkpt>
      <trkpt lat="45.9139" lon="4.67942">
        <ele>380.39999389648</ele>
        <time>2014-01-26T08:24:04.000Z</time>
      </trkpt>
      <trkpt lat="45.91406" lon="4.67955">
        <ele>381.79998779297</ele>
        <time>2014-01-26T08:24:13.000Z</time>
      </trkpt>
      <trkpt lat="45.91417" lon="4.67977">
        <ele>383.60000610352</ele>
        <time>2014-01-26T08:24:21.000Z</time>
      </trkpt>
      <trkpt lat="45.91419" lon="4.68003">
        <ele>385</ele>
        <time>2014-01-26T08:24:28.000Z</time>
      </trkpt>
      <trkpt lat="45.9142" lon="4.6803">
        <ele>385.20001220703</ele>
        <time>2014-01-26T08:24:36.000Z</time>
      </trkpt>
      <trkpt lat="45.91421" lon="4.68041">
        <ele>385.39999389648</ele>
        <time>2014-01-26T08:24:39.000Z</time>
      </trkpt>
      <trkpt lat="45.91429" lon="4.68063">
        <ele>385.20001220703</ele>
        <time>2014-01-26T08:24:48.000Z</time>
      </trkpt>
      <trkpt lat="45.91428" lon="4.68072">
        <ele>385.39999389648</ele>
        <time>2014-01-26T08:24:51.000Z</time>
      </trkpt>
      <trkpt lat="45.91434" lon="4.68078">
        <ele>385.20001220703</ele>
        <time>2014-01-26T08:24:55.000Z</time>
      </trkpt>
      <trkpt lat="45.91435" lon="4.6808">
        <ele>385</ele>
        <time>2014-01-26T08:24:56.000Z</time>
      </trkpt>
      <trkpt lat="45.91446" lon="4.68102">
        <ele>384.60000610352</ele>
        <time>2014-01-26T08:25:04.000Z</time>
      </trkpt>
      <trkpt lat="45.91445" lon="4.68118">
        <ele>384.60000610352</ele>
        <time>2014-01-26T08:25:08.000Z</time>
      </trkpt>
      <trkpt lat="45.91443" lon="4.68146">
        <ele>384.79998779297</ele>
        <time>2014-01-26T08:25:15.000Z</time>
      </trkpt>
      <trkpt lat="45.91441" lon="4.68174">
        <ele>385</ele>
        <time>2014-01-26T08:25:22.000Z</time>
      </trkpt>
      <trkpt lat="45.91439" lon="4.68202">
        <ele>385.79998779297</ele>
        <time>2014-01-26T08:25:29.000Z</time>
      </trkpt>
      <trkpt lat="45.91437" lon="4.68231">
        <ele>386.79998779297</ele>
        <time>2014-01-26T08:25:36.000Z</time>
      </trkpt>
      <trkpt lat="45.91434" lon="4.68259">
        <ele>387.60000610352</ele>
        <time>2014-01-26T08:25:43.000Z</time>
      </trkpt>
      <trkpt lat="45.91428" lon="4.68286">
        <ele>388.39999389648</ele>
        <time>2014-01-26T08:25:51.000Z</time>
      </trkpt>
      <trkpt lat="45.91415" lon="4.68307">
        <ele>389.79998779297</ele>
        <time>2014-01-26T08:25:58.000Z</time>
      </trkpt>
      <trkpt lat="45.91396" lon="4.68316">
        <ele>391.60000610352</ele>
        <time>2014-01-26T08:26:06.000Z</time>
      </trkpt>
      <trkpt lat="45.91378" lon="4.6832">
        <ele>393.20001220703</ele>
        <time>2014-01-26T08:26:14.000Z</time>
      </trkpt>
      <trkpt lat="45.91358" lon="4.6832">
        <ele>395</ele>
        <time>2014-01-26T08:26:23.000Z</time>
      </trkpt>
      <trkpt lat="45.91342" lon="4.68329">
        <ele>397</ele>
        <time>2014-01-26T08:26:32.000Z</time>
      </trkpt>
      <trkpt lat="45.91336" lon="4.68331">
        <ele>397.60000610352</ele>
        <time>2014-01-26T08:26:37.000Z</time>
      </trkpt>
      <trkpt lat="45.91342" lon="4.68338">
        <ele>397</ele>
        <time>2014-01-26T08:28:33.000Z</time>
      </trkpt>
      <trkpt lat="45.91341" lon="4.68336">
        <ele>397.20001220703</ele>
        <time>2014-01-26T08:28:46.000Z</time>
      </trkpt>
      <trkpt lat="45.91338" lon="4.68346">
        <ele>397</ele>
        <time>2014-01-26T08:28:53.000Z</time>
      </trkpt>
      <trkpt lat="45.91345" lon="4.68353">
        <ele>396.20001220703</ele>
        <time>2014-01-26T08:28:59.000Z</time>
      </trkpt>
      <trkpt lat="45.91359" lon="4.68372">
        <ele>394.20001220703</ele>
        <time>2014-01-26T08:29:11.000Z</time>
      </trkpt>
      <trkpt lat="45.91365" lon="4.68377">
        <ele>393.60000610352</ele>
        <time>2014-01-26T08:29:14.000Z</time>
      </trkpt>
      <trkpt lat="45.91362" lon="4.68394">
        <ele>393.39999389648</ele>
        <time>2014-01-26T08:29:19.000Z</time>
      </trkpt>
      <trkpt lat="45.91349" lon="4.68415">
        <ele>393.79998779297</ele>
        <time>2014-01-26T08:29:26.000Z</time>
      </trkpt>
      <trkpt lat="45.91334" lon="4.68433">
        <ele>394</ele>
        <time>2014-01-26T08:29:32.000Z</time>
      </trkpt>
      <trkpt lat="45.91316" lon="4.68446">
        <ele>393.20001220703</ele>
        <time>2014-01-26T08:29:39.000Z</time>
      </trkpt>
      <trkpt lat="45.91296" lon="4.68448">
        <ele>392.79998779297</ele>
        <time>2014-01-26T08:29:46.000Z</time>
      </trkpt>
      <trkpt lat="45.91277" lon="4.6845">
        <ele>392.60000610352</ele>
        <time>2014-01-26T08:29:52.000Z</time>
      </trkpt>
      <trkpt lat="45.91259" lon="4.68449">
        <ele>392.60000610352</ele>
        <time>2014-01-26T08:29:58.000Z</time>
      </trkpt>
      <trkpt lat="45.91242" lon="4.68461">
        <ele>391.60000610352</ele>
        <time>2014-01-26T08:30:05.000Z</time>
      </trkpt>
      <trkpt lat="45.91242" lon="4.6849">
        <ele>390</ele>
        <time>2014-01-26T08:30:12.000Z</time>
      </trkpt>
      <trkpt lat="45.91252" lon="4.68513">
        <ele>388.60000610352</ele>
        <time>2014-01-26T08:30:18.000Z</time>
      </trkpt>
      <trkpt lat="45.9126" lon="4.68539">
        <ele>385.79998779297</ele>
        <time>2014-01-26T08:30:25.000Z</time>
      </trkpt>
      <trkpt lat="45.9126" lon="4.68566">
        <ele>382.60000610352</ele>
        <time>2014-01-26T08:30:33.000Z</time>
      </trkpt>
      <trkpt lat="45.91257" lon="4.68592">
        <ele>379.39999389648</ele>
        <time>2014-01-26T08:30:41.000Z</time>
      </trkpt>
      <trkpt lat="45.91257" lon="4.68596">
        <ele>378.79998779297</ele>
        <time>2014-01-26T08:30:42.000Z</time>
      </trkpt>
      <trkpt lat="45.91253" lon="4.68625">
        <ele>374</ele>
        <time>2014-01-26T08:30:51.000Z</time>
      </trkpt>
      <trkpt lat="45.91251" lon="4.68652">
        <ele>369.39999389648</ele>
        <time>2014-01-26T08:30:59.000Z</time>
      </trkpt>
      <trkpt lat="45.9126" lon="4.68679">
        <ele>364.79998779297</ele>
        <time>2014-01-26T08:31:07.000Z</time>
      </trkpt>
      <trkpt lat="45.91279" lon="4.68685">
        <ele>363.60000610352</ele>
        <time>2014-01-26T08:31:16.000Z</time>
      </trkpt>
      <trkpt lat="45.91298" lon="4.68692">
        <ele>362.20001220703</ele>
        <time>2014-01-26T08:31:24.000Z</time>
      </trkpt>
      <trkpt lat="45.91317" lon="4.68693">
        <ele>361.79998779297</ele>
        <time>2014-01-26T08:31:31.000Z</time>
      </trkpt>
      <trkpt lat="45.91335" lon="4.68697">
        <ele>360.79998779297</ele>
        <time>2014-01-26T08:31:38.000Z</time>
      </trkpt>
      <trkpt lat="45.91352" lon="4.68706">
        <ele>358.39999389648</ele>
        <time>2014-01-26T08:31:45.000Z</time>
      </trkpt>
      <trkpt lat="45.91367" lon="4.68712">
        <ele>356.39999389648</ele>
        <time>2014-01-26T08:31:53.000Z</time>
      </trkpt>
      <trkpt lat="45.91382" lon="4.6872">
        <ele>354</ele>
        <time>2014-01-26T08:31:59.000Z</time>
      </trkpt>
      <trkpt lat="45.91402" lon="4.68713">
        <ele>353.39999389648</ele>
        <time>2014-01-26T08:32:07.000Z</time>
      </trkpt>
      <trkpt lat="45.91421" lon="4.68704">
        <ele>353.60000610352</ele>
        <time>2014-01-26T08:32:15.000Z</time>
      </trkpt>
      <trkpt lat="45.91439" lon="4.68695">
        <ele>354.39999389648</ele>
        <time>2014-01-26T08:32:23.000Z</time>
      </trkpt>
      <trkpt lat="45.91448" lon="4.68695">
        <ele>354.20001220703</ele>
        <time>2014-01-26T08:32:31.000Z</time>
      </trkpt>
      <trkpt lat="45.91443" lon="4.68711">
        <ele>352.20001220703</ele>
        <time>2014-01-26T08:32:40.000Z</time>
      </trkpt>
      <trkpt lat="45.91442" lon="4.68714">
        <ele>352</ele>
        <time>2014-01-26T08:32:41.000Z</time>
      </trkpt>
      <trkpt lat="45.91438" lon="4.68728">
        <ele>350.20001220703</ele>
        <time>2014-01-26T08:32:47.000Z</time>
      </trkpt>
      <trkpt lat="45.91437" lon="4.6873">
        <ele>349.79998779297</ele>
        <time>2014-01-26T08:32:49.000Z</time>
      </trkpt>
      <trkpt lat="45.91436" lon="4.68749">
        <ele>347.39999389648</ele>
        <time>2014-01-26T08:33:05.000Z</time>
      </trkpt>
      <trkpt lat="45.91436" lon="4.6875">
        <ele>347.20001220703</ele>
        <time>2014-01-26T08:33:06.000Z</time>
      </trkpt>
      <trkpt lat="45.91434" lon="4.68762">
        <ele>345.20001220703</ele>
        <time>2014-01-26T08:33:15.000Z</time>
      </trkpt>
      <trkpt lat="45.91434" lon="4.68768">
        <ele>344.39999389648</ele>
        <time>2014-01-26T08:33:19.000Z</time>
      </trkpt>
      <trkpt lat="45.91434" lon="4.68789">
        <ele>341</ele>
        <time>2014-01-26T08:33:29.000Z</time>
      </trkpt>
      <trkpt lat="45.91432" lon="4.68817">
        <ele>336.79998779297</ele>
        <time>2014-01-26T08:33:41.000Z</time>
      </trkpt>
      <trkpt lat="45.91432" lon="4.68825">
        <ele>335.60000610352</ele>
        <time>2014-01-26T08:33:44.000Z</time>
      </trkpt>
      <trkpt lat="45.91431" lon="4.68844">
        <ele>333.20001220703</ele>
        <time>2014-01-26T08:33:54.000Z</time>
      </trkpt>
      <trkpt lat="45.9143" lon="4.68852">
        <ele>332.39999389648</ele>
        <time>2014-01-26T08:33:59.000Z</time>
      </trkpt>
      <trkpt lat="45.91429" lon="4.68854">
        <ele>332.39999389648</ele>
        <time>2014-01-26T08:34:00.000Z</time>
      </trkpt>
      <trkpt lat="45.91428" lon="4.68859">
        <ele>332</ele>
        <time>2014-01-26T08:34:04.000Z</time>
      </trkpt>
      <trkpt lat="45.91422" lon="4.68885">
        <ele>329.60000610352</ele>
        <time>2014-01-26T08:34:16.000Z</time>
      </trkpt>
      <trkpt lat="45.91416" lon="4.68909">
        <ele>327.79998779297</ele>
        <time>2014-01-26T08:34:25.000Z</time>
      </trkpt>
      <trkpt lat="45.91401" lon="4.68928">
        <ele>325.79998779297</ele>
        <time>2014-01-26T08:34:35.000Z</time>
      </trkpt>
      <trkpt lat="45.9139" lon="4.68947">
        <ele>323</ele>
        <time>2014-01-26T08:34:43.000Z</time>
      </trkpt>
      <trkpt lat="45.91388" lon="4.68959">
        <ele>321</ele>
        <time>2014-01-26T08:34:48.000Z</time>
      </trkpt>
      <trkpt lat="45.91388" lon="4.68972">
        <ele>319</ele>
        <time>2014-01-26T08:34:52.000Z</time>
      </trkpt>
      <trkpt lat="45.91385" lon="4.68983">
        <ele>317.20001220703</ele>
        <time>2014-01-26T08:34:56.000Z</time>
      </trkpt>
      <trkpt lat="45.91378" lon="4.69008">
        <ele>313.20001220703</ele>
        <time>2014-01-26T08:35:05.000Z</time>
      </trkpt>
      <trkpt lat="45.91377" lon="4.69015">
        <ele>312.20001220703</ele>
        <time>2014-01-26T08:35:07.000Z</time>
      </trkpt>
      <trkpt lat="45.91372" lon="4.69042">
        <ele>308</ele>
        <time>2014-01-26T08:35:15.000Z</time>
      </trkpt>
      <trkpt lat="45.91366" lon="4.69067">
        <ele>304</ele>
        <time>2014-01-26T08:35:22.000Z</time>
      </trkpt>
      <trkpt lat="45.91357" lon="4.69091">
        <ele>300.79998779297</ele>
        <time>2014-01-26T08:35:29.000Z</time>
      </trkpt>
      <trkpt lat="45.91357" lon="4.6912">
        <ele>297.39999389648</ele>
        <time>2014-01-26T08:35:36.000Z</time>
      </trkpt>
      <trkpt lat="45.91357" lon="4.69147">
        <ele>294.39999389648</ele>
        <time>2014-01-26T08:35:44.000Z</time>
      </trkpt>
      <trkpt lat="45.91357" lon="4.69176">
        <ele>291.20001220703</ele>
        <time>2014-01-26T08:35:52.000Z</time>
      </trkpt>
      <trkpt lat="45.91355" lon="4.69203">
        <ele>288.20001220703</ele>
        <time>2014-01-26T08:35:59.000Z</time>
      </trkpt>
      <trkpt lat="45.91353" lon="4.69205">
        <ele>288</ele>
        <time>2014-01-26T08:36:00.000Z</time>
      </trkpt>
      <trkpt lat="45.91344" lon="4.6921">
        <ele>287.39999389648</ele>
        <time>2014-01-26T08:36:04.000Z</time>
      </trkpt>
      <trkpt lat="45.91334" lon="4.69204">
        <ele>288</ele>
        <time>2014-01-26T08:36:08.000Z</time>
      </trkpt>
      <trkpt lat="45.91315" lon="4.69195">
        <ele>288.79998779297</ele>
        <time>2014-01-26T08:36:15.000Z</time>
      </trkpt>
      <trkpt lat="45.91296" lon="4.69189">
        <ele>289.20001220703</ele>
        <time>2014-01-26T08:36:22.000Z</time>
      </trkpt>
      <trkpt lat="45.91276" lon="4.69186">
        <ele>289</ele>
        <time>2014-01-26T08:36:29.000Z</time>
      </trkpt>
      <trkpt lat="45.91256" lon="4.6918">
        <ele>289.39999389648</ele>
        <time>2014-01-26T08:36:36.000Z</time>
      </trkpt>
      <trkpt lat="45.91238" lon="4.69173">
        <ele>290</ele>
        <time>2014-01-26T08:36:43.000Z</time>
      </trkpt>
      <trkpt lat="45.91221" lon="4.69165">
        <ele>290.79998779297</ele>
        <time>2014-01-26T08:36:50.000Z</time>
      </trkpt>
      <trkpt lat="45.91203" lon="4.69157">
        <ele>291.39999389648</ele>
        <time>2014-01-26T08:36:57.000Z</time>
      </trkpt>
      <trkpt lat="45.91184" lon="4.69149">
        <ele>291.79998779297</ele>
        <time>2014-01-26T08:37:05.000Z</time>
      </trkpt>
      <trkpt lat="45.91165" lon="4.69147">
        <ele>291.60000610352</ele>
        <time>2014-01-26T08:37:12.000Z</time>
      </trkpt>
      <trkpt lat="45.91145" lon="4.69155">
        <ele>290.39999389648</ele>
        <time>2014-01-26T08:37:19.000Z</time>
      </trkpt>
      <trkpt lat="45.91126" lon="4.69162">
        <ele>289.39999389648</ele>
        <time>2014-01-26T08:37:26.000Z</time>
      </trkpt>
      <trkpt lat="45.91107" lon="4.69161">
        <ele>289</ele>
        <time>2014-01-26T08:37:33.000Z</time>
      </trkpt>
      <trkpt lat="45.91088" lon="4.69156">
        <ele>289</ele>
        <time>2014-01-26T08:37:40.000Z</time>
      </trkpt>
      <trkpt lat="45.91069" lon="4.69148">
        <ele>289.20001220703</ele>
        <time>2014-01-26T08:37:47.000Z</time>
      </trkpt>
      <trkpt lat="45.9105" lon="4.69135">
        <ele>290</ele>
        <time>2014-01-26T08:37:54.000Z</time>
      </trkpt>
      <trkpt lat="45.91032" lon="4.69123">
        <ele>290.79998779297</ele>
        <time>2014-01-26T08:38:01.000Z</time>
      </trkpt>
      <trkpt lat="45.91013" lon="4.69116">
        <ele>291</ele>
        <time>2014-01-26T08:38:08.000Z</time>
      </trkpt>
      <trkpt lat="45.90995" lon="4.6911">
        <ele>291.20001220703</ele>
        <time>2014-01-26T08:38:15.000Z</time>
      </trkpt>
      <trkpt lat="45.90977" lon="4.691">
        <ele>291.20001220703</ele>
        <time>2014-01-26T08:38:23.000Z</time>
      </trkpt>
      <trkpt lat="45.90976" lon="4.69098">
        <ele>291.39999389648</ele>
        <time>2014-01-26T08:38:24.000Z</time>
      </trkpt>
      <trkpt lat="45.90979" lon="4.69071">
        <ele>293.79998779297</ele>
        <time>2014-01-26T08:38:33.000Z</time>
      </trkpt>
      <trkpt lat="45.90983" lon="4.69044">
        <ele>296.39999389648</ele>
        <time>2014-01-26T08:38:43.000Z</time>
      </trkpt>
      <trkpt lat="45.90978" lon="4.69024">
        <ele>297.60000610352</ele>
        <time>2014-01-26T08:38:51.000Z</time>
      </trkpt>
      <trkpt lat="45.90959" lon="4.69019">
        <ele>296.20001220703</ele>
        <time>2014-01-26T08:38:58.000Z</time>
      </trkpt>
      <trkpt lat="45.90939" lon="4.69017">
        <ele>294.39999389648</ele>
        <time>2014-01-26T08:39:05.000Z</time>
      </trkpt>
      <trkpt lat="45.9092" lon="4.69011">
        <ele>292.79998779297</ele>
        <time>2014-01-26T08:39:12.000Z</time>
      </trkpt>
      <trkpt lat="45.90905" lon="4.68994">
        <ele>293.39999389648</ele>
        <time>2014-01-26T08:39:19.000Z</time>
      </trkpt>
      <trkpt lat="45.90892" lon="4.68977">
        <ele>294.60000610352</ele>
        <time>2014-01-26T08:39:26.000Z</time>
      </trkpt>
      <trkpt lat="45.90879" lon="4.68968">
        <ele>295.20001220703</ele>
        <time>2014-01-26T08:39:31.000Z</time>
      </trkpt>
      <trkpt lat="45.90863" lon="4.68958">
        <ele>295.79998779297</ele>
        <time>2014-01-26T08:39:38.000Z</time>
      </trkpt>
      <trkpt lat="45.90844" lon="4.68948">
        <ele>296.20001220703</ele>
        <time>2014-01-26T08:39:45.000Z</time>
      </trkpt>
      <trkpt lat="45.90827" lon="4.68937">
        <ele>297</ele>
        <time>2014-01-26T08:39:52.000Z</time>
      </trkpt>
      <trkpt lat="45.90808" lon="4.68934">
        <ele>297</ele>
        <time>2014-01-26T08:39:59.000Z</time>
      </trkpt>
      <trkpt lat="45.90788" lon="4.68943">
        <ele>295.79998779297</ele>
        <time>2014-01-26T08:40:06.000Z</time>
      </trkpt>
      <trkpt lat="45.9077" lon="4.68954">
        <ele>294.20001220703</ele>
        <time>2014-01-26T08:40:13.000Z</time>
      </trkpt>
      <trkpt lat="45.90752" lon="4.68961">
        <ele>293.20001220703</ele>
        <time>2014-01-26T08:40:20.000Z</time>
      </trkpt>
      <trkpt lat="45.90733" lon="4.68962">
        <ele>293.60000610352</ele>
        <time>2014-01-26T08:40:27.000Z</time>
      </trkpt>
      <trkpt lat="45.90714" lon="4.68959">
        <ele>294.79998779297</ele>
        <time>2014-01-26T08:40:34.000Z</time>
      </trkpt>
      <trkpt lat="45.90695" lon="4.68953">
        <ele>296</ele>
        <time>2014-01-26T08:40:41.000Z</time>
      </trkpt>
      <trkpt lat="45.90676" lon="4.68944">
        <ele>297</ele>
        <time>2014-01-26T08:40:48.000Z</time>
      </trkpt>
      <trkpt lat="45.90658" lon="4.68933">
        <ele>298</ele>
        <time>2014-01-26T08:40:55.000Z</time>
      </trkpt>
      <trkpt lat="45.90642" lon="4.6892">
        <ele>298.79998779297</ele>
        <time>2014-01-26T08:41:02.000Z</time>
      </trkpt>
      <trkpt lat="45.90624" lon="4.68907">
        <ele>299.60000610352</ele>
        <time>2014-01-26T08:41:09.000Z</time>
      </trkpt>
      <trkpt lat="45.90606" lon="4.68897">
        <ele>300</ele>
        <time>2014-01-26T08:41:16.000Z</time>
      </trkpt>
      <trkpt lat="45.90588" lon="4.68887">
        <ele>300.39999389648</ele>
        <time>2014-01-26T08:41:23.000Z</time>
      </trkpt>
      <trkpt lat="45.90574" lon="4.68871">
        <ele>300.79998779297</ele>
        <time>2014-01-26T08:41:29.000Z</time>
      </trkpt>
      <trkpt lat="45.90559" lon="4.68854">
        <ele>301</ele>
        <time>2014-01-26T08:41:35.000Z</time>
      </trkpt>
      <trkpt lat="45.90549" lon="4.68831">
        <ele>302</ele>
        <time>2014-01-26T08:41:42.000Z</time>
      </trkpt>
      <trkpt lat="45.9054" lon="4.68808">
        <ele>303.79998779297</ele>
        <time>2014-01-26T08:41:49.000Z</time>
      </trkpt>
      <trkpt lat="45.90525" lon="4.68794">
        <ele>305</ele>
        <time>2014-01-26T08:41:57.000Z</time>
      </trkpt>
      <trkpt lat="45.9052" lon="4.68795">
        <ele>304.79998779297</ele>
        <time>2014-01-26T08:42:43.000Z</time>
      </trkpt>
      <trkpt lat="45.90519" lon="4.68797">
        <ele>304.60000610352</ele>
        <time>2014-01-26T08:43:58.000Z</time>
      </trkpt>
      <trkpt lat="45.905" lon="4.68786">
        <ele>305.60000610352</ele>
        <time>2014-01-26T08:44:04.000Z</time>
      </trkpt>
      <trkpt lat="45.90484" lon="4.68773">
        <ele>306.79998779297</ele>
        <time>2014-01-26T08:44:12.000Z</time>
      </trkpt>
      <trkpt lat="45.90469" lon="4.68758">
        <ele>308.39999389648</ele>
        <time>2014-01-26T08:44:20.000Z</time>
      </trkpt>
      <trkpt lat="45.90453" lon="4.68744">
        <ele>309.39999389648</ele>
        <time>2014-01-26T08:44:27.000Z</time>
      </trkpt>
      <trkpt lat="45.90437" lon="4.6873">
        <ele>310.20001220703</ele>
        <time>2014-01-26T08:44:34.000Z</time>
      </trkpt>
      <trkpt lat="45.90434" lon="4.68726">
        <ele>310.39999389648</ele>
        <time>2014-01-26T08:44:36.000Z</time>
      </trkpt>
      <trkpt lat="45.90422" lon="4.68719">
        <ele>310.39999389648</ele>
        <time>2014-01-26T08:44:41.000Z</time>
      </trkpt>
      <trkpt lat="45.90405" lon="4.68708">
        <ele>310.60000610352</ele>
        <time>2014-01-26T08:44:49.000Z</time>
      </trkpt>
      <trkpt lat="45.90386" lon="4.68701">
        <ele>310.20001220703</ele>
        <time>2014-01-26T08:44:56.000Z</time>
      </trkpt>
      <trkpt lat="45.90366" lon="4.68698">
        <ele>309.60000610352</ele>
        <time>2014-01-26T08:45:03.000Z</time>
      </trkpt>
      <trkpt lat="45.90347" lon="4.687">
        <ele>308.79998779297</ele>
        <time>2014-01-26T08:45:10.000Z</time>
      </trkpt>
      <trkpt lat="45.90327" lon="4.68699">
        <ele>308</ele>
        <time>2014-01-26T08:45:17.000Z</time>
      </trkpt>
      <trkpt lat="45.90307" lon="4.68699">
        <ele>307.39999389648</ele>
        <time>2014-01-26T08:45:24.000Z</time>
      </trkpt>
      <trkpt lat="45.90287" lon="4.68697">
        <ele>306.79998779297</ele>
        <time>2014-01-26T08:45:31.000Z</time>
      </trkpt>
      <trkpt lat="45.90268" lon="4.68694">
        <ele>306.20001220703</ele>
        <time>2014-01-26T08:45:38.000Z</time>
      </trkpt>
      <trkpt lat="45.90261" lon="4.68693">
        <ele>306</ele>
        <time>2014-01-26T08:45:41.000Z</time>
      </trkpt>
      <trkpt lat="45.90242" lon="4.68684">
        <ele>306</ele>
        <time>2014-01-26T08:45:48.000Z</time>
      </trkpt>
      <trkpt lat="45.90223" lon="4.68674">
        <ele>306</ele>
        <time>2014-01-26T08:45:55.000Z</time>
      </trkpt>
      <trkpt lat="45.9021" lon="4.68668">
        <ele>306</ele>
        <time>2014-01-26T08:46:00.000Z</time>
      </trkpt>
      <trkpt lat="45.90192" lon="4.68658">
        <ele>306</ele>
        <time>2014-01-26T08:46:07.000Z</time>
      </trkpt>
      <trkpt lat="45.9018" lon="4.68653">
        <ele>305.79998779297</ele>
        <time>2014-01-26T08:46:12.000Z</time>
      </trkpt>
      <trkpt lat="45.90163" lon="4.6864">
        <ele>306</ele>
        <time>2014-01-26T08:46:21.000Z</time>
      </trkpt>
      <trkpt lat="45.90164" lon="4.68637">
        <ele>306</ele>
        <time>2014-01-26T08:46:22.000Z</time>
      </trkpt>
      <trkpt lat="45.90167" lon="4.68611">
        <ele>307</ele>
        <time>2014-01-26T08:46:30.000Z</time>
      </trkpt>
      <trkpt lat="45.9017" lon="4.68593">
        <ele>307.79998779297</ele>
        <time>2014-01-26T08:46:38.000Z</time>
      </trkpt>
      <trkpt lat="45.9017" lon="4.6859">
        <ele>307.79998779297</ele>
        <time>2014-01-26T08:46:40.000Z</time>
      </trkpt>
      <trkpt lat="45.90173" lon="4.68564">
        <ele>309.60000610352</ele>
        <time>2014-01-26T08:46:51.000Z</time>
      </trkpt>
      <trkpt lat="45.90177" lon="4.68547">
        <ele>310.79998779297</ele>
        <time>2014-01-26T08:46:58.000Z</time>
      </trkpt>
      <trkpt lat="45.90177" lon="4.6852">
        <ele>312.79998779297</ele>
        <time>2014-01-26T08:47:07.000Z</time>
      </trkpt>
      <trkpt lat="45.90176" lon="4.68513">
        <ele>313.39999389648</ele>
        <time>2014-01-26T08:47:09.000Z</time>
      </trkpt>
      <trkpt lat="45.9018" lon="4.68485">
        <ele>315.60000610352</ele>
        <time>2014-01-26T08:47:17.000Z</time>
      </trkpt>
      <trkpt lat="45.90179" lon="4.68481">
        <ele>315.79998779297</ele>
        <time>2014-01-26T08:47:18.000Z</time>
      </trkpt>
      <trkpt lat="45.90179" lon="4.68469">
        <ele>316.79998779297</ele>
        <time>2014-01-26T08:47:22.000Z</time>
      </trkpt>
      <trkpt lat="45.90176" lon="4.68446">
        <ele>318.39999389648</ele>
        <time>2014-01-26T08:47:31.000Z</time>
      </trkpt>
      <trkpt lat="45.90179" lon="4.68421">
        <ele>320.60000610352</ele>
        <time>2014-01-26T08:47:40.000Z</time>
      </trkpt>
      <trkpt lat="45.90175" lon="4.68394">
        <ele>322.60000610352</ele>
        <time>2014-01-26T08:47:49.000Z</time>
      </trkpt>
      <trkpt lat="45.90174" lon="4.68366">
        <ele>325.20001220703</ele>
        <time>2014-01-26T08:48:00.000Z</time>
      </trkpt>
      <trkpt lat="45.90172" lon="4.6834">
        <ele>327.39999389648</ele>
        <time>2014-01-26T08:48:11.000Z</time>
      </trkpt>
      <trkpt lat="45.90169" lon="4.68314">
        <ele>331.39999389648</ele>
        <time>2014-01-26T08:48:22.000Z</time>
      </trkpt>
      <trkpt lat="45.90176" lon="4.68291">
        <ele>335.39999389648</ele>
        <time>2014-01-26T08:48:32.000Z</time>
      </trkpt>
      <trkpt lat="45.90191" lon="4.68275">
        <ele>337.39999389648</ele>
        <time>2014-01-26T08:48:41.000Z</time>
      </trkpt>
      <trkpt lat="45.90203" lon="4.68255">
        <ele>339.60000610352</ele>
        <time>2014-01-26T08:48:52.000Z</time>
      </trkpt>
      <trkpt lat="45.90217" lon="4.68239">
        <ele>341.20001220703</ele>
        <time>2014-01-26T08:49:04.000Z</time>
      </trkpt>
      <trkpt lat="45.90223" lon="4.68234">
        <ele>341.60000610352</ele>
        <time>2014-01-26T08:49:08.000Z</time>
      </trkpt>
      <trkpt lat="45.90238" lon="4.6822">
        <ele>343.20001220703</ele>
        <time>2014-01-26T08:49:17.000Z</time>
      </trkpt>
      <trkpt lat="45.90249" lon="4.68198">
        <ele>346.39999389648</ele>
        <time>2014-01-26T08:49:27.000Z</time>
      </trkpt>
      <trkpt lat="45.90262" lon="4.68176">
        <ele>350.79998779297</ele>
        <time>2014-01-26T08:49:36.000Z</time>
      </trkpt>
      <trkpt lat="45.90275" lon="4.68156">
        <ele>353.79998779297</ele>
        <time>2014-01-26T08:49:44.000Z</time>
      </trkpt>
      <trkpt lat="45.9028" lon="4.68143">
        <ele>355</ele>
        <time>2014-01-26T08:49:49.000Z</time>
      </trkpt>
      <trkpt lat="45.90292" lon="4.68123">
        <ele>356.39999389648</ele>
        <time>2014-01-26T08:49:58.000Z</time>
      </trkpt>
      <trkpt lat="45.90297" lon="4.68111">
        <ele>357</ele>
        <time>2014-01-26T08:50:03.000Z</time>
      </trkpt>
      <trkpt lat="45.90305" lon="4.68087">
        <ele>357.79998779297</ele>
        <time>2014-01-26T08:50:12.000Z</time>
      </trkpt>
      <trkpt lat="45.90312" lon="4.68062">
        <ele>358.79998779297</ele>
        <time>2014-01-26T08:50:23.000Z</time>
      </trkpt>
      <trkpt lat="45.9032" lon="4.68037">
        <ele>359.60000610352</ele>
        <time>2014-01-26T08:50:34.000Z</time>
      </trkpt>
      <trkpt lat="45.90323" lon="4.68011">
        <ele>361</ele>
        <time>2014-01-26T08:50:45.000Z</time>
      </trkpt>
      <trkpt lat="45.90324" lon="4.68001">
        <ele>361.60000610352</ele>
        <time>2014-01-26T08:50:49.000Z</time>
      </trkpt>
      <trkpt lat="45.90322" lon="4.67979">
        <ele>363.79998779297</ele>
        <time>2014-01-26T08:50:59.000Z</time>
      </trkpt>
      <trkpt lat="45.90322" lon="4.67964">
        <ele>365.39999389648</ele>
        <time>2014-01-26T08:51:06.000Z</time>
      </trkpt>
      <trkpt lat="45.90323" lon="4.67938">
        <ele>367.60000610352</ele>
        <time>2014-01-26T08:51:18.000Z</time>
      </trkpt>
      <trkpt lat="45.90323" lon="4.67936">
        <ele>367.79998779297</ele>
        <time>2014-01-26T08:51:19.000Z</time>
      </trkpt>
      <trkpt lat="45.90324" lon="4.67917">
        <ele>369.39999389648</ele>
        <time>2014-01-26T08:51:26.000Z</time>
      </trkpt>
      <trkpt lat="45.90328" lon="4.67889">
        <ele>369.79998779297</ele>
        <time>2014-01-26T08:51:36.000Z</time>
      </trkpt>
      <trkpt lat="45.90327" lon="4.67861">
        <ele>370.79998779297</ele>
        <time>2014-01-26T08:51:45.000Z</time>
      </trkpt>
      <trkpt lat="45.90326" lon="4.67832">
        <ele>371.79998779297</ele>
        <time>2014-01-26T08:51:54.000Z</time>
      </trkpt>
      <trkpt lat="45.90327" lon="4.67805">
        <ele>371.60000610352</ele>
        <time>2014-01-26T08:52:02.000Z</time>
      </trkpt>
      <trkpt lat="45.90329" lon="4.67777">
        <ele>371.20001220703</ele>
        <time>2014-01-26T08:52:11.000Z</time>
      </trkpt>
      <trkpt lat="45.9033" lon="4.67774">
        <ele>371.20001220703</ele>
        <time>2014-01-26T08:52:12.000Z</time>
      </trkpt>
      <trkpt lat="45.90335" lon="4.67747">
        <ele>371</ele>
        <time>2014-01-26T08:52:20.000Z</time>
      </trkpt>
      <trkpt lat="45.9034" lon="4.67719">
        <ele>372.39999389648</ele>
        <time>2014-01-26T08:52:28.000Z</time>
      </trkpt>
      <trkpt lat="45.90343" lon="4.67693">
        <ele>373.79998779297</ele>
        <time>2014-01-26T08:52:38.000Z</time>
      </trkpt>
      <trkpt lat="45.90344" lon="4.67666">
        <ele>375.60000610352</ele>
        <time>2014-01-26T08:52:48.000Z</time>
      </trkpt>
      <trkpt lat="45.90344" lon="4.67664">
        <ele>375.79998779297</ele>
        <time>2014-01-26T08:52:49.000Z</time>
      </trkpt>
      <trkpt lat="45.90342" lon="4.67655">
        <ele>377</ele>
        <time>2014-01-26T08:52:53.000Z</time>
      </trkpt>
      <trkpt lat="45.90339" lon="4.67629">
        <ele>380.20001220703</ele>
        <time>2014-01-26T08:53:03.000Z</time>
      </trkpt>
      <trkpt lat="45.90339" lon="4.67603">
        <ele>383.39999389648</ele>
        <time>2014-01-26T08:53:15.000Z</time>
      </trkpt>
      <trkpt lat="45.90339" lon="4.67601">
        <ele>383.60000610352</ele>
        <time>2014-01-26T08:53:16.000Z</time>
      </trkpt>
      <trkpt lat="45.90337" lon="4.67594">
        <ele>384.60000610352</ele>
        <time>2014-01-26T08:53:20.000Z</time>
      </trkpt>
      <trkpt lat="45.90334" lon="4.67574">
        <ele>387.20001220703</ele>
        <time>2014-01-26T08:53:32.000Z</time>
      </trkpt>
      <trkpt lat="45.9033" lon="4.67568">
        <ele>388</ele>
        <time>2014-01-26T08:53:39.000Z</time>
      </trkpt>
      <trkpt lat="45.90329" lon="4.67565">
        <ele>388.20001220703</ele>
        <time>2014-01-26T08:53:41.000Z</time>
      </trkpt>
      <trkpt lat="45.90329" lon="4.67562">
        <ele>388.60000610352</ele>
        <time>2014-01-26T08:53:43.000Z</time>
      </trkpt>
      <trkpt lat="45.90342" lon="4.67546">
        <ele>390.60000610352</ele>
        <time>2014-01-26T08:54:03.000Z</time>
      </trkpt>
      <trkpt lat="45.90358" lon="4.67529">
        <ele>392.39999389648</ele>
        <time>2014-01-26T08:54:11.000Z</time>
      </trkpt>
      <trkpt lat="45.90374" lon="4.67513">
        <ele>394.20001220703</ele>
        <time>2014-01-26T08:54:20.000Z</time>
      </trkpt>
      <trkpt lat="45.90388" lon="4.67493">
        <ele>396.20001220703</ele>
        <time>2014-01-26T08:54:30.000Z</time>
      </trkpt>
      <trkpt lat="45.904" lon="4.67473">
        <ele>397.60000610352</ele>
        <time>2014-01-26T08:54:40.000Z</time>
      </trkpt>
      <trkpt lat="45.90406" lon="4.67465">
        <ele>398.20001220703</ele>
        <time>2014-01-26T08:54:44.000Z</time>
      </trkpt>
      <trkpt lat="45.90394" lon="4.67459">
        <ele>398.79998779297</ele>
        <time>2014-01-26T08:54:51.000Z</time>
      </trkpt>
      <trkpt lat="45.90376" lon="4.67465">
        <ele>398.60000610352</ele>
        <time>2014-01-26T08:54:58.000Z</time>
      </trkpt>
      <trkpt lat="45.90357" lon="4.67467">
        <ele>399</ele>
        <time>2014-01-26T08:55:05.000Z</time>
      </trkpt>
      <trkpt lat="45.90344" lon="4.67462">
        <ele>399.60000610352</ele>
        <time>2014-01-26T08:55:10.000Z</time>
      </trkpt>
      <trkpt lat="45.90328" lon="4.6745">
        <ele>400.60000610352</ele>
        <time>2014-01-26T08:55:17.000Z</time>
      </trkpt>
      <trkpt lat="45.90313" lon="4.67434">
        <ele>401.39999389648</ele>
        <time>2014-01-26T08:55:24.000Z</time>
      </trkpt>
      <trkpt lat="45.90298" lon="4.67417">
        <ele>402.60000610352</ele>
        <time>2014-01-26T08:55:31.000Z</time>
      </trkpt>
      <trkpt lat="45.90283" lon="4.67402">
        <ele>403.20001220703</ele>
        <time>2014-01-26T08:55:38.000Z</time>
      </trkpt>
      <trkpt lat="45.90266" lon="4.67387">
        <ele>403.60000610352</ele>
        <time>2014-01-26T08:55:46.000Z</time>
      </trkpt>
      <trkpt lat="45.90249" lon="4.67375">
        <ele>404</ele>
        <time>2014-01-26T08:55:53.000Z</time>
      </trkpt>
      <trkpt lat="45.9023" lon="4.67367">
        <ele>404.79998779297</ele>
        <time>2014-01-26T08:56:01.000Z</time>
      </trkpt>
      <trkpt lat="45.90213" lon="4.67357">
        <ele>406</ele>
        <time>2014-01-26T08:56:08.000Z</time>
      </trkpt>
      <trkpt lat="45.90196" lon="4.67347">
        <ele>407.39999389648</ele>
        <time>2014-01-26T08:56:15.000Z</time>
      </trkpt>
      <trkpt lat="45.90178" lon="4.67337">
        <ele>409.20001220703</ele>
        <time>2014-01-26T08:56:22.000Z</time>
      </trkpt>
      <trkpt lat="45.90161" lon="4.67327">
        <ele>410.20001220703</ele>
        <time>2014-01-26T08:56:30.000Z</time>
      </trkpt>
      <trkpt lat="45.90145" lon="4.67314">
        <ele>410.60000610352</ele>
        <time>2014-01-26T08:56:38.000Z</time>
      </trkpt>
      <trkpt lat="45.90128" lon="4.67302">
        <ele>411</ele>
        <time>2014-01-26T08:56:46.000Z</time>
      </trkpt>
      <trkpt lat="45.90109" lon="4.67298">
        <ele>411.20001220703</ele>
        <time>2014-01-26T08:56:53.000Z</time>
      </trkpt>
      <trkpt lat="45.9009" lon="4.67292">
        <ele>411.39999389648</ele>
        <time>2014-01-26T08:57:01.000Z</time>
      </trkpt>
      <trkpt lat="45.90072" lon="4.67282">
        <ele>412.39999389648</ele>
        <time>2014-01-26T08:57:08.000Z</time>
      </trkpt>
      <trkpt lat="45.90054" lon="4.67277">
        <ele>413.20001220703</ele>
        <time>2014-01-26T08:57:15.000Z</time>
      </trkpt>
      <trkpt lat="45.90035" lon="4.67268">
        <ele>415</ele>
        <time>2014-01-26T08:57:22.000Z</time>
      </trkpt>
      <trkpt lat="45.90017" lon="4.67257">
        <ele>417.79998779297</ele>
        <time>2014-01-26T08:57:31.000Z</time>
      </trkpt>
      <trkpt lat="45.89999" lon="4.67246">
        <ele>420.60000610352</ele>
        <time>2014-01-26T08:57:40.000Z</time>
      </trkpt>
      <trkpt lat="45.89994" lon="4.67244">
        <ele>421</ele>
        <time>2014-01-26T08:57:44.000Z</time>
      </trkpt>
      <trkpt lat="45.89977" lon="4.67235">
        <ele>422.39999389648</ele>
        <time>2014-01-26T08:57:55.000Z</time>
      </trkpt>
      <trkpt lat="45.89975" lon="4.67234">
        <ele>422.39999389648</ele>
        <time>2014-01-26T08:57:56.000Z</time>
      </trkpt>
      <trkpt lat="45.89956" lon="4.67233">
        <ele>422.79998779297</ele>
        <time>2014-01-26T08:58:05.000Z</time>
      </trkpt>
      <trkpt lat="45.8994" lon="4.67232">
        <ele>423</ele>
        <time>2014-01-26T08:58:12.000Z</time>
      </trkpt>
      <trkpt lat="45.89927" lon="4.67228">
        <ele>423.79998779297</ele>
        <time>2014-01-26T08:58:18.000Z</time>
      </trkpt>
      <trkpt lat="45.89908" lon="4.67224">
        <ele>425.20001220703</ele>
        <time>2014-01-26T08:58:27.000Z</time>
      </trkpt>
      <trkpt lat="45.89887" lon="4.67221">
        <ele>426.60000610352</ele>
        <time>2014-01-26T08:58:35.000Z</time>
      </trkpt>
      <trkpt lat="45.89885" lon="4.67221">
        <ele>426.60000610352</ele>
        <time>2014-01-26T08:58:36.000Z</time>
      </trkpt>
      <trkpt lat="45.89881" lon="4.6722">
        <ele>427</ele>
        <time>2014-01-26T08:58:38.000Z</time>
      </trkpt>
      <trkpt lat="45.89862" lon="4.67217">
        <ele>428.39999389648</ele>
        <time>2014-01-26T08:58:47.000Z</time>
      </trkpt>
      <trkpt lat="45.89857" lon="4.67217">
        <ele>428.60000610352</ele>
        <time>2014-01-26T08:58:49.000Z</time>
      </trkpt>
      <trkpt lat="45.89853" lon="4.67217">
        <ele>428.79998779297</ele>
        <time>2014-01-26T08:58:51.000Z</time>
      </trkpt>
      <trkpt lat="45.89839" lon="4.67221">
        <ele>428.60000610352</ele>
        <time>2014-01-26T08:58:57.000Z</time>
      </trkpt>
      <trkpt lat="45.89821" lon="4.67229">
        <ele>428</ele>
        <time>2014-01-26T08:59:04.000Z</time>
      </trkpt>
      <trkpt lat="45.89803" lon="4.67236">
        <ele>427.79998779297</ele>
        <time>2014-01-26T08:59:11.000Z</time>
      </trkpt>
      <trkpt lat="45.89782" lon="4.6724">
        <ele>428</ele>
        <time>2014-01-26T08:59:19.000Z</time>
      </trkpt>
      <trkpt lat="45.8978" lon="4.6724">
        <ele>428.20001220703</ele>
        <time>2014-01-26T08:59:20.000Z</time>
      </trkpt>
      <trkpt lat="45.89766" lon="4.67243">
        <ele>428.20001220703</ele>
        <time>2014-01-26T08:59:26.000Z</time>
      </trkpt>
      <trkpt lat="45.89759" lon="4.67247">
        <ele>428</ele>
        <time>2014-01-26T08:59:30.000Z</time>
      </trkpt>
      <trkpt lat="45.89739" lon="4.6725">
        <ele>429</ele>
        <time>2014-01-26T08:59:38.000Z</time>
      </trkpt>
      <trkpt lat="45.89719" lon="4.67255">
        <ele>430.39999389648</ele>
        <time>2014-01-26T08:59:46.000Z</time>
      </trkpt>
      <trkpt lat="45.89716" lon="4.67256">
        <ele>430.39999389648</ele>
        <time>2014-01-26T08:59:47.000Z</time>
      </trkpt>
      <trkpt lat="45.897" lon="4.67261">
        <ele>431</ele>
        <time>2014-01-26T08:59:53.000Z</time>
      </trkpt>
      <trkpt lat="45.8968" lon="4.67264">
        <ele>432.20001220703</ele>
        <time>2014-01-26T09:00:00.000Z</time>
      </trkpt>
      <trkpt lat="45.89675" lon="4.67265">
        <ele>432.60000610352</ele>
        <time>2014-01-26T09:00:02.000Z</time>
      </trkpt>
      <trkpt lat="45.89672" lon="4.67264">
        <ele>432.79998779297</ele>
        <time>2014-01-26T09:00:03.000Z</time>
      </trkpt>
      <trkpt lat="45.89656" lon="4.6726">
        <ele>434.39999389648</ele>
        <time>2014-01-26T09:00:09.000Z</time>
      </trkpt>
      <trkpt lat="45.89638" lon="4.67263">
        <ele>434.20001220703</ele>
        <time>2014-01-26T09:00:16.000Z</time>
      </trkpt>
      <trkpt lat="45.89618" lon="4.67267">
        <ele>434</ele>
        <time>2014-01-26T09:00:24.000Z</time>
      </trkpt>
      <trkpt lat="45.89599" lon="4.67264">
        <ele>435</ele>
        <time>2014-01-26T09:00:31.000Z</time>
      </trkpt>
      <trkpt lat="45.8958" lon="4.67257">
        <ele>436.20001220703</ele>
        <time>2014-01-26T09:00:38.000Z</time>
      </trkpt>
      <trkpt lat="45.89562" lon="4.6725">
        <ele>435.60000610352</ele>
        <time>2014-01-26T09:00:45.000Z</time>
      </trkpt>
      <trkpt lat="45.89557" lon="4.67247">
        <ele>435.39999389648</ele>
        <time>2014-01-26T09:00:48.000Z</time>
      </trkpt>
      <trkpt lat="45.8954" lon="4.67229">
        <ele>435.39999389648</ele>
        <time>2014-01-26T09:00:57.000Z</time>
      </trkpt>
      <trkpt lat="45.8953" lon="4.67204">
        <ele>437.39999389648</ele>
        <time>2014-01-26T09:01:04.000Z</time>
      </trkpt>
      <trkpt lat="45.8952" lon="4.6718">
        <ele>439.39999389648</ele>
        <time>2014-01-26T09:01:11.000Z</time>
      </trkpt>
      <trkpt lat="45.89517" lon="4.6717">
        <ele>440.39999389648</ele>
        <time>2014-01-26T09:01:14.000Z</time>
      </trkpt>
      <trkpt lat="45.89511" lon="4.67145">
        <ele>441.79998779297</ele>
        <time>2014-01-26T09:01:21.000Z</time>
      </trkpt>
      <trkpt lat="45.89502" lon="4.67123">
        <ele>442.79998779297</ele>
        <time>2014-01-26T09:01:28.000Z</time>
      </trkpt>
      <trkpt lat="45.89491" lon="4.67098">
        <ele>442.79998779297</ele>
        <time>2014-01-26T09:01:36.000Z</time>
      </trkpt>
      <trkpt lat="45.89478" lon="4.67078">
        <ele>442.20001220703</ele>
        <time>2014-01-26T09:01:42.000Z</time>
      </trkpt>
      <trkpt lat="45.89464" lon="4.67058">
        <ele>441.20001220703</ele>
        <time>2014-01-26T09:01:49.000Z</time>
      </trkpt>
      <trkpt lat="45.8945" lon="4.67041">
        <ele>440.39999389648</ele>
        <time>2014-01-26T09:01:56.000Z</time>
      </trkpt>
      <trkpt lat="45.89432" lon="4.67027">
        <ele>439.39999389648</ele>
        <time>2014-01-26T09:02:03.000Z</time>
      </trkpt>
      <trkpt lat="45.89417" lon="4.67013">
        <ele>439</ele>
        <time>2014-01-26T09:02:09.000Z</time>
      </trkpt>
      <trkpt lat="45.89402" lon="4.66997">
        <ele>438.39999389648</ele>
        <time>2014-01-26T09:02:15.000Z</time>
      </trkpt>
      <trkpt lat="45.89386" lon="4.6698">
        <ele>436.79998779297</ele>
        <time>2014-01-26T09:02:21.000Z</time>
      </trkpt>
      <trkpt lat="45.8937" lon="4.66963">
        <ele>435</ele>
        <time>2014-01-26T09:02:27.000Z</time>
      </trkpt>
      <trkpt lat="45.89353" lon="4.66947">
        <ele>432.79998779297</ele>
        <time>2014-01-26T09:02:34.000Z</time>
      </trkpt>
      <trkpt lat="45.89335" lon="4.66938">
        <ele>430.20001220703</ele>
        <time>2014-01-26T09:02:40.000Z</time>
      </trkpt>
      <trkpt lat="45.89315" lon="4.66929">
        <ele>427.60000610352</ele>
        <time>2014-01-26T09:02:47.000Z</time>
      </trkpt>
      <trkpt lat="45.89297" lon="4.66923">
        <ele>425.20001220703</ele>
        <time>2014-01-26T09:02:53.000Z</time>
      </trkpt>
      <trkpt lat="45.89279" lon="4.66915">
        <ele>422.79998779297</ele>
        <time>2014-01-26T09:02:59.000Z</time>
      </trkpt>
      <trkpt lat="45.89259" lon="4.66906">
        <ele>419.79998779297</ele>
        <time>2014-01-26T09:03:06.000Z</time>
      </trkpt>
      <trkpt lat="45.8924" lon="4.66897">
        <ele>417.60000610352</ele>
        <time>2014-01-26T09:03:13.000Z</time>
      </trkpt>
      <trkpt lat="45.89221" lon="4.66887">
        <ele>416.60000610352</ele>
        <time>2014-01-26T09:03:20.000Z</time>
      </trkpt>
      <trkpt lat="45.89204" lon="4.66878">
        <ele>415.60000610352</ele>
        <time>2014-01-26T09:03:26.000Z</time>
      </trkpt>
      <trkpt lat="45.89187" lon="4.66867">
        <ele>415</ele>
        <time>2014-01-26T09:03:33.000Z</time>
      </trkpt>
      <trkpt lat="45.89169" lon="4.6686">
        <ele>414.39999389648</ele>
        <time>2014-01-26T09:03:40.000Z</time>
      </trkpt>
      <trkpt lat="45.89158" lon="4.66863">
        <ele>414.39999389648</ele>
        <time>2014-01-26T09:03:44.000Z</time>
      </trkpt>
      <trkpt lat="45.89156" lon="4.6689">
        <ele>414.60000610352</ele>
        <time>2014-01-26T09:03:50.000Z</time>
      </trkpt>
      <trkpt lat="45.89156" lon="4.66916">
        <ele>414.79998779297</ele>
        <time>2014-01-26T09:03:56.000Z</time>
      </trkpt>
      <trkpt lat="45.89157" lon="4.66944">
        <ele>413.39999389648</ele>
        <time>2014-01-26T09:04:03.000Z</time>
      </trkpt>
      <trkpt lat="45.8916" lon="4.66965">
        <ele>412.39999389648</ele>
        <time>2014-01-26T09:04:11.000Z</time>
      </trkpt>
      <trkpt lat="45.89159" lon="4.66978">
        <ele>411.60000610352</ele>
        <time>2014-01-26T09:04:22.000Z</time>
      </trkpt>
      <trkpt lat="45.89162" lon="4.6698">
        <ele>411.60000610352</ele>
        <time>2014-01-26T09:04:26.000Z</time>
      </trkpt>
      <trkpt lat="45.8917" lon="4.66982">
        <ele>412.20001220703</ele>
        <time>2014-01-26T09:06:31.000Z</time>
      </trkpt>
      <trkpt lat="45.89165" lon="4.66971">
        <ele>412.20001220703</ele>
        <time>2014-01-26T09:08:29.000Z</time>
      </trkpt>
      <trkpt lat="45.89159" lon="4.66944">
        <ele>413.39999389648</ele>
        <time>2014-01-26T09:08:39.000Z</time>
      </trkpt>
      <trkpt lat="45.89156" lon="4.66916">
        <ele>414.79998779297</ele>
        <time>2014-01-26T09:08:47.000Z</time>
      </trkpt>
      <trkpt lat="45.89154" lon="4.66908">
        <ele>414.60000610352</ele>
        <time>2014-01-26T09:08:50.000Z</time>
      </trkpt>
      <trkpt lat="45.89152" lon="4.66935">
        <ele>413.60000610352</ele>
        <time>2014-01-26T09:08:58.000Z</time>
      </trkpt>
      <trkpt lat="45.89148" lon="4.66958">
        <ele>412.20001220703</ele>
        <time>2014-01-26T09:09:05.000Z</time>
      </trkpt>
      <trkpt lat="45.89129" lon="4.66971">
        <ele>410.39999389648</ele>
        <time>2014-01-26T09:09:12.000Z</time>
      </trkpt>
      <trkpt lat="45.89122" lon="4.66973">
        <ele>409.79998779297</ele>
        <time>2014-01-26T09:09:14.000Z</time>
      </trkpt>
      <trkpt lat="45.89109" lon="4.66982">
        <ele>408.39999389648</ele>
        <time>2014-01-26T09:09:19.000Z</time>
      </trkpt>
      <trkpt lat="45.89106" lon="4.66999">
        <ele>406.79998779297</ele>
        <time>2014-01-26T09:09:23.000Z</time>
      </trkpt>
      <trkpt lat="45.89101" lon="4.67025">
        <ele>404</ele>
        <time>2014-01-26T09:09:29.000Z</time>
      </trkpt>
      <trkpt lat="45.89094" lon="4.67049">
        <ele>401.20001220703</ele>
        <time>2014-01-26T09:09:35.000Z</time>
      </trkpt>
      <trkpt lat="45.89085" lon="4.67075">
        <ele>398</ele>
        <time>2014-01-26T09:09:41.000Z</time>
      </trkpt>
      <trkpt lat="45.89074" lon="4.67101">
        <ele>395</ele>
        <time>2014-01-26T09:09:48.000Z</time>
      </trkpt>
      <trkpt lat="45.89063" lon="4.67122">
        <ele>392.39999389648</ele>
        <time>2014-01-26T09:09:54.000Z</time>
      </trkpt>
      <trkpt lat="45.89051" lon="4.67143">
        <ele>389.39999389648</ele>
        <time>2014-01-26T09:10:00.000Z</time>
      </trkpt>
      <trkpt lat="45.89041" lon="4.67166">
        <ele>386</ele>
        <time>2014-01-26T09:10:06.000Z</time>
      </trkpt>
      <trkpt lat="45.8903" lon="4.67187">
        <ele>383.60000610352</ele>
        <time>2014-01-26T09:10:12.000Z</time>
      </trkpt>
      <trkpt lat="45.8902" lon="4.67211">
        <ele>380.79998779297</ele>
        <time>2014-01-26T09:10:18.000Z</time>
      </trkpt>
      <trkpt lat="45.8901" lon="4.67234">
        <ele>377.79998779297</ele>
        <time>2014-01-26T09:10:24.000Z</time>
      </trkpt>
      <trkpt lat="45.89003" lon="4.67248">
        <ele>375.60000610352</ele>
        <time>2014-01-26T09:10:28.000Z</time>
      </trkpt>
      <trkpt lat="45.88995" lon="4.67271">
        <ele>373</ele>
        <time>2014-01-26T09:10:34.000Z</time>
      </trkpt>
      <trkpt lat="45.88991" lon="4.67297">
        <ele>370.39999389648</ele>
        <time>2014-01-26T09:10:40.000Z</time>
      </trkpt>
      <trkpt lat="45.88991" lon="4.67324">
        <ele>367.79998779297</ele>
        <time>2014-01-26T09:10:46.000Z</time>
      </trkpt>
      <trkpt lat="45.88993" lon="4.6735">
        <ele>364.39999389648</ele>
        <time>2014-01-26T09:10:52.000Z</time>
      </trkpt>
      <trkpt lat="45.88997" lon="4.67375">
        <ele>360.39999389648</ele>
        <time>2014-01-26T09:10:58.000Z</time>
      </trkpt>
      <trkpt lat="45.89002" lon="4.67405">
        <ele>356.39999389648</ele>
        <time>2014-01-26T09:11:05.000Z</time>
      </trkpt>
      <trkpt lat="45.89012" lon="4.67429">
        <ele>355.20001220703</ele>
        <time>2014-01-26T09:11:11.000Z</time>
      </trkpt>
      <trkpt lat="45.89025" lon="4.67449">
        <ele>355</ele>
        <time>2014-01-26T09:11:17.000Z</time>
      </trkpt>
      <trkpt lat="45.89035" lon="4.67475">
        <ele>352.79998779297</ele>
        <time>2014-01-26T09:11:24.000Z</time>
      </trkpt>
      <trkpt lat="45.89046" lon="4.67497">
        <ele>351.20001220703</ele>
        <time>2014-01-26T09:11:30.000Z</time>
      </trkpt>
      <trkpt lat="45.89058" lon="4.67517">
        <ele>350.20001220703</ele>
        <time>2014-01-26T09:11:36.000Z</time>
      </trkpt>
      <trkpt lat="45.89071" lon="4.67539">
        <ele>348.60000610352</ele>
        <time>2014-01-26T09:11:43.000Z</time>
      </trkpt>
      <trkpt lat="45.89086" lon="4.6756">
        <ele>346.39999389648</ele>
        <time>2014-01-26T09:11:50.000Z</time>
      </trkpt>
      <trkpt lat="45.89099" lon="4.67582">
        <ele>344.39999389648</ele>
        <time>2014-01-26T09:11:57.000Z</time>
      </trkpt>
      <trkpt lat="45.89113" lon="4.67602">
        <ele>343.39999389648</ele>
        <time>2014-01-26T09:12:05.000Z</time>
      </trkpt>
      <trkpt lat="45.89114" lon="4.67602">
        <ele>343.60000610352</ele>
        <time>2014-01-26T09:12:06.000Z</time>
      </trkpt>
      <trkpt lat="45.89123" lon="4.67626">
        <ele>341</ele>
        <time>2014-01-26T09:12:14.000Z</time>
      </trkpt>
      <trkpt lat="45.89123" lon="4.67632">
        <ele>339.79998779297</ele>
        <time>2014-01-26T09:12:16.000Z</time>
      </trkpt>
      <trkpt lat="45.89124" lon="4.67646">
        <ele>337.79998779297</ele>
        <time>2014-01-26T09:12:20.000Z</time>
      </trkpt>
      <trkpt lat="45.89135" lon="4.67663">
        <ele>335.79998779297</ele>
        <time>2014-01-26T09:12:31.000Z</time>
      </trkpt>
      <trkpt lat="45.89134" lon="4.67674">
        <ele>334.20001220703</ele>
        <time>2014-01-26T09:12:34.000Z</time>
      </trkpt>
      <trkpt lat="45.89131" lon="4.677">
        <ele>330.79998779297</ele>
        <time>2014-01-26T09:12:41.000Z</time>
      </trkpt>
      <trkpt lat="45.89128" lon="4.67727">
        <ele>327.39999389648</ele>
        <time>2014-01-26T09:12:49.000Z</time>
      </trkpt>
      <trkpt lat="45.89124" lon="4.67755">
        <ele>324</ele>
        <time>2014-01-26T09:12:56.000Z</time>
      </trkpt>
      <trkpt lat="45.89121" lon="4.67783">
        <ele>321.60000610352</ele>
        <time>2014-01-26T09:13:03.000Z</time>
      </trkpt>
      <trkpt lat="45.89118" lon="4.67812">
        <ele>319.20001220703</ele>
        <time>2014-01-26T09:13:10.000Z</time>
      </trkpt>
      <trkpt lat="45.89115" lon="4.67842">
        <ele>316.79998779297</ele>
        <time>2014-01-26T09:13:17.000Z</time>
      </trkpt>
      <trkpt lat="45.89109" lon="4.67867">
        <ele>315.39999389648</ele>
        <time>2014-01-26T09:13:23.000Z</time>
      </trkpt>
      <trkpt lat="45.89109" lon="4.67895">
        <ele>314.20001220703</ele>
        <time>2014-01-26T09:13:30.000Z</time>
      </trkpt>
      <trkpt lat="45.89111" lon="4.67921">
        <ele>313.20001220703</ele>
        <time>2014-01-26T09:13:36.000Z</time>
      </trkpt>
      <trkpt lat="45.89112" lon="4.6795">
        <ele>312.39999389648</ele>
        <time>2014-01-26T09:13:42.000Z</time>
      </trkpt>
      <trkpt lat="45.89115" lon="4.67977">
        <ele>312</ele>
        <time>2014-01-26T09:13:48.000Z</time>
      </trkpt>
      <trkpt lat="45.89119" lon="4.68005">
        <ele>311.60000610352</ele>
        <time>2014-01-26T09:13:55.000Z</time>
      </trkpt>
      <trkpt lat="45.89123" lon="4.68034">
        <ele>312.60000610352</ele>
        <time>2014-01-26T09:14:03.000Z</time>
      </trkpt>
      <trkpt lat="45.89127" lon="4.68059">
        <ele>313.60000610352</ele>
        <time>2014-01-26T09:14:10.000Z</time>
      </trkpt>
      <trkpt lat="45.89133" lon="4.68087">
        <ele>314.60000610352</ele>
        <time>2014-01-26T09:14:18.000Z</time>
      </trkpt>
      <trkpt lat="45.89136" lon="4.68114">
        <ele>314.79998779297</ele>
        <time>2014-01-26T09:14:27.000Z</time>
      </trkpt>
      <trkpt lat="45.89139" lon="4.68118">
        <ele>314.79998779297</ele>
        <time>2014-01-26T09:14:29.000Z</time>
      </trkpt>
      <trkpt lat="45.89155" lon="4.68137">
        <ele>315.60000610352</ele>
        <time>2014-01-26T09:14:36.000Z</time>
      </trkpt>
      <trkpt lat="45.89168" lon="4.6816">
        <ele>316</ele>
        <time>2014-01-26T09:14:43.000Z</time>
      </trkpt>
      <trkpt lat="45.89181" lon="4.68183">
        <ele>314.60000610352</ele>
        <time>2014-01-26T09:14:50.000Z</time>
      </trkpt>
      <trkpt lat="45.89194" lon="4.68203">
        <ele>313.39999389648</ele>
        <time>2014-01-26T09:14:57.000Z</time>
      </trkpt>
      <trkpt lat="45.89209" lon="4.68225">
        <ele>312.39999389648</ele>
        <time>2014-01-26T09:15:04.000Z</time>
      </trkpt>
      <trkpt lat="45.89222" lon="4.68243">
        <ele>312</ele>
        <time>2014-01-26T09:15:10.000Z</time>
      </trkpt>
      <trkpt lat="45.89236" lon="4.68262">
        <ele>311.20001220703</ele>
        <time>2014-01-26T09:15:16.000Z</time>
      </trkpt>
      <trkpt lat="45.8925" lon="4.68282">
        <ele>310</ele>
        <time>2014-01-26T09:15:22.000Z</time>
      </trkpt>
      <trkpt lat="45.89264" lon="4.68303">
        <ele>308</ele>
        <time>2014-01-26T09:15:28.000Z</time>
      </trkpt>
      <trkpt lat="45.89278" lon="4.68321">
        <ele>306.79998779297</ele>
        <time>2014-01-26T09:15:34.000Z</time>
      </trkpt>
      <trkpt lat="45.89292" lon="4.68339">
        <ele>306.20001220703</ele>
        <time>2014-01-26T09:15:40.000Z</time>
      </trkpt>
      <trkpt lat="45.89299" lon="4.68349">
        <ele>305.79998779297</ele>
        <time>2014-01-26T09:15:43.000Z</time>
      </trkpt>
      <trkpt lat="45.89313" lon="4.68367">
        <ele>305.20001220703</ele>
        <time>2014-01-26T09:15:49.000Z</time>
      </trkpt>
      <trkpt lat="45.89327" lon="4.68383">
        <ele>304.79998779297</ele>
        <time>2014-01-26T09:15:55.000Z</time>
      </trkpt>
      <trkpt lat="45.89343" lon="4.68396">
        <ele>303.60000610352</ele>
        <time>2014-01-26T09:16:01.000Z</time>
      </trkpt>
      <trkpt lat="45.89344" lon="4.684">
        <ele>303.39999389648</ele>
        <time>2014-01-26T09:16:02.000Z</time>
      </trkpt>
      <trkpt lat="45.89345" lon="4.68429">
        <ele>302.20001220703</ele>
        <time>2014-01-26T09:16:09.000Z</time>
      </trkpt>
      <trkpt lat="45.89347" lon="4.68459">
        <ele>301.39999389648</ele>
        <time>2014-01-26T09:16:16.000Z</time>
      </trkpt>
      <trkpt lat="45.89353" lon="4.68471">
        <ele>300.79998779297</ele>
        <time>2014-01-26T09:16:20.000Z</time>
      </trkpt>
      <trkpt lat="45.89365" lon="4.68467">
        <ele>300.20001220703</ele>
        <time>2014-01-26T09:16:24.000Z</time>
      </trkpt>
      <trkpt lat="45.89386" lon="4.68459">
        <ele>299.39999389648</ele>
        <time>2014-01-26T09:16:30.000Z</time>
      </trkpt>
      <trkpt lat="45.89406" lon="4.68455">
        <ele>298.60000610352</ele>
        <time>2014-01-26T09:16:36.000Z</time>
      </trkpt>
      <trkpt lat="45.89425" lon="4.68448">
        <ele>297.39999389648</ele>
        <time>2014-01-26T09:16:42.000Z</time>
      </trkpt>
      <trkpt lat="45.89444" lon="4.68446">
        <ele>295.79998779297</ele>
        <time>2014-01-26T09:16:49.000Z</time>
      </trkpt>
      <trkpt lat="45.89445" lon="4.68449">
        <ele>295.79998779297</ele>
        <time>2014-01-26T09:16:50.000Z</time>
      </trkpt>
      <trkpt lat="45.89449" lon="4.68476">
        <ele>294.60000610352</ele>
        <time>2014-01-26T09:16:56.000Z</time>
      </trkpt>
      <trkpt lat="45.89453" lon="4.68504">
        <ele>293.39999389648</ele>
        <time>2014-01-26T09:17:02.000Z</time>
      </trkpt>
      <trkpt lat="45.89458" lon="4.68531">
        <ele>292.20001220703</ele>
        <time>2014-01-26T09:17:08.000Z</time>
      </trkpt>
      <trkpt lat="45.89462" lon="4.68557">
        <ele>291</ele>
        <time>2014-01-26T09:17:14.000Z</time>
      </trkpt>
      <trkpt lat="45.89468" lon="4.68583">
        <ele>289.60000610352</ele>
        <time>2014-01-26T09:17:20.000Z</time>
      </trkpt>
      <trkpt lat="45.89475" lon="4.6861">
        <ele>287.39999389648</ele>
        <time>2014-01-26T09:17:26.000Z</time>
      </trkpt>
      <trkpt lat="45.89479" lon="4.68637">
        <ele>286</ele>
        <time>2014-01-26T09:17:32.000Z</time>
      </trkpt>
      <trkpt lat="45.89474" lon="4.68661">
        <ele>285.20001220703</ele>
        <time>2014-01-26T09:17:38.000Z</time>
      </trkpt>
      <trkpt lat="45.89461" lon="4.6868">
        <ele>284.39999389648</ele>
        <time>2014-01-26T09:17:44.000Z</time>
      </trkpt>
      <trkpt lat="45.89446" lon="4.68698">
        <ele>283.39999389648</ele>
        <time>2014-01-26T09:17:51.000Z</time>
      </trkpt>
      <trkpt lat="45.89442" lon="4.68698">
        <ele>283.39999389648</ele>
        <time>2014-01-26T09:17:53.000Z</time>
      </trkpt>
      <trkpt lat="45.89424" lon="4.68697">
        <ele>283.60000610352</ele>
        <time>2014-01-26T09:18:00.000Z</time>
      </trkpt>
      <trkpt lat="45.89407" lon="4.68706">
        <ele>282.20001220703</ele>
        <time>2014-01-26T09:18:12.000Z</time>
      </trkpt>
      <trkpt lat="45.89389" lon="4.6871">
        <ele>280.60000610352</ele>
        <time>2014-01-26T09:18:25.000Z</time>
      </trkpt>
      <trkpt lat="45.89371" lon="4.68713">
        <ele>279.20001220703</ele>
        <time>2014-01-26T09:18:32.000Z</time>
      </trkpt>
      <trkpt lat="45.89353" lon="4.68715">
        <ele>277.60000610352</ele>
        <time>2014-01-26T09:18:41.000Z</time>
      </trkpt>
      <trkpt lat="45.89349" lon="4.68715">
        <ele>277.60000610352</ele>
        <time>2014-01-26T09:18:43.000Z</time>
      </trkpt>
      <trkpt lat="45.8933" lon="4.68722">
        <ele>275.39999389648</ele>
        <time>2014-01-26T09:18:50.000Z</time>
      </trkpt>
      <trkpt lat="45.89311" lon="4.68731">
        <ele>274.20001220703</ele>
        <time>2014-01-26T09:18:57.000Z</time>
      </trkpt>
      <trkpt lat="45.89309" lon="4.68734">
        <ele>273.79998779297</ele>
        <time>2014-01-26T09:18:58.000Z</time>
      </trkpt>
      <trkpt lat="45.89302" lon="4.68747">
        <ele>272.20001220703</ele>
        <time>2014-01-26T09:19:02.000Z</time>
      </trkpt>
      <trkpt lat="45.89293" lon="4.68772">
        <ele>271.60000610352</ele>
        <time>2014-01-26T09:19:10.000Z</time>
      </trkpt>
      <trkpt lat="45.89286" lon="4.68796">
        <ele>271.60000610352</ele>
        <time>2014-01-26T09:19:20.000Z</time>
      </trkpt>
      <trkpt lat="45.89282" lon="4.6881">
        <ele>271.79998779297</ele>
        <time>2014-01-26T09:19:27.000Z</time>
      </trkpt>
      <trkpt lat="45.89278" lon="4.68824">
        <ele>272</ele>
        <time>2014-01-26T09:19:33.000Z</time>
      </trkpt>
      <trkpt lat="45.89262" lon="4.68837">
        <ele>273.60000610352</ele>
        <time>2014-01-26T09:19:41.000Z</time>
      </trkpt>
      <trkpt lat="45.89244" lon="4.68833">
        <ele>275.39999389648</ele>
        <time>2014-01-26T09:19:50.000Z</time>
      </trkpt>
      <trkpt lat="45.89231" lon="4.68814">
        <ele>276</ele>
        <time>2014-01-26T09:19:58.000Z</time>
      </trkpt>
      <trkpt lat="45.89218" lon="4.68792">
        <ele>276.39999389648</ele>
        <time>2014-01-26T09:20:06.000Z</time>
      </trkpt>
      <trkpt lat="45.892" lon="4.68785">
        <ele>277.79998779297</ele>
        <time>2014-01-26T09:20:14.000Z</time>
      </trkpt>
      <trkpt lat="45.89181" lon="4.68783">
        <ele>279.20001220703</ele>
        <time>2014-01-26T09:20:23.000Z</time>
      </trkpt>
      <trkpt lat="45.89162" lon="4.6878">
        <ele>280.60000610352</ele>
        <time>2014-01-26T09:20:31.000Z</time>
      </trkpt>
      <trkpt lat="45.89144" lon="4.68771">
        <ele>281.60000610352</ele>
        <time>2014-01-26T09:20:39.000Z</time>
      </trkpt>
      <trkpt lat="45.8913" lon="4.68754">
        <ele>282.60000610352</ele>
        <time>2014-01-26T09:20:47.000Z</time>
      </trkpt>
      <trkpt lat="45.89119" lon="4.68733">
        <ele>283.20001220703</ele>
        <time>2014-01-26T09:20:55.000Z</time>
      </trkpt>
      <trkpt lat="45.89102" lon="4.68727">
        <ele>284.39999389648</ele>
        <time>2014-01-26T09:21:03.000Z</time>
      </trkpt>
      <trkpt lat="45.89083" lon="4.68728">
        <ele>285.79998779297</ele>
        <time>2014-01-26T09:21:10.000Z</time>
      </trkpt>
      <trkpt lat="45.89063" lon="4.6873">
        <ele>286.60000610352</ele>
        <time>2014-01-26T09:21:17.000Z</time>
      </trkpt>
      <trkpt lat="45.89044" lon="4.68743">
        <ele>287.39999389648</ele>
        <time>2014-01-26T09:21:24.000Z</time>
      </trkpt>
      <trkpt lat="45.89028" lon="4.68757">
        <ele>287.60000610352</ele>
        <time>2014-01-26T09:21:30.000Z</time>
      </trkpt>
      <trkpt lat="45.8901" lon="4.68763">
        <ele>288</ele>
        <time>2014-01-26T09:21:36.000Z</time>
      </trkpt>
      <trkpt lat="45.88991" lon="4.68774">
        <ele>287.60000610352</ele>
        <time>2014-01-26T09:21:43.000Z</time>
      </trkpt>
      <trkpt lat="45.88974" lon="4.68788">
        <ele>286.60000610352</ele>
        <time>2014-01-26T09:21:50.000Z</time>
      </trkpt>
      <trkpt lat="45.88971" lon="4.68789">
        <ele>286.39999389648</ele>
        <time>2014-01-26T09:21:51.000Z</time>
      </trkpt>
      <trkpt lat="45.88964" lon="4.68791">
        <ele>286.20001220703</ele>
        <time>2014-01-26T09:21:59.000Z</time>
      </trkpt>
      <trkpt lat="45.88956" lon="4.68765">
        <ele>286.79998779297</ele>
        <time>2014-01-26T09:22:07.000Z</time>
      </trkpt>
      <trkpt lat="45.88948" lon="4.68742">
        <ele>287.39999389648</ele>
        <time>2014-01-26T09:22:14.000Z</time>
      </trkpt>
      <trkpt lat="45.88937" lon="4.6872">
        <ele>287.79998779297</ele>
        <time>2014-01-26T09:22:22.000Z</time>
      </trkpt>
      <trkpt lat="45.88925" lon="4.68697">
        <ele>288.20001220703</ele>
        <time>2014-01-26T09:22:30.000Z</time>
      </trkpt>
      <trkpt lat="45.88913" lon="4.68677">
        <ele>288.79998779297</ele>
        <time>2014-01-26T09:22:37.000Z</time>
      </trkpt>
      <trkpt lat="45.889" lon="4.68656">
        <ele>290.20001220703</ele>
        <time>2014-01-26T09:22:45.000Z</time>
      </trkpt>
      <trkpt lat="45.88887" lon="4.68635">
        <ele>291.79998779297</ele>
        <time>2014-01-26T09:22:53.000Z</time>
      </trkpt>
      <trkpt lat="45.8888" lon="4.68628">
        <ele>292.39999389648</ele>
        <time>2014-01-26T09:22:57.000Z</time>
      </trkpt>
      <trkpt lat="45.88861" lon="4.68639">
        <ele>292.79998779297</ele>
        <time>2014-01-26T09:23:04.000Z</time>
      </trkpt>
      <trkpt lat="45.88841" lon="4.68649">
        <ele>293.20001220703</ele>
        <time>2014-01-26T09:23:11.000Z</time>
      </trkpt>
      <trkpt lat="45.88822" lon="4.68656">
        <ele>293.79998779297</ele>
        <time>2014-01-26T09:23:18.000Z</time>
      </trkpt>
      <trkpt lat="45.88803" lon="4.68661">
        <ele>294.39999389648</ele>
        <time>2014-01-26T09:23:25.000Z</time>
      </trkpt>
      <trkpt lat="45.88784" lon="4.68667">
        <ele>294.79998779297</ele>
        <time>2014-01-26T09:23:31.000Z</time>
      </trkpt>
      <trkpt lat="45.88767" lon="4.68674">
        <ele>294.60000610352</ele>
        <time>2014-01-26T09:23:37.000Z</time>
      </trkpt>
      <trkpt lat="45.88747" lon="4.68686">
        <ele>294.20001220703</ele>
        <time>2014-01-26T09:23:44.000Z</time>
      </trkpt>
      <trkpt lat="45.8873" lon="4.68697">
        <ele>293.20001220703</ele>
        <time>2014-01-26T09:23:51.000Z</time>
      </trkpt>
      <trkpt lat="45.88713" lon="4.68709">
        <ele>292.39999389648</ele>
        <time>2014-01-26T09:23:58.000Z</time>
      </trkpt>
      <trkpt lat="45.88695" lon="4.68717">
        <ele>291.79998779297</ele>
        <time>2014-01-26T09:24:04.000Z</time>
      </trkpt>
      <trkpt lat="45.88678" lon="4.68727">
        <ele>291</ele>
        <time>2014-01-26T09:24:10.000Z</time>
      </trkpt>
      <trkpt lat="45.88662" lon="4.68741">
        <ele>290.20001220703</ele>
        <time>2014-01-26T09:24:17.000Z</time>
      </trkpt>
      <trkpt lat="45.88643" lon="4.68751">
        <ele>290</ele>
        <time>2014-01-26T09:24:24.000Z</time>
      </trkpt>
      <trkpt lat="45.88626" lon="4.68758">
        <ele>290.60000610352</ele>
        <time>2014-01-26T09:24:30.000Z</time>
      </trkpt>
      <trkpt lat="45.88606" lon="4.68764">
        <ele>291.20001220703</ele>
        <time>2014-01-26T09:24:37.000Z</time>
      </trkpt>
      <trkpt lat="45.88587" lon="4.68769">
        <ele>292</ele>
        <time>2014-01-26T09:24:44.000Z</time>
      </trkpt>
      <trkpt lat="45.88569" lon="4.68775">
        <ele>292.39999389648</ele>
        <time>2014-01-26T09:24:51.000Z</time>
      </trkpt>
      <trkpt lat="45.88551" lon="4.6878">
        <ele>292.79998779297</ele>
        <time>2014-01-26T09:24:58.000Z</time>
      </trkpt>
      <trkpt lat="45.88531" lon="4.68785">
        <ele>293.39999389648</ele>
        <time>2014-01-26T09:25:06.000Z</time>
      </trkpt>
      <trkpt lat="45.88511" lon="4.6879">
        <ele>293.60000610352</ele>
        <time>2014-01-26T09:25:14.000Z</time>
      </trkpt>
      <trkpt lat="45.88492" lon="4.68797">
        <ele>293.79998779297</ele>
        <time>2014-01-26T09:25:21.000Z</time>
      </trkpt>
      <trkpt lat="45.88473" lon="4.68802">
        <ele>294</ele>
        <time>2014-01-26T09:25:28.000Z</time>
      </trkpt>
      <trkpt lat="45.88456" lon="4.68806">
        <ele>294</ele>
        <time>2014-01-26T09:25:35.000Z</time>
      </trkpt>
      <trkpt lat="45.88454" lon="4.688">
        <ele>294.39999389648</ele>
        <time>2014-01-26T09:25:39.000Z</time>
      </trkpt>
      <trkpt lat="45.88453" lon="4.68775">
        <ele>296.39999389648</ele>
        <time>2014-01-26T09:26:21.000Z</time>
      </trkpt>
      <trkpt lat="45.88446" lon="4.68751">
        <ele>298.20001220703</ele>
        <time>2014-01-26T09:26:30.000Z</time>
      </trkpt>
      <trkpt lat="45.88456" lon="4.68726">
        <ele>300.60000610352</ele>
        <time>2014-01-26T09:26:40.000Z</time>
      </trkpt>
      <trkpt lat="45.88469" lon="4.68705">
        <ele>302.60000610352</ele>
        <time>2014-01-26T09:26:49.000Z</time>
      </trkpt>
      <trkpt lat="45.88483" lon="4.68684">
        <ele>304.60000610352</ele>
        <time>2014-01-26T09:26:59.000Z</time>
      </trkpt>
      <trkpt lat="45.88489" lon="4.68659">
        <ele>307</ele>
        <time>2014-01-26T09:27:08.000Z</time>
      </trkpt>
      <trkpt lat="45.8849" lon="4.68633">
        <ele>309.60000610352</ele>
        <time>2014-01-26T09:27:18.000Z</time>
      </trkpt>
      <trkpt lat="45.8849" lon="4.68605">
        <ele>312.20001220703</ele>
        <time>2014-01-26T09:27:29.000Z</time>
      </trkpt>
      <trkpt lat="45.88493" lon="4.68582">
        <ele>314.60000610352</ele>
        <time>2014-01-26T09:27:41.000Z</time>
      </trkpt>
      <trkpt lat="45.88499" lon="4.68569">
        <ele>316.20001220703</ele>
        <time>2014-01-26T09:27:49.000Z</time>
      </trkpt>
      <trkpt lat="45.88507" lon="4.68544">
        <ele>319.60000610352</ele>
        <time>2014-01-26T09:28:03.000Z</time>
      </trkpt>
      <trkpt lat="45.88517" lon="4.68522">
        <ele>322.39999389648</ele>
        <time>2014-01-26T09:28:16.000Z</time>
      </trkpt>
      <trkpt lat="45.88524" lon="4.68507">
        <ele>324.20001220703</ele>
        <time>2014-01-26T09:28:25.000Z</time>
      </trkpt>
      <trkpt lat="45.88531" lon="4.68483">
        <ele>327.60000610352</ele>
        <time>2014-01-26T09:28:38.000Z</time>
      </trkpt>
      <trkpt lat="45.88532" lon="4.68457">
        <ele>331.60000610352</ele>
        <time>2014-01-26T09:28:51.000Z</time>
      </trkpt>
      <trkpt lat="45.88542" lon="4.68433">
        <ele>334.79998779297</ele>
        <time>2014-01-26T09:29:04.000Z</time>
      </trkpt>
      <trkpt lat="45.88554" lon="4.68417">
        <ele>336.60000610352</ele>
        <time>2014-01-26T09:29:12.000Z</time>
      </trkpt>
      <trkpt lat="45.88567" lon="4.68399">
        <ele>336.39999389648</ele>
        <time>2014-01-26T09:29:19.000Z</time>
      </trkpt>
      <trkpt lat="45.88582" lon="4.68385">
        <ele>335.79998779297</ele>
        <time>2014-01-26T09:29:25.000Z</time>
      </trkpt>
      <trkpt lat="45.88593" lon="4.68377">
        <ele>334.39999389648</ele>
        <time>2014-01-26T09:29:29.000Z</time>
      </trkpt>
      <trkpt lat="45.88606" lon="4.68363">
        <ele>332.60000610352</ele>
        <time>2014-01-26T09:29:35.000Z</time>
      </trkpt>
      <trkpt lat="45.88614" lon="4.68345">
        <ele>331.60000610352</ele>
        <time>2014-01-26T09:29:41.000Z</time>
      </trkpt>
      <trkpt lat="45.88609" lon="4.68318">
        <ele>332.39999389648</ele>
        <time>2014-01-26T09:29:49.000Z</time>
      </trkpt>
      <trkpt lat="45.88599" lon="4.68293">
        <ele>333.20001220703</ele>
        <time>2014-01-26T09:29:58.000Z</time>
      </trkpt>
      <trkpt lat="45.88586" lon="4.68272">
        <ele>334.39999389648</ele>
        <time>2014-01-26T09:30:07.000Z</time>
      </trkpt>
      <trkpt lat="45.8857" lon="4.68254">
        <ele>335.39999389648</ele>
        <time>2014-01-26T09:30:15.000Z</time>
      </trkpt>
      <trkpt lat="45.88553" lon="4.68237">
        <ele>336</ele>
        <time>2014-01-26T09:30:23.000Z</time>
      </trkpt>
      <trkpt lat="45.88536" lon="4.68219">
        <ele>336.39999389648</ele>
        <time>2014-01-26T09:30:30.000Z</time>
      </trkpt>
      <trkpt lat="45.8852" lon="4.68202">
        <ele>336.79998779297</ele>
        <time>2014-01-26T09:30:37.000Z</time>
      </trkpt>
      <trkpt lat="45.88504" lon="4.68185">
        <ele>337</ele>
        <time>2014-01-26T09:30:44.000Z</time>
      </trkpt>
      <trkpt lat="45.88488" lon="4.68172">
        <ele>337.39999389648</ele>
        <time>2014-01-26T09:30:51.000Z</time>
      </trkpt>
      <trkpt lat="45.88472" lon="4.68159">
        <ele>338</ele>
        <time>2014-01-26T09:30:58.000Z</time>
      </trkpt>
      <trkpt lat="45.88455" lon="4.68145">
        <ele>338.60000610352</ele>
        <time>2014-01-26T09:31:05.000Z</time>
      </trkpt>
      <trkpt lat="45.88437" lon="4.68131">
        <ele>339.20001220703</ele>
        <time>2014-01-26T09:31:12.000Z</time>
      </trkpt>
      <trkpt lat="45.88419" lon="4.68119">
        <ele>340</ele>
        <time>2014-01-26T09:31:19.000Z</time>
      </trkpt>
      <trkpt lat="45.884" lon="4.68106">
        <ele>340.39999389648</ele>
        <time>2014-01-26T09:31:26.000Z</time>
      </trkpt>
      <trkpt lat="45.88384" lon="4.68091">
        <ele>340.39999389648</ele>
        <time>2014-01-26T09:31:33.000Z</time>
      </trkpt>
      <trkpt lat="45.88365" lon="4.68077">
        <ele>341</ele>
        <time>2014-01-26T09:31:40.000Z</time>
      </trkpt>
      <trkpt lat="45.88348" lon="4.68063">
        <ele>342</ele>
        <time>2014-01-26T09:31:47.000Z</time>
      </trkpt>
      <trkpt lat="45.88331" lon="4.68049">
        <ele>343.20001220703</ele>
        <time>2014-01-26T09:31:55.000Z</time>
      </trkpt>
      <trkpt lat="45.88315" lon="4.68033">
        <ele>344.20001220703</ele>
        <time>2014-01-26T09:32:02.000Z</time>
      </trkpt>
      <trkpt lat="45.883" lon="4.68015">
        <ele>345</ele>
        <time>2014-01-26T09:32:09.000Z</time>
      </trkpt>
      <trkpt lat="45.88286" lon="4.67994">
        <ele>346</ele>
        <time>2014-01-26T09:32:17.000Z</time>
      </trkpt>
      <trkpt lat="45.88274" lon="4.67974">
        <ele>347.20001220703</ele>
        <time>2014-01-26T09:32:25.000Z</time>
      </trkpt>
      <trkpt lat="45.88257" lon="4.67962">
        <ele>348.79998779297</ele>
        <time>2014-01-26T09:32:33.000Z</time>
      </trkpt>
      <trkpt lat="45.88239" lon="4.67954">
        <ele>350.39999389648</ele>
        <time>2014-01-26T09:32:41.000Z</time>
      </trkpt>
      <trkpt lat="45.8822" lon="4.67948">
        <ele>351.79998779297</ele>
        <time>2014-01-26T09:32:50.000Z</time>
      </trkpt>
      <trkpt lat="45.88201" lon="4.67939">
        <ele>353.39999389648</ele>
        <time>2014-01-26T09:32:59.000Z</time>
      </trkpt>
      <trkpt lat="45.88185" lon="4.67927">
        <ele>355.20001220703</ele>
        <time>2014-01-26T09:33:07.000Z</time>
      </trkpt>
      <trkpt lat="45.88168" lon="4.67914">
        <ele>357</ele>
        <time>2014-01-26T09:33:15.000Z</time>
      </trkpt>
      <trkpt lat="45.88153" lon="4.67901">
        <ele>358.20001220703</ele>
        <time>2014-01-26T09:33:22.000Z</time>
      </trkpt>
      <trkpt lat="45.88135" lon="4.6789">
        <ele>359.20001220703</ele>
        <time>2014-01-26T09:33:30.000Z</time>
      </trkpt>
      <trkpt lat="45.88119" lon="4.67877">
        <ele>360.20001220703</ele>
        <time>2014-01-26T09:33:38.000Z</time>
      </trkpt>
      <trkpt lat="45.88102" lon="4.67864">
        <ele>361.60000610352</ele>
        <time>2014-01-26T09:33:46.000Z</time>
      </trkpt>
      <trkpt lat="45.88084" lon="4.67855">
        <ele>362.60000610352</ele>
        <time>2014-01-26T09:33:53.000Z</time>
      </trkpt>
      <trkpt lat="45.88065" lon="4.67846">
        <ele>363.20001220703</ele>
        <time>2014-01-26T09:34:02.000Z</time>
      </trkpt>
      <trkpt lat="45.88051" lon="4.6783">
        <ele>363.60000610352</ele>
        <time>2014-01-26T09:34:10.000Z</time>
      </trkpt>
      <trkpt lat="45.88038" lon="4.67808">
        <ele>363.60000610352</ele>
        <time>2014-01-26T09:34:18.000Z</time>
      </trkpt>
      <trkpt lat="45.88024" lon="4.67787">
        <ele>364.20001220703</ele>
        <time>2014-01-26T09:34:26.000Z</time>
      </trkpt>
      <trkpt lat="45.88014" lon="4.67765">
        <ele>365.39999389648</ele>
        <time>2014-01-26T09:34:34.000Z</time>
      </trkpt>
      <trkpt lat="45.8801" lon="4.67759">
        <ele>365.79998779297</ele>
        <time>2014-01-26T09:34:36.000Z</time>
      </trkpt>
      <trkpt lat="45.88" lon="4.67737">
        <ele>366.20001220703</ele>
        <time>2014-01-26T09:34:43.000Z</time>
      </trkpt>
      <trkpt lat="45.87991" lon="4.67714">
        <ele>365.39999389648</ele>
        <time>2014-01-26T09:34:55.000Z</time>
      </trkpt>
      <trkpt lat="45.88" lon="4.677">
        <ele>364</ele>
        <time>2014-01-26T09:36:30.000Z</time>
      </trkpt>
      <trkpt lat="45.87998" lon="4.67705">
        <ele>364.39999389648</ele>
        <time>2014-01-26T09:38:34.000Z</time>
      </trkpt>
      <trkpt lat="45.87999" lon="4.67705">
        <ele>364.39999389648</ele>
        <time>2014-01-26T09:38:53.000Z</time>
      </trkpt>
      <trkpt lat="45.87996" lon="4.6771">
        <ele>364.79998779297</ele>
        <time>2014-01-26T09:39:38.000Z</time>
      </trkpt>
      <trkpt lat="45.87995" lon="4.67711">
        <ele>365</ele>
        <time>2014-01-26T09:40:28.000Z</time>
      </trkpt>
      <trkpt lat="45.87992" lon="4.67715">
        <ele>365.39999389648</ele>
        <time>2014-01-26T09:41:53.000Z</time>
      </trkpt>
      <trkpt lat="45.87991" lon="4.67722">
        <ele>365.79998779297</ele>
        <time>2014-01-26T09:41:57.000Z</time>
      </trkpt>
      <trkpt lat="45.87984" lon="4.67724">
        <ele>366.39999389648</ele>
        <time>2014-01-26T09:42:02.000Z</time>
      </trkpt>
      <trkpt lat="45.87968" lon="4.67735">
        <ele>367.60000610352</ele>
        <time>2014-01-26T09:42:12.000Z</time>
      </trkpt>
      <trkpt lat="45.87953" lon="4.67752">
        <ele>368.60000610352</ele>
        <time>2014-01-26T09:42:20.000Z</time>
      </trkpt>
      <trkpt lat="45.87937" lon="4.67772">
        <ele>367.79998779297</ele>
        <time>2014-01-26T09:42:27.000Z</time>
      </trkpt>
      <trkpt lat="45.8793" lon="4.67796">
        <ele>366.39999389648</ele>
        <time>2014-01-26T09:42:33.000Z</time>
      </trkpt>
      <trkpt lat="45.87928" lon="4.6782">
        <ele>364.79998779297</ele>
        <time>2014-01-26T09:42:39.000Z</time>
      </trkpt>
      <trkpt lat="45.87913" lon="4.67822">
        <ele>364.60000610352</ele>
        <time>2014-01-26T09:42:45.000Z</time>
      </trkpt>
      <trkpt lat="45.87894" lon="4.67817">
        <ele>364.39999389648</ele>
        <time>2014-01-26T09:42:51.000Z</time>
      </trkpt>
      <trkpt lat="45.87875" lon="4.67813">
        <ele>364</ele>
        <time>2014-01-26T09:42:57.000Z</time>
      </trkpt>
      <trkpt lat="45.87855" lon="4.6781">
        <ele>363.60000610352</ele>
        <time>2014-01-26T09:43:03.000Z</time>
      </trkpt>
      <trkpt lat="45.87835" lon="4.67813">
        <ele>362.79998779297</ele>
        <time>2014-01-26T09:43:09.000Z</time>
      </trkpt>
      <trkpt lat="45.87816" lon="4.67816">
        <ele>361.79998779297</ele>
        <time>2014-01-26T09:43:15.000Z</time>
      </trkpt>
      <trkpt lat="45.87796" lon="4.6782">
        <ele>360.79998779297</ele>
        <time>2014-01-26T09:43:21.000Z</time>
      </trkpt>
      <trkpt lat="45.87775" lon="4.67822">
        <ele>359.79998779297</ele>
        <time>2014-01-26T09:43:27.000Z</time>
      </trkpt>
      <trkpt lat="45.87757" lon="4.67828">
        <ele>358.60000610352</ele>
        <time>2014-01-26T09:43:33.000Z</time>
      </trkpt>
      <trkpt lat="45.87737" lon="4.67834">
        <ele>357</ele>
        <time>2014-01-26T09:43:39.000Z</time>
      </trkpt>
      <trkpt lat="45.87718" lon="4.67841">
        <ele>355.39999389648</ele>
        <time>2014-01-26T09:43:45.000Z</time>
      </trkpt>
      <trkpt lat="45.87699" lon="4.67848">
        <ele>353.60000610352</ele>
        <time>2014-01-26T09:43:51.000Z</time>
      </trkpt>
      <trkpt lat="45.8768" lon="4.67855">
        <ele>351.60000610352</ele>
        <time>2014-01-26T09:43:57.000Z</time>
      </trkpt>
      <trkpt lat="45.87665" lon="4.67873">
        <ele>349</ele>
        <time>2014-01-26T09:44:03.000Z</time>
      </trkpt>
      <trkpt lat="45.87658" lon="4.67898">
        <ele>346.60000610352</ele>
        <time>2014-01-26T09:44:08.000Z</time>
      </trkpt>
      <trkpt lat="45.87647" lon="4.67922">
        <ele>344.39999389648</ele>
        <time>2014-01-26T09:44:14.000Z</time>
      </trkpt>
      <trkpt lat="45.87635" lon="4.67948">
        <ele>343.79998779297</ele>
        <time>2014-01-26T09:44:20.000Z</time>
      </trkpt>
      <trkpt lat="45.87626" lon="4.67971">
        <ele>342.79998779297</ele>
        <time>2014-01-26T09:44:26.000Z</time>
      </trkpt>
      <trkpt lat="45.87616" lon="4.67994">
        <ele>342</ele>
        <time>2014-01-26T09:44:32.000Z</time>
      </trkpt>
      <trkpt lat="45.87608" lon="4.6802">
        <ele>341.60000610352</ele>
        <time>2014-01-26T09:44:38.000Z</time>
      </trkpt>
      <trkpt lat="45.876" lon="4.68047">
        <ele>341.20001220703</ele>
        <time>2014-01-26T09:44:44.000Z</time>
      </trkpt>
      <trkpt lat="45.87592" lon="4.6807">
        <ele>340.39999389648</ele>
        <time>2014-01-26T09:44:51.000Z</time>
      </trkpt>
      <trkpt lat="45.87585" lon="4.68094">
        <ele>339.60000610352</ele>
        <time>2014-01-26T09:44:58.000Z</time>
      </trkpt>
      <trkpt lat="45.87582" lon="4.68119">
        <ele>339.60000610352</ele>
        <time>2014-01-26T09:45:04.000Z</time>
      </trkpt>
      <trkpt lat="45.87578" lon="4.68145">
        <ele>339.39999389648</ele>
        <time>2014-01-26T09:45:10.000Z</time>
      </trkpt>
      <trkpt lat="45.87571" lon="4.6817">
        <ele>338.79998779297</ele>
        <time>2014-01-26T09:45:16.000Z</time>
      </trkpt>
      <trkpt lat="45.87565" lon="4.68195">
        <ele>339.60000610352</ele>
        <time>2014-01-26T09:45:22.000Z</time>
      </trkpt>
      <trkpt lat="45.87559" lon="4.6822">
        <ele>340.39999389648</ele>
        <time>2014-01-26T09:45:28.000Z</time>
      </trkpt>
      <trkpt lat="45.87552" lon="4.68245">
        <ele>340.39999389648</ele>
        <time>2014-01-26T09:45:34.000Z</time>
      </trkpt>
      <trkpt lat="45.87542" lon="4.68268">
        <ele>340.39999389648</ele>
        <time>2014-01-26T09:45:41.000Z</time>
      </trkpt>
      <trkpt lat="45.8753" lon="4.6829">
        <ele>340.20001220703</ele>
        <time>2014-01-26T09:45:48.000Z</time>
      </trkpt>
      <trkpt lat="45.87519" lon="4.68314">
        <ele>340.60000610352</ele>
        <time>2014-01-26T09:45:55.000Z</time>
      </trkpt>
      <trkpt lat="45.87506" lon="4.68335">
        <ele>340.60000610352</ele>
        <time>2014-01-26T09:46:02.000Z</time>
      </trkpt>
      <trkpt lat="45.87495" lon="4.68356">
        <ele>341.79998779297</ele>
        <time>2014-01-26T09:46:09.000Z</time>
      </trkpt>
      <trkpt lat="45.87486" lon="4.68371">
        <ele>342.79998779297</ele>
        <time>2014-01-26T09:46:15.000Z</time>
      </trkpt>
      <trkpt lat="45.8747" lon="4.68389">
        <ele>343.20001220703</ele>
        <time>2014-01-26T09:46:24.000Z</time>
      </trkpt>
      <trkpt lat="45.87455" lon="4.68404">
        <ele>343.60000610352</ele>
        <time>2014-01-26T09:46:32.000Z</time>
      </trkpt>
      <trkpt lat="45.8744" lon="4.68419">
        <ele>343.79998779297</ele>
        <time>2014-01-26T09:46:39.000Z</time>
      </trkpt>
      <trkpt lat="45.87423" lon="4.68436">
        <ele>342.60000610352</ele>
        <time>2014-01-26T09:46:46.000Z</time>
      </trkpt>
      <trkpt lat="45.87407" lon="4.68454">
        <ele>341.60000610352</ele>
        <time>2014-01-26T09:46:53.000Z</time>
      </trkpt>
      <trkpt lat="45.87391" lon="4.68472">
        <ele>340.60000610352</ele>
        <time>2014-01-26T09:47:00.000Z</time>
      </trkpt>
      <trkpt lat="45.87385" lon="4.68479">
        <ele>340.39999389648</ele>
        <time>2014-01-26T09:47:03.000Z</time>
      </trkpt>
      <trkpt lat="45.87371" lon="4.68495">
        <ele>340.20001220703</ele>
        <time>2014-01-26T09:47:09.000Z</time>
      </trkpt>
      <trkpt lat="45.87353" lon="4.68509">
        <ele>337.79998779297</ele>
        <time>2014-01-26T09:47:15.000Z</time>
      </trkpt>
      <trkpt lat="45.87335" lon="4.68524">
        <ele>335</ele>
        <time>2014-01-26T09:47:21.000Z</time>
      </trkpt>
      <trkpt lat="45.87319" lon="4.68537">
        <ele>332.20001220703</ele>
        <time>2014-01-26T09:47:27.000Z</time>
      </trkpt>
      <trkpt lat="45.87302" lon="4.68552">
        <ele>330.20001220703</ele>
        <time>2014-01-26T09:47:33.000Z</time>
      </trkpt>
      <trkpt lat="45.87285" lon="4.68566">
        <ele>328.79998779297</ele>
        <time>2014-01-26T09:47:39.000Z</time>
      </trkpt>
      <trkpt lat="45.87268" lon="4.6858">
        <ele>328.20001220703</ele>
        <time>2014-01-26T09:47:45.000Z</time>
      </trkpt>
      <trkpt lat="45.8725" lon="4.68595">
        <ele>326</ele>
        <time>2014-01-26T09:47:51.000Z</time>
      </trkpt>
      <trkpt lat="45.87233" lon="4.68606">
        <ele>323</ele>
        <time>2014-01-26T09:47:57.000Z</time>
      </trkpt>
      <trkpt lat="45.87214" lon="4.68615">
        <ele>320.20001220703</ele>
        <time>2014-01-26T09:48:03.000Z</time>
      </trkpt>
      <trkpt lat="45.87193" lon="4.68618">
        <ele>317.79998779297</ele>
        <time>2014-01-26T09:48:09.000Z</time>
      </trkpt>
      <trkpt lat="45.87175" lon="4.68618">
        <ele>315.79998779297</ele>
        <time>2014-01-26T09:48:15.000Z</time>
      </trkpt>
      <trkpt lat="45.87154" lon="4.6862">
        <ele>313.60000610352</ele>
        <time>2014-01-26T09:48:23.000Z</time>
      </trkpt>
      <trkpt lat="45.87134" lon="4.68625">
        <ele>311.60000610352</ele>
        <time>2014-01-26T09:48:29.000Z</time>
      </trkpt>
      <trkpt lat="45.87116" lon="4.68633">
        <ele>310.60000610352</ele>
        <time>2014-01-26T09:48:35.000Z</time>
      </trkpt>
      <trkpt lat="45.87096" lon="4.68637">
        <ele>309.20001220703</ele>
        <time>2014-01-26T09:48:42.000Z</time>
      </trkpt>
      <trkpt lat="45.87078" lon="4.68644">
        <ele>308</ele>
        <time>2014-01-26T09:48:48.000Z</time>
      </trkpt>
      <trkpt lat="45.87061" lon="4.68656">
        <ele>306.60000610352</ele>
        <time>2014-01-26T09:48:54.000Z</time>
      </trkpt>
      <trkpt lat="45.87045" lon="4.68667">
        <ele>305.39999389648</ele>
        <time>2014-01-26T09:49:00.000Z</time>
      </trkpt>
      <trkpt lat="45.87027" lon="4.68681">
        <ele>302.60000610352</ele>
        <time>2014-01-26T09:49:06.000Z</time>
      </trkpt>
      <trkpt lat="45.87008" lon="4.6869">
        <ele>300.20001220703</ele>
        <time>2014-01-26T09:49:13.000Z</time>
      </trkpt>
      <trkpt lat="45.86991" lon="4.687">
        <ele>297.39999389648</ele>
        <time>2014-01-26T09:49:20.000Z</time>
      </trkpt>
      <trkpt lat="45.86974" lon="4.68711">
        <ele>293.79998779297</ele>
        <time>2014-01-26T09:49:27.000Z</time>
      </trkpt>
      <trkpt lat="45.86956" lon="4.68727">
        <ele>291.39999389648</ele>
        <time>2014-01-26T09:49:34.000Z</time>
      </trkpt>
      <trkpt lat="45.8694" lon="4.68739">
        <ele>289.20001220703</ele>
        <time>2014-01-26T09:49:40.000Z</time>
      </trkpt>
      <trkpt lat="45.86926" lon="4.68759">
        <ele>288</ele>
        <time>2014-01-26T09:49:47.000Z</time>
      </trkpt>
      <trkpt lat="45.86912" lon="4.68778">
        <ele>285.79998779297</ele>
        <time>2014-01-26T09:49:53.000Z</time>
      </trkpt>
      <trkpt lat="45.86898" lon="4.68797">
        <ele>283</ele>
        <time>2014-01-26T09:50:00.000Z</time>
      </trkpt>
      <trkpt lat="45.86884" lon="4.68816">
        <ele>280.60000610352</ele>
        <time>2014-01-26T09:50:07.000Z</time>
      </trkpt>
      <trkpt lat="45.8687" lon="4.68834">
        <ele>278.39999389648</ele>
        <time>2014-01-26T09:50:14.000Z</time>
      </trkpt>
      <trkpt lat="45.86855" lon="4.6885">
        <ele>273.79998779297</ele>
        <time>2014-01-26T09:50:22.000Z</time>
      </trkpt>
      <trkpt lat="45.86838" lon="4.68865">
        <ele>269.39999389648</ele>
        <time>2014-01-26T09:50:31.000Z</time>
      </trkpt>
      <trkpt lat="45.86823" lon="4.68881">
        <ele>265.20001220703</ele>
        <time>2014-01-26T09:50:39.000Z</time>
      </trkpt>
      <trkpt lat="45.86811" lon="4.68903">
        <ele>261.20001220703</ele>
        <time>2014-01-26T09:50:48.000Z</time>
      </trkpt>
      <trkpt lat="45.86796" lon="4.6892">
        <ele>257.39999389648</ele>
        <time>2014-01-26T09:50:56.000Z</time>
      </trkpt>
      <trkpt lat="45.86781" lon="4.68935">
        <ele>253.39999389648</ele>
        <time>2014-01-26T09:51:03.000Z</time>
      </trkpt>
      <trkpt lat="45.86764" lon="4.68948">
        <ele>249.60000610352</ele>
        <time>2014-01-26T09:51:10.000Z</time>
      </trkpt>
      <trkpt lat="45.86749" lon="4.68962">
        <ele>246.80000305176</ele>
        <time>2014-01-26T09:51:16.000Z</time>
      </trkpt>
      <trkpt lat="45.86741" lon="4.68988">
        <ele>245.39999389648</ele>
        <time>2014-01-26T09:51:23.000Z</time>
      </trkpt>
      <trkpt lat="45.86729" lon="4.69005">
        <ele>243</ele>
        <time>2014-01-26T09:51:29.000Z</time>
      </trkpt>
      <trkpt lat="45.86718" lon="4.69026">
        <ele>239.19999694824</ele>
        <time>2014-01-26T09:51:36.000Z</time>
      </trkpt>
      <trkpt lat="45.86702" lon="4.6904">
        <ele>236</ele>
        <time>2014-01-26T09:51:45.000Z</time>
      </trkpt>
      <trkpt lat="45.86683" lon="4.69046">
        <ele>232.80000305176</ele>
        <time>2014-01-26T09:51:53.000Z</time>
      </trkpt>
      <trkpt lat="45.86666" lon="4.69051">
        <ele>230</ele>
        <time>2014-01-26T09:52:00.000Z</time>
      </trkpt>
      <trkpt lat="45.86664" lon="4.69048">
        <ele>230</ele>
        <time>2014-01-26T09:52:01.000Z</time>
      </trkpt>
      <trkpt lat="45.86658" lon="4.6902">
        <ele>230.60000610352</ele>
        <time>2014-01-26T09:52:09.000Z</time>
      </trkpt>
      <trkpt lat="45.86653" lon="4.68994">
        <ele>230.80000305176</ele>
        <time>2014-01-26T09:52:16.000Z</time>
      </trkpt>
      <trkpt lat="45.86647" lon="4.68966">
        <ele>230.39999389648</ele>
        <time>2014-01-26T09:52:23.000Z</time>
      </trkpt>
      <trkpt lat="45.86645" lon="4.68964">
        <ele>230.19999694824</ele>
        <time>2014-01-26T09:52:24.000Z</time>
      </trkpt>
      <trkpt lat="45.86635" lon="4.68963">
        <ele>229.39999389648</ele>
        <time>2014-01-26T09:52:28.000Z</time>
      </trkpt>
      <trkpt lat="45.86618" lon="4.68974">
        <ele>227.80000305176</ele>
        <time>2014-01-26T09:52:35.000Z</time>
      </trkpt>
      <trkpt lat="45.86603" lon="4.6899">
        <ele>226.60000610352</ele>
        <time>2014-01-26T09:52:41.000Z</time>
      </trkpt>
      <trkpt lat="45.86588" lon="4.69005">
        <ele>225.39999389648</ele>
        <time>2014-01-26T09:52:47.000Z</time>
      </trkpt>
      <trkpt lat="45.86571" lon="4.69015">
        <ele>224.39999389648</ele>
        <time>2014-01-26T09:52:54.000Z</time>
      </trkpt>
      <trkpt lat="45.86554" lon="4.69025">
        <ele>223.60000610352</ele>
        <time>2014-01-26T09:53:01.000Z</time>
      </trkpt>
      <trkpt lat="45.86536" lon="4.69036">
        <ele>222.80000305176</ele>
        <time>2014-01-26T09:53:08.000Z</time>
      </trkpt>
      <trkpt lat="45.86516" lon="4.69045">
        <ele>222</ele>
        <time>2014-01-26T09:53:15.000Z</time>
      </trkpt>
      <trkpt lat="45.86499" lon="4.69056">
        <ele>221.39999389648</ele>
        <time>2014-01-26T09:53:21.000Z</time>
      </trkpt>
      <trkpt lat="45.8648" lon="4.69064">
        <ele>220.80000305176</ele>
        <time>2014-01-26T09:53:28.000Z</time>
      </trkpt>
      <trkpt lat="45.86461" lon="4.6907">
        <ele>220.60000610352</ele>
        <time>2014-01-26T09:53:35.000Z</time>
      </trkpt>
      <trkpt lat="45.86442" lon="4.69076">
        <ele>220.19999694824</ele>
        <time>2014-01-26T09:53:41.000Z</time>
      </trkpt>
      <trkpt lat="45.86424" lon="4.69089">
        <ele>220</ele>
        <time>2014-01-26T09:53:48.000Z</time>
      </trkpt>
      <trkpt lat="45.86407" lon="4.69101">
        <ele>219.19999694824</ele>
        <time>2014-01-26T09:53:55.000Z</time>
      </trkpt>
      <trkpt lat="45.86389" lon="4.69114">
        <ele>218.39999389648</ele>
        <time>2014-01-26T09:54:02.000Z</time>
      </trkpt>
      <trkpt lat="45.8637" lon="4.69127">
        <ele>217.60000610352</ele>
        <time>2014-01-26T09:54:09.000Z</time>
      </trkpt>
      <trkpt lat="45.86366" lon="4.69129">
        <ele>217.39999389648</ele>
        <time>2014-01-26T09:54:11.000Z</time>
      </trkpt>
      <trkpt lat="45.86361" lon="4.69129">
        <ele>217.19999694824</ele>
        <time>2014-01-26T09:54:13.000Z</time>
      </trkpt>
      <trkpt lat="45.86359" lon="4.69115">
        <ele>217</ele>
        <time>2014-01-26T09:54:17.000Z</time>
      </trkpt>
      <trkpt lat="45.86353" lon="4.6909">
        <ele>216.39999389648</ele>
        <time>2014-01-26T09:54:23.000Z</time>
      </trkpt>
      <trkpt lat="45.86341" lon="4.6907">
        <ele>215.60000610352</ele>
        <time>2014-01-26T09:54:29.000Z</time>
      </trkpt>
      <trkpt lat="45.86327" lon="4.6905">
        <ele>215.19999694824</ele>
        <time>2014-01-26T09:54:36.000Z</time>
      </trkpt>
      <trkpt lat="45.86316" lon="4.69026">
        <ele>215.39999389648</ele>
        <time>2014-01-26T09:54:44.000Z</time>
      </trkpt>
      <trkpt lat="45.86306" lon="4.69003">
        <ele>216</ele>
        <time>2014-01-26T09:54:52.000Z</time>
      </trkpt>
      <trkpt lat="45.86295" lon="4.68981">
        <ele>217</ele>
        <time>2014-01-26T09:55:00.000Z</time>
      </trkpt>
      <trkpt lat="45.86284" lon="4.6896">
        <ele>218</ele>
        <time>2014-01-26T09:55:08.000Z</time>
      </trkpt>
      <trkpt lat="45.86273" lon="4.68939">
        <ele>219</ele>
        <time>2014-01-26T09:55:15.000Z</time>
      </trkpt>
      <trkpt lat="45.86262" lon="4.68918">
        <ele>220</ele>
        <time>2014-01-26T09:55:22.000Z</time>
      </trkpt>
      <trkpt lat="45.8625" lon="4.68894">
        <ele>220.60000610352</ele>
        <time>2014-01-26T09:55:30.000Z</time>
      </trkpt>
      <trkpt lat="45.86239" lon="4.68871">
        <ele>220.80000305176</ele>
        <time>2014-01-26T09:55:37.000Z</time>
      </trkpt>
      <trkpt lat="45.86229" lon="4.68848">
        <ele>221.39999389648</ele>
        <time>2014-01-26T09:55:44.000Z</time>
      </trkpt>
      <trkpt lat="45.86221" lon="4.68822">
        <ele>222.39999389648</ele>
        <time>2014-01-26T09:55:52.000Z</time>
      </trkpt>
      <trkpt lat="45.8621" lon="4.68797">
        <ele>222.80000305176</ele>
        <time>2014-01-26T09:55:59.000Z</time>
      </trkpt>
      <trkpt lat="45.862" lon="4.68776">
        <ele>223.19999694824</ele>
        <time>2014-01-26T09:56:05.000Z</time>
      </trkpt>
      <trkpt lat="45.86188" lon="4.68753">
        <ele>223.39999389648</ele>
        <time>2014-01-26T09:56:12.000Z</time>
      </trkpt>
      <trkpt lat="45.86177" lon="4.6873">
        <ele>223.80000305176</ele>
        <time>2014-01-26T09:56:19.000Z</time>
      </trkpt>
      <trkpt lat="45.86165" lon="4.68708">
        <ele>223.80000305176</ele>
        <time>2014-01-26T09:56:26.000Z</time>
      </trkpt>
      <trkpt lat="45.86155" lon="4.68684">
        <ele>223.60000610352</ele>
        <time>2014-01-26T09:56:33.000Z</time>
      </trkpt>
      <trkpt lat="45.86145" lon="4.6866">
        <ele>223.60000610352</ele>
        <time>2014-01-26T09:56:40.000Z</time>
      </trkpt>
      <trkpt lat="45.86137" lon="4.68636">
        <ele>224</ele>
        <time>2014-01-26T09:56:47.000Z</time>
      </trkpt>
      <trkpt lat="45.86123" lon="4.68618">
        <ele>223.39999389648</ele>
        <time>2014-01-26T09:56:52.000Z</time>
      </trkpt>
      <trkpt lat="45.86114" lon="4.68602">
        <ele>222.80000305176</ele>
        <time>2014-01-26T09:56:58.000Z</time>
      </trkpt>
      <trkpt lat="45.86098" lon="4.68586">
        <ele>221</ele>
        <time>2014-01-26T09:57:06.000Z</time>
      </trkpt>
      <trkpt lat="45.86082" lon="4.68569">
        <ele>219.60000610352</ele>
        <time>2014-01-26T09:57:14.000Z</time>
      </trkpt>
      <trkpt lat="45.86081" lon="4.68566">
        <ele>219.80000305176</ele>
        <time>2014-01-26T09:57:15.000Z</time>
      </trkpt>
      <trkpt lat="45.86078" lon="4.68557">
        <ele>219.60000610352</ele>
        <time>2014-01-26T09:57:19.000Z</time>
      </trkpt>
      <trkpt lat="45.86067" lon="4.68536">
        <ele>218.80000305176</ele>
        <time>2014-01-26T09:57:30.000Z</time>
      </trkpt>
      <trkpt lat="45.86056" lon="4.68515">
        <ele>217.60000610352</ele>
        <time>2014-01-26T09:57:37.000Z</time>
      </trkpt>
      <trkpt lat="45.86044" lon="4.68491">
        <ele>216.39999389648</ele>
        <time>2014-01-26T09:57:46.000Z</time>
      </trkpt>
      <trkpt lat="45.86036" lon="4.68465">
        <ele>216</ele>
        <time>2014-01-26T09:57:54.000Z</time>
      </trkpt>
      <trkpt lat="45.86028" lon="4.68439">
        <ele>215.80000305176</ele>
        <time>2014-01-26T09:58:01.000Z</time>
      </trkpt>
      <trkpt lat="45.8602" lon="4.68412">
        <ele>215.80000305176</ele>
        <time>2014-01-26T09:58:08.000Z</time>
      </trkpt>
      <trkpt lat="45.8601" lon="4.68387">
        <ele>215.19999694824</ele>
        <time>2014-01-26T09:58:16.000Z</time>
      </trkpt>
      <trkpt lat="45.8601" lon="4.68385">
        <ele>215.19999694824</ele>
        <time>2014-01-26T09:58:17.000Z</time>
      </trkpt>
      <trkpt lat="45.85995" lon="4.68375">
        <ele>213.39999389648</ele>
        <time>2014-01-26T09:58:24.000Z</time>
      </trkpt>
      <trkpt lat="45.85978" lon="4.68361">
        <ele>211.80000305176</ele>
        <time>2014-01-26T09:58:36.000Z</time>
      </trkpt>
      <trkpt lat="45.85972" lon="4.68356">
        <ele>211.39999389648</ele>
        <time>2014-01-26T09:58:38.000Z</time>
      </trkpt>
      <trkpt lat="45.85954" lon="4.68357">
        <ele>208.80000305176</ele>
        <time>2014-01-26T09:58:44.000Z</time>
      </trkpt>
      <trkpt lat="45.85936" lon="4.68368">
        <ele>206.19999694824</ele>
        <time>2014-01-26T09:58:50.000Z</time>
      </trkpt>
      <trkpt lat="45.85919" lon="4.68383">
        <ele>203.39999389648</ele>
        <time>2014-01-26T09:58:56.000Z</time>
      </trkpt>
      <trkpt lat="45.85902" lon="4.68394">
        <ele>202.19999694824</ele>
        <time>2014-01-26T09:59:02.000Z</time>
      </trkpt>
      <trkpt lat="45.85885" lon="4.68404">
        <ele>201.19999694824</ele>
        <time>2014-01-26T09:59:08.000Z</time>
      </trkpt>
      <trkpt lat="45.85871" lon="4.68424">
        <ele>200.39999389648</ele>
        <time>2014-01-26T09:59:16.000Z</time>
      </trkpt>
      <trkpt lat="45.8587" lon="4.68428">
        <ele>200.39999389648</ele>
        <time>2014-01-26T09:59:17.000Z</time>
      </trkpt>
      <trkpt lat="45.8587" lon="4.68433">
        <ele>200.39999389648</ele>
        <time>2014-01-26T09:59:20.000Z</time>
      </trkpt>
      <trkpt lat="45.85865" lon="4.68447">
        <ele>200.19999694824</ele>
        <time>2014-01-26T09:59:36.000Z</time>
      </trkpt>
      <trkpt lat="45.85863" lon="4.68429">
        <ele>200.19999694824</ele>
        <time>2014-01-26T09:59:54.000Z</time>
      </trkpt>
      <trkpt lat="45.85858" lon="4.68403">
        <ele>200.19999694824</ele>
        <time>2014-01-26T10:00:01.000Z</time>
      </trkpt>
      <trkpt lat="45.85847" lon="4.68382">
        <ele>200</ele>
        <time>2014-01-26T10:00:07.000Z</time>
      </trkpt>
      <trkpt lat="45.85832" lon="4.68364">
        <ele>199.60000610352</ele>
        <time>2014-01-26T10:00:13.000Z</time>
      </trkpt>
      <trkpt lat="45.85819" lon="4.68344">
        <ele>200</ele>
        <time>2014-01-26T10:00:19.000Z</time>
      </trkpt>
      <trkpt lat="45.85804" lon="4.68326">
        <ele>200.39999389648</ele>
        <time>2014-01-26T10:00:26.000Z</time>
      </trkpt>
      <trkpt lat="45.85786" lon="4.68312">
        <ele>200.39999389648</ele>
        <time>2014-01-26T10:00:33.000Z</time>
      </trkpt>
      <trkpt lat="45.8577" lon="4.68295">
        <ele>200.19999694824</ele>
        <time>2014-01-26T10:00:41.000Z</time>
      </trkpt>
      <trkpt lat="45.85754" lon="4.68276">
        <ele>199.80000305176</ele>
        <time>2014-01-26T10:00:48.000Z</time>
      </trkpt>
      <trkpt lat="45.8574" lon="4.6826">
        <ele>199.39999389648</ele>
        <time>2014-01-26T10:00:55.000Z</time>
      </trkpt>
      <trkpt lat="45.85725" lon="4.68247">
        <ele>199.39999389648</ele>
        <time>2014-01-26T10:01:02.000Z</time>
      </trkpt>
      <trkpt lat="45.85723" lon="4.68245">
        <ele>199.39999389648</ele>
        <time>2014-01-26T10:01:03.000Z</time>
      </trkpt>
      <trkpt lat="45.85715" lon="4.68235">
        <ele>199.39999389648</ele>
        <time>2014-01-26T10:01:07.000Z</time>
      </trkpt>
      <trkpt lat="45.85701" lon="4.68216">
        <ele>199.19999694824</ele>
        <time>2014-01-26T10:01:14.000Z</time>
      </trkpt>
      <trkpt lat="45.85687" lon="4.68196">
        <ele>199</ele>
        <time>2014-01-26T10:01:22.000Z</time>
      </trkpt>
      <trkpt lat="45.85673" lon="4.68174">
        <ele>198.39999389648</ele>
        <time>2014-01-26T10:01:30.000Z</time>
      </trkpt>
      <trkpt lat="45.85661" lon="4.68154">
        <ele>198.39999389648</ele>
        <time>2014-01-26T10:01:36.000Z</time>
      </trkpt>
      <trkpt lat="45.85656" lon="4.68142">
        <ele>198.80000305176</ele>
        <time>2014-01-26T10:01:40.000Z</time>
      </trkpt>
      <trkpt lat="45.8565" lon="4.68121">
        <ele>199</ele>
        <time>2014-01-26T10:01:46.000Z</time>
      </trkpt>
      <trkpt lat="45.85645" lon="4.68131">
        <ele>199.19999694824</ele>
        <time>2014-01-26T10:01:53.000Z</time>
      </trkpt>
      <trkpt lat="45.85647" lon="4.68134">
        <ele>199.19999694824</ele>
        <time>2014-01-26T10:01:55.000Z</time>
      </trkpt>
      <trkpt lat="45.85638" lon="4.68151">
        <ele>199.60000610352</ele>
        <time>2014-01-26T10:02:05.000Z</time>
      </trkpt>
      <trkpt lat="45.85637" lon="4.68154">
        <ele>199.60000610352</ele>
        <time>2014-01-26T10:02:07.000Z</time>
      </trkpt>
      <trkpt lat="45.85625" lon="4.68166">
        <ele>200.39999389648</ele>
        <time>2014-01-26T10:02:16.000Z</time>
      </trkpt>
      <trkpt lat="45.85608" lon="4.68153">
        <ele>201</ele>
        <time>2014-01-26T10:02:23.000Z</time>
      </trkpt>
      <trkpt lat="45.85596" lon="4.68133">
        <ele>201</ele>
        <time>2014-01-26T10:02:30.000Z</time>
      </trkpt>
      <trkpt lat="45.85583" lon="4.68112">
        <ele>200.39999389648</ele>
        <time>2014-01-26T10:02:36.000Z</time>
      </trkpt>
      <trkpt lat="45.85571" lon="4.68089">
        <ele>200</ele>
        <time>2014-01-26T10:02:42.000Z</time>
      </trkpt>
      <trkpt lat="45.85564" lon="4.68074">
        <ele>200.39999389648</ele>
        <time>2014-01-26T10:02:48.000Z</time>
      </trkpt>
      <trkpt lat="45.85558" lon="4.68086">
        <ele>200.60000610352</ele>
        <time>2014-01-26T10:03:32.000Z</time>
      </trkpt>
      <trkpt lat="45.85566" lon="4.68095">
        <ele>200.60000610352</ele>
        <time>2014-01-26T10:04:36.000Z</time>
      </trkpt>
      <trkpt lat="45.85567" lon="4.68096">
        <ele>200.39999389648</ele>
        <time>2014-01-26T10:04:40.000Z</time>
      </trkpt>
    </trkseg>
  </trk>
</gpx>